LuftSinnSensorLog

ID Sensor Name Date and Time Latitude Longitude CO2 Temperature Humidity Pressure Marker Color
5 EE-3 2018-05-30 10:53:52 38.8876 -76.9467 503.5 22.4 54.4 1016.6 #ff0000
5 EE-3 2018-05-30 11:08:23 38.8876 -76.9467 495.7 22.3 54.9 1016.4 #ff0000
5 EE-3 2018-05-31 11:04:50 38.8876 -76.9467 467.5 21.2 58.5 1013.6 #ff4400
5 EE-3 2018-05-31 11:19:21 38.8876 -76.9467 453 21.2 58.4 1013.7 #ff7d00
5 EE-3 2018-06-04 15:42:31 38.8876 -76.9467 553.2 21.5 52.2 1006.3 #ff0000
5 EE-3 2018-06-04 15:57:02 38.8876 -76.9467 449.3 22 50 1006.2 #ff8b00
5 EE-3 2018-06-04 16:11:33 38.8876 -76.9467 436.8 22 49.4 1006 #ffbc00
5 EE-3 2018-06-04 16:12:24 38.8876 -76.9467 437.3 22 49.4 1006 #ffbb00
5 EE-3 2018-06-04 16:14:41 38.8876 -76.9467 432.7 22 49.3 1006.1 #ffcd00
5 EE-3 2018-06-04 16:29:12 38.8876 -76.9467 425.7 22 48.4 1006.1 #ffe800
5 EE-3 2018-06-04 16:43:43 38.8876 -76.9467 426.2 22.2 47.6 1006.1 #ffe600
5 EE-3 2018-06-04 16:58:13 38.8876 -76.9467 427.2 22.2 47.4 1006.1 #ffe200
5 EE-3 2018-06-04 17:12:44 38.8876 -76.9467 426.2 22.3 47 1006.2 #ffe600
5 EE-3 2018-06-04 17:27:15 38.8876 -76.9467 425.7 22.6 46.1 1006.2 #ffe800
5 EE-3 2018-06-04 17:41:46 38.8876 -76.9467 426 22.6 45.6 1006.3 #ffe700
5 EE-3 2018-06-04 17:56:17 38.8876 -76.9467 424.8 22.9 44.8 1006.2 #ffec00
5 EE-3 2018-06-04 18:10:48 38.8876 -76.9467 427.3 22.9 44.3 1006.4 #ffe200
5 EE-3 2018-06-04 18:25:19 38.8876 -76.9467 426.8 23.3 43.1 1006.3 #ffe400
5 EE-3 2018-06-04 18:39:50 38.8876 -76.9467 427.5 23.2 43.5 1006.3 #ffe100
5 EE-3 2018-06-04 18:54:21 38.8876 -76.9467 429 23.5 42.8 1006.6 #ffdb00
5 EE-3 2018-06-04 19:08:52 38.8876 -76.9467 426.7 23.1 43.2 1006.7 #ffe400
5 EE-3 2018-06-04 19:23:22 38.8876 -76.9467 425 22.9 43.5 1006.9 #ffeb00
5 EE-3 2018-06-04 19:37:53 38.8876 -76.9467 427.5 22.6 44.4 1007 #ffe100
5 EE-3 2018-06-04 19:52:24 38.8876 -76.9467 426.7 22.6 44.6 1006.9 #ffe400
5 EE-3 2018-06-04 20:06:55 38.8876 -76.9467 423.8 22.4 45.2 1007.2 #ffef00
5 EE-3 2018-06-04 20:21:25 38.8876 -76.9467 425 22.3 45.7 1007.2 #ffeb00
5 EE-3 2018-06-04 20:35:56 38.8876 -76.9467 428.8 22.3 46.1 1007.3 #ffdc00
5 EE-3 2018-06-04 20:50:27 38.8876 -76.9467 427.8 22.1 46.7 1007.5 #ffe000
5 EE-3 2018-06-04 21:04:59 38.8876 -76.9467 430 22.1 47.2 1007.6 #ffd700
5 EE-3 2018-06-04 21:19:29 38.8876 -76.9467 439.3 22 48 1007.9 #ffb300
5 EE-3 2018-06-04 21:34:00 38.8876 -76.9467 438.2 21.9 48.2 1008.1 #ffb700
5 EE-3 2018-06-04 21:48:31 38.8876 -76.9467 439.7 21.8 48.5 1008.4 #ffb100
5 EE-3 2018-06-04 22:03:02 38.8876 -76.9467 442 21.6 49.2 1008.4 #ffa800
5 EE-3 2018-06-04 22:17:33 38.8876 -76.9467 446.8 21.5 49.7 1008.6 #ff9500
5 EE-3 2018-06-04 22:32:03 38.8876 -76.9467 444.8 21.3 50.3 1008.6 #ff9d00
5 EE-3 2018-06-04 22:46:34 38.8876 -76.9467 443.3 21.1 50.7 1008.6 #ffa300
5 EE-3 2018-06-04 23:01:05 38.8876 -76.9467 447.8 21.3 50.5 1008.6 #ff9100
5 EE-3 2018-06-04 23:15:36 38.8876 -76.9467 448.7 21.8 48.8 1008.4 #ff8e00
5 EE-3 2018-06-04 23:30:07 38.8876 -76.9467 446.2 22.5 46.9 1008.3 #ff9800
5 EE-3 2018-06-04 23:44:38 38.8876 -76.9467 449.8 22.8 46.4 1008.5 #ff8900
5 EE-3 2018-06-04 23:59:09 38.8876 -76.9467 450.3 22.2 47.9 1008.3 #ff8800
5 EE-3 2018-06-05 00:13:40 38.8876 -76.9467 450.5 21.8 48.7 1008.3 #ff8700
5 EE-3 2018-06-05 00:28:10 38.8876 -76.9467 446 22.1 47.7 1008.3 #ff9900
5 EE-3 2018-06-05 00:42:41 38.8876 -76.9467 442.2 22.2 47.5 1008.3 #ffa800
5 EE-3 2018-06-05 00:57:12 38.8876 -76.9467 441.3 21.9 48 1008.2 #ffab00
5 EE-3 2018-06-05 01:11:43 38.8876 -76.9467 451.3 22.1 48.3 1008.3 #ff8400
5 EE-3 2018-06-05 01:26:14 38.8876 -76.9467 450.2 22 48.2 1008.3 #ff8800
5 EE-3 2018-06-05 01:40:45 38.8876 -76.9467 446 21.9 48.6 1008.3 #ff9900
5 EE-3 2018-06-05 01:55:15 38.8876 -76.9467 440.8 22.1 47.9 1008.2 #ffad00
5 EE-3 2018-06-05 02:09:46 38.8876 -76.9467 439.3 22 47.8 1008.1 #ffb300
5 EE-3 2018-06-05 02:24:17 38.8876 -76.9467 444 21.9 48.3 1007.9 #ffa000
5 EE-3 2018-06-05 02:38:49 38.8876 -76.9467 448.8 21.9 48.2 1007.7 #ff8d00
5 EE-3 2018-06-05 02:53:19 38.8876 -76.9467 452.3 22 48.5 1007.7 #ff8000
5 EE-3 2018-06-05 03:07:50 38.8876 -76.9467 461 22.2 48.2 1007.7 #ff5e00
5 EE-3 2018-06-05 03:22:21 38.8876 -76.9467 459.8 21.8 49 1007.8 #ff6200
5 EE-3 2018-06-05 03:36:52 38.8876 -76.9467 458 21.9 48.7 1007.7 #ff6900
5 EE-3 2018-06-05 03:51:23 38.8876 -76.9467 454.3 22.1 48.4 1007.8 #ff7800
5 EE-3 2018-06-05 04:05:54 38.8876 -76.9467 450.5 22.1 48.1 1007.8 #ff8700
5 EE-3 2018-06-05 04:20:25 38.8876 -76.9467 456.2 21.8 48.9 1007.7 #ff7100
5 EE-3 2018-06-05 04:34:56 38.8876 -76.9467 454.8 22 48.5 1007.8 #ff7600
5 EE-3 2018-06-05 04:49:27 38.8876 -76.9467 475.2 22.1 48.8 1008 #ff2600
5 EE-3 2018-06-05 05:03:58 38.8876 -76.9467 473 22 49.1 1008 #ff2f00
5 EE-3 2018-06-05 05:18:28 38.8876 -76.9467 468 21.8 49.8 1008.1 #ff4200
5 EE-3 2018-06-05 05:33:00 38.8876 -76.9467 483.5 22 49.3 1008.1 #ff0500
5 EE-3 2018-06-05 05:47:31 38.8876 -76.9467 477.2 22.1 49.1 1008.2 #ff1e00
5 EE-3 2018-06-05 06:02:02 38.8876 -76.9467 477.5 22.5 47.7 1008.4 #ff1d00
5 EE-3 2018-06-05 06:16:33 38.8876 -76.9467 474.5 22.7 47.3 1008.6 #ff2900
5 EE-3 2018-06-05 06:31:03 38.8876 -76.9467 476.7 22.8 46.7 1008.7 #ff2000
5 EE-3 2018-06-05 06:45:35 38.8876 -76.9467 482.8 22.9 46.7 1008.7 #ff0800
5 EE-3 2018-06-05 07:00:05 38.8876 -76.9467 484.2 22 48.7 1008.8 #ff0300
5 EE-3 2018-06-05 07:14:36 38.8876 -76.9467 499.3 22 49.2 1008.8 #ff0000
5 EE-3 2018-06-05 07:29:07 38.8876 -76.9467 491.3 22.1 48.5 1008.8 #ff0000
5 EE-3 2018-06-05 07:43:38 38.8876 -76.9467 494.3 22 49 1008.9 #ff0000
5 EE-3 2018-06-05 07:58:09 38.8876 -76.9467 482 22 48.7 1009.1 #ff0b00
5 EE-3 2018-06-05 08:12:40 38.8876 -76.9467 471.3 22.1 48.6 1008.9 #ff3500
5 EE-3 2018-06-05 08:27:11 38.8876 -76.9467 475.7 22.1 48.4 1008.9 #ff2400
5 EE-3 2018-06-05 08:41:42 38.8876 -76.9467 478.8 22.1 48.7 1009 #ff1800
5 EE-3 2018-06-05 08:56:13 38.8876 -76.9467 465 21.9 48.3 1008.8 #ff4e00
5 EE-3 2018-06-05 08:58:41 38.8876 -76.9467 463.5 21.9 48.4 1008.8 #ff5400
5 EE-3 2018-06-05 09:04:13 38.8876 -76.9467 468.5 22.1 47.7 1008.6 #ff4000
5 EE-3 2018-06-05 09:16:29 38.8876 -76.9467 459.8 22.6 45.7 1008.7 #ff6200
4 EE-1 2018-04-05 11:24:36 38.9216 -77.0282 419.3 10.2 43.8 1016.3 #fcff00
4 EE-1 2018-04-05 11:39:08 38.9216 -77.0282 434.7 11.9 43.4 1016.2 #ffc500
4 EE-1 2018-04-05 11:53:38 38.9216 -77.0282 432.3 13.5 40.8 1016.1 #ffce00
4 EE-1 2018-04-05 12:08:09 38.9216 -77.0282 427 12.5 41.9 1015.8 #ffe300
4 EE-1 2018-04-05 12:22:40 38.9216 -77.0282 433.3 13.1 41.5 1015.7 #ffca00
4 EE-1 2018-04-05 12:37:11 38.9216 -77.0282 425.2 14.1 39.6 1015.7 #ffea00
4 EE-1 2018-04-05 12:51:41 38.9216 -77.0282 431.7 16.2 38.4 1015.4 #ffd100
4 EE-1 2018-04-05 13:06:12 38.9216 -77.0282 421.3 14.3 39.3 1015.3 #fff900
4 EE-1 2018-04-05 13:20:43 38.9216 -77.0282 427.2 16.4 38.1 1015 #ffe200
4 EE-1 2018-04-05 13:35:14 38.9216 -77.0282 424.8 16.9 37.1 1015 #ffec00
4 EE-1 2018-04-05 13:49:45 38.9216 -77.0282 421.2 15.2 37.9 1015 #fffa00
4 EE-1 2018-04-05 14:04:15 38.9216 -77.0282 421.8 16.6 36.9 1014.7 #fff700
4 EE-1 2018-04-05 14:18:46 38.9216 -77.0282 420.3 15.9 37 1014.3 #fffd00
4 EE-1 2018-04-05 14:33:17 38.9216 -77.0282 424.3 18.1 35.1 1014.3 #ffee00
4 EE-1 2018-04-05 14:47:47 38.9216 -77.0282 422 18.5 34.1 1014.1 #fff700
4 EE-1 2018-04-05 15:02:18 38.9216 -77.0282 424.3 20.9 32.3 1013.9 #ffee00
4 EE-1 2018-04-05 15:16:49 38.9216 -77.0282 421 18.6 33.5 1013.6 #fffb00
4 EE-1 2018-04-05 15:31:20 38.9216 -77.0282 419.8 19.1 33.4 1013.4 #feff00
4 EE-1 2018-04-05 15:45:51 38.9216 -77.0282 422 18.8 33.3 1013.1 #fff700
4 EE-1 2018-04-05 16:00:21 38.9216 -77.0282 422.7 21.1 31.8 1013.1 #fff400
4 EE-1 2018-04-05 16:14:52 38.9216 -77.0282 421.8 21.7 31.2 1013 #fff700
4 EE-1 2018-04-05 16:29:23 38.9216 -77.0282 422.3 22.1 30.6 1012.8 #fff500
4 EE-1 2018-04-05 16:43:54 38.9216 -77.0282 423.8 22.8 30.4 1012.7 #ffef00
4 EE-1 2018-04-05 16:58:25 38.9216 -77.0282 421.2 21.1 31.3 1012.5 #fffa00
4 EE-1 2018-04-05 17:12:55 38.9216 -77.0282 426 23.5 28.9 1012.3 #ffe700
4 EE-1 2018-04-05 17:27:26 38.9216 -77.0282 423 23.6 29.2 1012.2 #fff300
4 EE-1 2018-04-05 17:41:57 38.9216 -77.0282 424 23 29.6 1011.9 #ffef00
4 EE-1 2018-04-05 17:56:28 38.9216 -77.0282 422 22.7 29.4 1012 #fff700
4 EE-1 2018-04-05 18:10:59 38.9216 -77.0282 423.5 21.8 30.1 1011.8 #fff100
4 EE-1 2018-04-05 18:25:30 38.9216 -77.0282 424 21.3 30.6 1011.9 #ffef00
4 EE-1 2018-04-05 18:40:01 38.9216 -77.0282 423.2 20.5 31 1012.4 #fff200
4 EE-1 2018-04-05 18:54:32 38.9216 -77.0282 425.8 18.7 32.4 1012.3 #ffe800
4 EE-1 2018-04-05 19:09:02 38.9216 -77.0282 425.5 18.1 32.9 1012.2 #ffe900
4 EE-1 2018-04-05 19:23:33 38.9216 -77.0282 427.2 16.1 34.6 1012.3 #ffe200
4 EE-1 2018-04-05 19:38:04 38.9216 -77.0282 430.3 14.7 35.7 1012.3 #ffd600
4 EE-1 2018-04-05 19:52:35 38.9216 -77.0282 431.8 13.6 36.8 1012.5 #ffd000
4 EE-1 2018-04-05 20:07:05 38.9216 -77.0282 434 13 37.5 1012.5 #ffc800
4 EE-1 2018-04-05 20:21:36 38.9216 -77.0282 432.8 12.5 38.5 1012.6 #ffcc00
4 EE-1 2018-04-05 20:36:07 38.9216 -77.0282 433.3 12.2 38.6 1012.6 #ffca00
4 EE-1 2018-04-05 20:50:38 38.9216 -77.0282 437.2 12 38.5 1012.8 #ffbb00
4 EE-1 2018-04-05 21:05:09 38.9216 -77.0282 440 11.8 38.8 1012.9 #ffb000
4 EE-1 2018-04-05 21:19:40 38.9216 -77.0282 435.3 11.8 39 1012.8 #ffc200
4 EE-1 2018-04-05 21:34:11 38.9216 -77.0282 438 12 39.4 1012.7 #ffb800
4 EE-1 2018-04-05 21:48:41 38.9216 -77.0282 439.8 12.1 39.3 1012.8 #ffb100
4 EE-1 2018-04-05 22:03:12 38.9216 -77.0282 437.8 12.2 40.1 1013.1 #ffb900
4 EE-1 2018-04-05 22:17:43 38.9216 -77.0282 449.3 12.2 40.5 1013.2 #ff8b00
4 EE-1 2018-04-05 22:32:14 38.9216 -77.0282 443.8 12.3 40.5 1013.1 #ffa100
4 EE-1 2018-04-05 22:46:45 38.9216 -77.0282 448.7 12.2 40.8 1013.2 #ff8e00
4 EE-1 2018-04-05 23:01:15 38.9216 -77.0282 451 12.1 41.7 1013.1 #ff8500
4 EE-1 2018-04-05 23:15:46 38.9216 -77.0282 438.3 12.1 44.6 1012.9 #ffb700
4 EE-1 2018-04-05 23:30:17 38.9216 -77.0282 434.3 11.9 45.7 1013 #ffc600
4 EE-1 2018-04-05 23:44:48 38.9216 -77.0282 434.3 11.8 45.8 1013 #ffc600
4 EE-1 2018-04-05 23:59:19 38.9216 -77.0282 436 11.6 47.3 1012.8 #ffc000
4 EE-1 2018-04-07 00:00:49 38.9216 -77.0282 421.5 20.2 47.3 997.7 #fff900
4 EE-1 2018-04-07 00:15:20 38.9216 -77.0282 419.3 20.4 47.3 997.8 #fcff00
4 EE-1 2018-04-07 00:29:50 38.9216 -77.0282 419 20.3 47.6 997.8 #fbff00
4 EE-1 2018-04-07 00:44:21 38.9216 -77.0282 422.2 20.3 48.1 997.8 #fff600
4 EE-1 2018-04-07 00:58:52 38.9216 -77.0282 419 20.1 48.7 998.3 #fbff00
4 EE-1 2018-04-07 01:13:22 38.9216 -77.0282 420 20.5 45.8 998.6 #ffff00
4 EE-1 2018-04-07 01:27:53 38.9216 -77.0282 426 20.1 45.8 998.8 #ffe700
4 EE-1 2018-04-07 01:42:24 38.9216 -77.0282 425.8 19.3 47.6 999.2 #ffe800
4 EE-1 2018-04-07 01:56:56 38.9216 -77.0282 422.5 18.5 50 999.5 #fff500
4 EE-1 2018-04-07 02:11:26 38.9216 -77.0282 421 17.7 52.4 999.6 #fffb00
4 EE-1 2018-04-07 02:25:57 38.9216 -77.0282 423 17.5 52.6 999.7 #fff300
4 EE-1 2018-04-07 02:40:28 38.9216 -77.0282 422 17 54.7 999.8 #fff700
4 EE-1 2018-04-07 02:54:59 38.9216 -77.0282 421.7 16.6 55.2 999.9 #fff800
4 EE-1 2018-04-07 03:09:29 38.9216 -77.0282 423 16.4 56.9 1000.3 #fff300
4 EE-1 2018-04-07 03:24:00 38.9216 -77.0282 419 16.1 56.7 1000.8 #fbff00
4 EE-1 2018-04-07 03:38:31 38.9216 -77.0282 422 15.6 56.2 1001.2 #fff700
4 EE-1 2018-04-07 03:53:03 38.9216 -77.0282 420.3 15.1 55.2 1001.3 #fffd00
4 EE-1 2018-04-07 04:07:34 38.9216 -77.0282 420.7 14.6 55 1001.6 #fffc00
4 EE-1 2018-04-07 04:22:05 38.9216 -77.0282 420 14.2 54.4 1001.7 #ffff00
4 EE-1 2018-04-07 04:36:35 38.9216 -77.0282 418 13.8 54.2 1001.9 #f7ff00
4 EE-1 2018-04-07 04:51:06 38.9216 -77.0282 418.5 13.7 54.3 1002.1 #f9ff00
4 EE-1 2018-04-07 05:05:37 38.9216 -77.0282 419 13.7 54.7 1002.3 #fbff00
4 EE-1 2018-04-07 05:20:07 38.9216 -77.0282 419.3 13.8 54.5 1002.6 #fcff00
4 EE-1 2018-04-07 05:34:39 38.9216 -77.0282 418.8 13.5 54.1 1002.9 #faff00
4 EE-1 2018-04-07 05:49:10 38.9216 -77.0282 422 13.1 54.7 1003.1 #fff700
4 EE-1 2018-04-07 06:03:41 38.9216 -77.0282 430.5 12.6 55.4 1003.6 #ffd500
4 EE-1 2018-04-07 06:18:11 38.9216 -77.0282 421 11.9 55.6 1003.8 #fffb00
4 EE-1 2018-04-07 06:32:42 38.9216 -77.0282 421.2 11.8 55 1004.2 #fffa00
4 EE-1 2018-04-07 06:47:14 38.9216 -77.0282 422 11.5 56.4 1004.6 #fff700
4 EE-1 2018-04-07 07:01:45 38.9216 -77.0282 423 10.5 61.2 1005 #fff300
4 EE-1 2018-04-07 07:16:15 38.9216 -77.0282 429 9.7 64.2 1005.3 #ffdb00
4 EE-1 2018-04-07 07:30:46 38.9216 -77.0282 427 9 66.4 1005.4 #ffe300
4 EE-1 2018-04-07 07:45:17 38.9216 -77.0282 427.7 9.3 63.4 1005.7 #ffe000
4 EE-1 2018-04-07 07:59:48 38.9216 -77.0282 424.2 9.1 60.8 1005.7 #ffee00
4 EE-1 2018-04-07 08:14:20 38.9216 -77.0282 425.5 9.3 60.3 1006 #ffe900
4 EE-1 2018-04-07 08:28:51 38.9216 -77.0282 430 9.5 58.5 1006.1 #ffd700
4 EE-1 2018-04-07 08:43:21 38.9216 -77.0282 425.2 9.2 58.1 1006.3 #ffea00
4 EE-1 2018-04-07 08:57:52 38.9216 -77.0282 427 9 57.8 1006.3 #ffe300
4 EE-1 2018-04-07 09:12:23 38.9216 -77.0282 426.7 9.1 57.6 1006.6 #ffe400
4 EE-1 2018-04-07 09:26:54 38.9216 -77.0282 421.3 9.2 58 1006.7 #fff900
4 EE-1 2018-04-07 09:41:24 38.9216 -77.0282 428.5 9.3 57.9 1006.6 #ffdd00
4 EE-1 2018-04-07 09:55:55 38.9216 -77.0282 430.7 9.1 57.3 1006.6 #ffd500
4 EE-1 2018-04-07 10:10:26 38.9216 -77.0282 423 9 55.3 1007.1 #fff300
4 EE-1 2018-04-07 10:24:57 38.9216 -77.0282 420.7 9.2 54.1 1007.4 #fffc00
4 EE-1 2018-04-07 10:39:28 38.9216 -77.0282 421.2 9.6 53.3 1007.5 #fffa00
4 EE-1 2018-04-07 10:53:59 38.9216 -77.0282 420.8 9.8 52.7 1007.6 #fffb00
4 EE-1 2018-04-07 11:08:30 38.9216 -77.0282 423 10.5 51.6 1007.6 #fff300
4 EE-1 2018-04-07 11:23:00 38.9216 -77.0282 421.7 10.9 51 1007.8 #fff800
4 EE-1 2018-04-07 11:37:31 38.9216 -77.0282 424.2 10.7 51 1008 #ffee00
4 EE-1 2018-04-07 11:52:02 38.9216 -77.0282 424.5 10.8 51.4 1007.9 #ffed00
4 EE-1 2018-04-07 12:06:33 38.9216 -77.0282 420.7 11.1 51 1007.8 #fffc00
4 EE-1 2018-04-07 12:21:04 38.9216 -77.0282 421 12.3 48.3 1007.7 #fffb00
4 EE-1 2018-04-07 12:35:35 38.9216 -77.0282 418 12.2 45.9 1007.5 #f7ff00
4 EE-1 2018-04-07 12:50:06 38.9216 -77.0282 418 12.5 43.9 1007.5 #f7ff00
4 EE-1 2018-04-07 13:04:36 38.9216 -77.0282 421.8 12.7 42.9 1007.4 #fff700
4 EE-1 2018-04-07 13:19:07 38.9216 -77.0282 425 13.2 41.7 1007.3 #ffeb00
4 EE-1 2018-04-07 13:33:38 38.9216 -77.0282 417.3 14.1 41.1 1006.9 #f5ff00
4 EE-1 2018-04-07 13:48:09 38.9216 -77.0282 415 13.7 40.9 1007 #ecff00
4 EE-1 2018-04-07 14:02:39 38.9216 -77.0282 415 14.1 40 1006.7 #ecff00
4 EE-1 2018-04-07 14:17:10 38.9216 -77.0282 417.8 14.9 37.9 1006.5 #f7ff00
4 EE-1 2018-04-07 14:31:41 38.9216 -77.0282 416 14.3 38 1006.7 #f0ff00
4 EE-1 2018-04-07 14:46:12 38.9216 -77.0282 414.3 14.6 37.2 1006.6 #eaff00
4 EE-1 2018-04-07 15:00:43 38.9216 -77.0282 417 14.6 36.7 1006.6 #f4ff00
4 EE-1 2018-04-07 15:15:14 38.9216 -77.0282 412 13.9 37.1 1006.4 #e1ff00
4 EE-1 2018-04-07 15:29:45 38.9216 -77.0282 421 13.5 37.5 1006.3 #fffb00
4 EE-1 2018-04-07 15:44:16 38.9216 -77.0282 416 13.3 37.2 1006.3 #f0ff00
4 EE-1 2018-04-07 15:58:46 38.9216 -77.0282 416 13.2 37.8 1006.3 #f0ff00
4 EE-1 2018-04-07 16:13:17 38.9216 -77.0282 413 12.7 37.9 1006.3 #e5ff00
4 EE-1 2018-04-07 16:27:49 38.9216 -77.0282 415.2 12.1 38.6 1006.3 #edff00
4 EE-1 2018-04-07 16:42:20 38.9216 -77.0282 423.3 11.8 38.8 1006.6 #fff100
4 EE-1 2018-04-07 16:56:51 38.9216 -77.0282 415.7 10.6 40.4 1006.7 #efff00
4 EE-1 2018-04-07 17:11:22 38.9216 -77.0282 420.8 10.5 41.9 1006.9 #fffb00
4 EE-1 2018-04-07 17:25:52 38.9216 -77.0282 416.7 9.7 43.8 1006.9 #f2ff00
4 EE-1 2018-04-07 17:40:23 38.9216 -77.0282 418.8 9.5 44.6 1007.1 #faff00
4 EE-1 2018-04-07 17:54:54 38.9216 -77.0282 424 9.7 44.5 1007 #ffef00
4 EE-1 2018-04-07 18:09:25 38.9216 -77.0282 419.7 9.6 45.1 1006.9 #fdff00
4 EE-1 2018-04-07 18:23:55 38.9216 -77.0282 421 9.4 45.2 1006.8 #fffb00
4 EE-1 2018-04-07 18:38:26 38.9216 -77.0282 412.5 9.5 46.1 1006.7 #e3ff00
4 EE-1 2018-04-07 18:52:57 38.9216 -77.0282 418.5 9.3 46.2 1006.7 #f9ff00
4 EE-1 2018-04-07 19:07:28 38.9216 -77.0282 418.8 9.2 48 1006.6 #faff00
4 EE-1 2018-04-07 19:21:59 38.9216 -77.0282 421.2 8.8 48.4 1006.6 #fffa00
4 EE-1 2018-04-07 19:36:29 38.9216 -77.0282 416.8 8.4 48.9 1006.7 #f3ff00
4 EE-1 2018-04-07 19:51:00 38.9216 -77.0282 419 8.3 48.8 1006.7 #fbff00
4 EE-1 2018-04-07 20:05:31 38.9216 -77.0282 420.3 8.3 48.5 1006.8 #fffd00
4 EE-1 2018-04-07 20:20:02 38.9216 -77.0282 423.2 8.3 48 1006.7 #fff200
4 EE-1 2018-04-07 20:34:33 38.9216 -77.0282 422.8 8.3 48 1006.6 #fff300
4 EE-1 2018-04-07 20:49:04 38.9216 -77.0282 423 8.2 47.9 1006.8 #fff300
4 EE-1 2018-04-07 21:03:34 38.9216 -77.0282 426.3 8 48.4 1006.8 #ffe600
4 EE-1 2018-04-07 21:18:05 38.9216 -77.0282 426 7.8 48.2 1006.9 #ffe700
4 EE-1 2018-04-07 21:32:36 38.9216 -77.0282 426 7.9 47.7 1006.8 #ffe700
4 EE-1 2018-04-07 21:47:07 38.9216 -77.0282 426.2 7.9 47.5 1006.8 #ffe600
4 EE-1 2018-04-07 22:01:38 38.9216 -77.0282 431.3 7 49 1007 #ffd200
4 EE-1 2018-04-07 22:16:09 38.9216 -77.0282 429 7.4 48.4 1006.9 #ffdb00
4 EE-1 2018-04-07 22:30:40 38.9216 -77.0282 435 7.7 47.8 1006.9 #ffc400
4 EE-1 2018-04-07 22:45:10 38.9216 -77.0282 447.3 7.6 47.7 1006.8 #ff9300
4 EE-1 2018-04-07 22:59:42 38.9216 -77.0282 425 7.5 47.6 1006.7 #ffeb00
4 EE-1 2018-04-07 23:14:12 38.9216 -77.0282 425.5 7.4 47.6 1006.5 #ffe900
4 EE-1 2018-04-07 23:28:43 38.9216 -77.0282 427 7 48.1 1006.3 #ffe300
4 EE-1 2018-04-07 23:43:14 38.9216 -77.0282 445 7 48.3 1006.2 #ff9c00
4 EE-1 2018-04-07 23:57:44 38.9216 -77.0282 448.2 6.8 48.7 1006.1 #ff9000
4 EE-1 2018-04-10 00:00:47 38.9216 -77.0282 446.8 7.7 78.1 1015 #ff9500
4 EE-1 2018-04-10 00:15:18 38.9216 -77.0282 449.8 7.9 77.4 1015 #ff8900
4 EE-1 2018-04-10 00:29:49 38.9216 -77.0282 451 7.8 78.9 1015 #ff8500
4 EE-1 2018-04-10 00:44:20 38.9216 -77.0282 450.7 7.8 79.5 1014.9 #ff8600
4 EE-1 2018-04-10 00:58:51 38.9216 -77.0282 458 7.8 78.4 1014.9 #ff6900
4 EE-1 2018-04-10 01:13:22 38.9216 -77.0282 451.2 7.5 81.5 1015.1 #ff8400
4 EE-1 2018-04-10 01:27:52 38.9216 -77.0282 454.7 7.2 83.5 1015.3 #ff7600
4 EE-1 2018-04-10 01:42:23 38.9216 -77.0282 450 7.1 82.9 1015.2 #ff8900
4 EE-1 2018-04-10 01:56:54 38.9216 -77.0282 451 7.2 82.2 1015.2 #ff8500
4 EE-1 2018-04-10 02:11:25 38.9216 -77.0282 452.8 7.2 82.1 1015.2 #ff7e00
4 EE-1 2018-04-10 02:25:55 38.9216 -77.0282 453 7.2 82.2 1015.2 #ff7d00
4 EE-1 2018-04-10 02:40:26 38.9216 -77.0282 451.2 7.3 80.6 1015 #ff8400
4 EE-1 2018-04-10 02:54:57 38.9216 -77.0282 449.3 7.3 79.5 1015 #ff8b00
4 EE-1 2018-04-10 03:09:28 38.9216 -77.0282 463.8 7.4 79.4 1015 #ff5300
4 EE-1 2018-04-10 03:23:59 38.9216 -77.0282 455.3 7.4 79.8 1014.8 #ff7400
4 EE-1 2018-04-10 03:38:30 38.9216 -77.0282 449.2 7.2 80.5 1015 #ff8c00
4 EE-1 2018-04-10 03:53:00 38.9216 -77.0282 450 7.1 80 1014.9 #ff8900
4 EE-1 2018-04-10 04:07:31 38.9216 -77.0282 445.8 7.2 79.1 1014.9 #ff9900
4 EE-1 2018-04-10 04:22:02 38.9216 -77.0282 450.7 7.1 78.8 1014.7 #ff8600
4 EE-1 2018-04-10 04:36:33 38.9216 -77.0282 464.3 6.9 78.6 1014.7 #ff5100
4 EE-1 2018-04-10 04:51:03 38.9216 -77.0282 473 6.6 79.7 1014.7 #ff2f00
4 EE-1 2018-04-10 05:05:34 38.9216 -77.0282 461 6.1 80.9 1014.8 #ff5e00
4 EE-1 2018-04-10 05:20:05 38.9216 -77.0282 473.7 5.8 81.4 1014.7 #ff2c00
4 EE-1 2018-04-10 05:34:36 38.9216 -77.0282 494 5.5 81.9 1014.8 #ff0000
4 EE-1 2018-04-10 05:49:07 38.9216 -77.0282 462.5 5.2 82.4 1014.8 #ff5800
4 EE-1 2018-04-10 06:03:37 38.9216 -77.0282 472.3 5.2 83.3 1015.2 #ff3100
4 EE-1 2018-04-10 06:18:08 38.9216 -77.0282 473.3 5 84.2 1015.4 #ff2d00
4 EE-1 2018-04-10 06:32:39 38.9216 -77.0282 475 5 83.3 1015.6 #ff2700
4 EE-1 2018-04-10 06:47:10 38.9216 -77.0282 483.8 5 84 1015.7 #ff0400
4 EE-1 2018-04-10 07:01:41 38.9216 -77.0282 468 5.3 84.3 1016 #ff4200
4 EE-1 2018-04-10 07:16:11 38.9216 -77.0282 479.8 6.1 82.8 1016.2 #ff1400
4 EE-1 2018-04-10 07:30:42 38.9216 -77.0282 478 7 80.7 1016.3 #ff1b00
4 EE-1 2018-04-10 07:45:13 38.9216 -77.0282 471.3 8.4 77.5 1016.5 #ff3500
4 EE-1 2018-04-10 07:59:44 38.9216 -77.0282 470.7 9.6 74.2 1016.6 #ff3800
4 EE-1 2018-04-10 08:14:14 38.9216 -77.0282 469 9.9 72.6 1016.7 #ff3e00
4 EE-1 2018-04-10 08:28:45 38.9216 -77.0282 462.8 10.5 71.3 1016.7 #ff5600
4 EE-1 2018-04-10 08:43:16 38.9216 -77.0282 455 11.5 68 1016.9 #ff7500
4 EE-1 2018-04-10 08:57:47 38.9216 -77.0282 450.5 11.4 67.4 1016.8 #ff8700
4 EE-1 2018-04-10 09:12:17 38.9216 -77.0282 450 11.3 65.9 1017 #ff8900
4 EE-1 2018-04-10 09:26:48 38.9216 -77.0282 447.5 13 62.4 1016.8 #ff9300
4 EE-1 2018-04-10 09:41:19 38.9216 -77.0282 444 14.1 58.4 1016.8 #ffa000
4 EE-1 2018-04-10 09:55:49 38.9216 -77.0282 438.2 13.6 56.3 1016.9 #ffb700
4 EE-1 2018-04-10 10:10:20 38.9216 -77.0282 440 15.3 55 1016.9 #ffb000
4 EE-1 2018-04-10 10:24:51 38.9216 -77.0282 435.3 15.2 51.3 1016.7 #ffc200
4 EE-1 2018-04-10 10:39:22 38.9216 -77.0282 432.3 15.3 47.8 1016.9 #ffce00
4 EE-1 2018-04-10 10:53:52 38.9216 -77.0282 432.2 17.3 45.9 1016.8 #ffcf00
4 EE-1 2018-04-10 11:08:23 38.9216 -77.0282 437 21.1 42.1 1016.7 #ffbc00
4 EE-1 2018-04-10 11:22:54 38.9216 -77.0282 430 19.1 40.6 1016.7 #ffd700
4 EE-1 2018-04-10 11:37:25 38.9216 -77.0282 428 16 44.5 1016.6 #ffdf00
4 EE-1 2018-04-10 11:51:55 38.9216 -77.0282 426 17.9 41.3 1016.5 #ffe700
4 EE-1 2018-04-10 12:06:26 38.9216 -77.0282 422.5 16.2 42.2 1016.4 #fff500
4 EE-1 2018-04-10 12:20:57 38.9216 -77.0282 425.5 18.5 38.9 1016.4 #ffe900
4 EE-1 2018-04-10 12:35:28 38.9216 -77.0282 431 20.5 38.1 1016.3 #ffd300
4 EE-1 2018-04-10 12:49:58 38.9216 -77.0282 430.3 20.8 37.2 1016 #ffd600
4 EE-1 2018-04-10 13:04:29 38.9216 -77.0282 428.3 22 35.9 1015.9 #ffde00
4 EE-1 2018-04-10 13:19:00 38.9216 -77.0282 424.7 19 38 1015.6 #ffec00
4 EE-1 2018-04-10 13:33:30 38.9216 -77.0282 431.2 23 34.6 1015.3 #ffd300
4 EE-1 2018-04-10 13:48:01 38.9216 -77.0282 423.3 22.3 34.3 1015.4 #fff100
4 EE-1 2018-04-10 14:02:32 38.9216 -77.0282 420.3 21.8 34.4 1015.1 #fffd00
4 EE-1 2018-04-10 14:17:03 38.9216 -77.0282 428.3 23.7 33.1 1014.9 #ffde00
4 EE-1 2018-04-10 14:31:34 38.9216 -77.0282 429 25.8 31.9 1014.7 #ffdb00
4 EE-1 2018-04-10 14:46:05 38.9216 -77.0282 428 26.2 31.2 1014.5 #ffdf00
4 EE-1 2018-04-10 15:00:36 38.9216 -77.0282 421 25.6 30.2 1014.3 #fffb00
4 EE-1 2018-04-10 15:15:07 38.9216 -77.0282 424 23.9 30.4 1014.2 #ffef00
4 EE-1 2018-04-10 15:29:37 38.9216 -77.0282 423 23.6 30.5 1013.8 #fff300
4 EE-1 2018-04-10 15:44:08 38.9216 -77.0282 423 25 30.2 1013.7 #fff300
4 EE-1 2018-04-10 15:58:39 38.9216 -77.0282 427.2 26.6 29.6 1013.6 #ffe200
4 EE-1 2018-04-10 16:13:10 38.9216 -77.0282 424 25.5 29.7 1013.5 #ffef00
4 EE-1 2018-04-10 16:27:40 38.9216 -77.0282 423.8 26.5 29.1 1013.5 #ffef00
4 EE-1 2018-04-10 16:42:11 38.9216 -77.0282 421 25.6 29.6 1013.4 #fffb00
4 EE-1 2018-04-10 16:56:42 38.9216 -77.0282 422.5 23.7 29.8 1013.5 #fff500
4 EE-1 2018-04-10 17:11:13 38.9216 -77.0282 425 24.1 30.5 1013.3 #ffeb00
4 EE-1 2018-04-10 17:25:44 38.9216 -77.0282 422 21.5 31.6 1013.4 #fff700
4 EE-1 2018-04-10 17:40:14 38.9216 -77.0282 424 22.1 31.5 1013.4 #ffef00
4 EE-1 2018-04-10 17:54:45 38.9216 -77.0282 423.3 21.2 32.1 1013.4 #fff100
4 EE-1 2018-04-10 18:09:16 38.9216 -77.0282 424 21.8 31.7 1013.4 #ffef00
4 EE-1 2018-04-10 18:23:46 38.9216 -77.0282 423.7 21.6 31.8 1013.4 #fff000
4 EE-1 2018-04-10 18:38:17 38.9216 -77.0282 429 20.8 32.7 1013.3 #ffdb00
4 EE-1 2018-04-10 18:52:48 38.9216 -77.0282 426.7 20.1 33.1 1013.7 #ffe400
4 EE-1 2018-04-10 19:07:19 38.9216 -77.0282 428 18.6 34.2 1013.8 #ffdf00
4 EE-1 2018-04-10 19:21:50 38.9216 -77.0282 429.8 17.1 35.6 1013.9 #ffd800
4 EE-1 2018-04-10 19:36:20 38.9216 -77.0282 430 15.5 36.9 1014.1 #ffd700
4 EE-1 2018-04-10 19:50:52 38.9216 -77.0282 432 14.1 38.2 1014.4 #ffcf00
4 EE-1 2018-04-10 20:05:23 38.9216 -77.0282 433.2 13.1 39.2 1014.4 #ffcb00
4 EE-1 2018-04-10 20:19:54 38.9216 -77.0282 440.7 12.4 41.1 1014.6 #ffad00
4 EE-1 2018-04-10 20:34:24 38.9216 -77.0282 438 11.9 42 1014.8 #ffb800
4 EE-1 2018-04-10 20:48:55 38.9216 -77.0282 438 11.5 43.3 1014.9 #ffb800
4 EE-1 2018-04-10 21:03:26 38.9216 -77.0282 439 11.2 43 1014.9 #ffb400
4 EE-1 2018-04-10 21:17:56 38.9216 -77.0282 441.5 10.8 44.2 1015 #ffaa00
4 EE-1 2018-04-10 21:32:27 38.9216 -77.0282 444.3 10.5 44.8 1015.2 #ff9f00
4 EE-1 2018-04-10 21:46:58 38.9216 -77.0282 447 10.2 45 1015.3 #ff9500
4 EE-1 2018-04-10 22:01:29 38.9216 -77.0282 439 9.8 46.5 1015.3 #ffb400
4 EE-1 2018-04-10 22:16:00 38.9216 -77.0282 437.5 9.6 46.7 1015.3 #ffba00
4 EE-1 2018-04-10 22:30:31 38.9216 -77.0282 433.7 9.4 46.9 1015.4 #ffc900
4 EE-1 2018-04-10 22:45:01 38.9216 -77.0282 448.2 9.2 47.5 1015.5 #ff9000
4 EE-1 2018-04-10 22:59:32 38.9216 -77.0282 435.3 8.9 47.6 1015.5 #ffc200
4 EE-1 2018-04-10 23:14:03 38.9216 -77.0282 441.7 8.7 48.1 1015.7 #ffa900
4 EE-1 2018-04-10 23:28:33 38.9216 -77.0282 448.2 8.5 48.3 1015.8 #ff9000
4 EE-1 2018-04-10 23:43:04 38.9216 -77.0282 449.7 8.3 48.3 1015.9 #ff8a00
4 EE-1 2018-04-10 23:57:35 38.9216 -77.0282 449 8.1 48.3 1016 #ff8d00
4 EE-1 2018-04-14 00:00:48 38.9216 -77.0282 433 24.9 52.7 1006.2 #ffcc00
4 EE-1 2018-04-14 00:15:20 38.9216 -77.0282 434 24.7 53.2 1006.3 #ffc800
4 EE-1 2018-04-14 00:29:50 38.9216 -77.0282 431 24.6 53.5 1006.3 #ffd300
4 EE-1 2018-04-14 00:44:21 38.9216 -77.0282 435 24.5 53.9 1006.4 #ffc400
4 EE-1 2018-04-14 00:58:52 38.9216 -77.0282 434 24.6 53.7 1006.3 #ffc800
4 EE-1 2018-04-14 01:13:22 38.9216 -77.0282 437 24.2 54.9 1006.3 #ffbc00
4 EE-1 2018-04-14 01:27:53 38.9216 -77.0282 435 24 55.7 1006.2 #ffc400
4 EE-1 2018-04-14 01:42:24 38.9216 -77.0282 432.7 23.8 56 1006.2 #ffcd00
4 EE-1 2018-04-14 01:56:55 38.9216 -77.0282 434 23.4 57.4 1006.1 #ffc800
4 EE-1 2018-04-14 02:11:25 38.9216 -77.0282 432.7 23.1 58.5 1006 #ffcd00
4 EE-1 2018-04-14 02:25:56 38.9216 -77.0282 435 22.9 58.9 1005.8 #ffc400
4 EE-1 2018-04-14 02:40:27 38.9216 -77.0282 433.2 22.9 59 1005.7 #ffcb00
4 EE-1 2018-04-14 02:54:58 38.9216 -77.0282 435.5 22.7 59.9 1005.7 #ffc200
4 EE-1 2018-04-14 03:09:28 38.9216 -77.0282 432.2 22.3 61.1 1005.8 #ffcf00
4 EE-1 2018-04-14 03:23:59 38.9216 -77.0282 432.3 22.2 61.4 1005.7 #ffce00
4 EE-1 2018-04-14 03:38:30 38.9216 -77.0282 432 22.2 61.4 1005.7 #ffcf00
4 EE-1 2018-04-14 03:53:01 38.9216 -77.0282 430.2 22 62.2 1005.8 #ffd700
4 EE-1 2018-04-14 04:07:31 38.9216 -77.0282 432.8 21.9 62.6 1005.8 #ffcc00
4 EE-1 2018-04-14 04:22:02 38.9216 -77.0282 433.3 21.8 63 1006 #ffca00
4 EE-1 2018-04-14 04:36:33 38.9216 -77.0282 432.7 21.7 63.4 1006.2 #ffcd00
4 EE-1 2018-04-14 04:51:04 38.9216 -77.0282 432 21.6 63.5 1006.4 #ffcf00
4 EE-1 2018-04-14 05:05:34 38.9216 -77.0282 438.7 21.4 64.3 1006.5 #ffb500
4 EE-1 2018-04-14 05:20:05 38.9216 -77.0282 435 21.5 64.2 1006.5 #ffc400
4 EE-1 2018-04-14 05:34:36 38.9216 -77.0282 432.2 21.3 64.9 1006.8 #ffcf00
4 EE-1 2018-04-14 05:49:07 38.9216 -77.0282 433 21.1 65.3 1006.8 #ffcc00
4 EE-1 2018-04-14 06:03:38 38.9216 -77.0282 436 20.9 66.4 1007 #ffc000
4 EE-1 2018-04-14 06:18:09 38.9216 -77.0282 436 20.8 67 1007.3 #ffc000
4 EE-1 2018-04-14 06:32:39 38.9216 -77.0282 435.3 20.6 67.7 1007.4 #ffc200
4 EE-1 2018-04-14 06:47:11 38.9216 -77.0282 438 20.5 68.5 1007.6 #ffb800
4 EE-1 2018-04-14 07:01:42 38.9216 -77.0282 439.3 20.5 69 1007.7 #ffb300
4 EE-1 2018-04-14 07:16:13 38.9216 -77.0282 438.8 20.7 69.4 1007.9 #ffb500
4 EE-1 2018-04-14 07:30:43 38.9216 -77.0282 439 21.2 68.7 1008.1 #ffb400
4 EE-1 2018-04-14 07:45:14 38.9216 -77.0282 442 21.5 68.5 1008.1 #ffa800
4 EE-1 2018-04-14 07:59:46 38.9216 -77.0282 438.8 21.6 69.2 1008.2 #ffb500
4 EE-1 2018-04-14 08:14:17 38.9216 -77.0282 437.7 21.9 69.2 1008.2 #ffb900
4 EE-1 2018-04-14 08:28:47 38.9216 -77.0282 442 23.4 65.6 1008.1 #ffa800
4 EE-1 2018-04-14 08:43:18 38.9216 -77.0282 442 23.2 66.7 1008.2 #ffa800
4 EE-1 2018-04-14 08:57:50 38.9216 -77.0282 443.3 23.1 67.2 1008.3 #ffa300
4 EE-1 2018-04-14 09:12:20 38.9216 -77.0282 440.2 24 65.1 1008.5 #ffaf00
4 EE-1 2018-04-14 09:26:51 38.9216 -77.0282 442.7 25 63 1008.6 #ffa600
4 EE-1 2018-04-14 09:41:22 38.9216 -77.0282 444.7 25.9 61 1008.7 #ff9e00
4 EE-1 2018-04-14 09:55:53 38.9216 -77.0282 443.2 26.8 58.8 1008.5 #ffa400
4 EE-1 2018-04-14 10:10:24 38.9216 -77.0282 446 27.8 56.7 1008.2 #ff9900
4 EE-1 2018-04-14 10:24:55 38.9216 -77.0282 442.5 26.9 58.7 1008.1 #ffa600
4 EE-1 2018-04-14 10:39:25 38.9216 -77.0282 446 29.3 54.2 1008 #ff9900
4 EE-1 2018-04-14 10:53:56 38.9216 -77.0282 443.8 29.7 53.6 1008.1 #ffa100
4 EE-1 2018-04-14 11:08:27 38.9216 -77.0282 438 30.4 51.4 1008.1 #ffb800
4 EE-1 2018-04-14 11:22:57 38.9216 -77.0282 438.8 30 51.9 1008 #ffb500
4 EE-1 2018-04-14 11:37:28 38.9216 -77.0282 438.5 30.6 50.5 1008 #ffb600
4 EE-1 2018-04-14 11:51:59 38.9216 -77.0282 435 29.7 51.6 1008.1 #ffc400
4 EE-1 2018-04-14 12:06:30 38.9216 -77.0282 438 30.8 49.6 1008 #ffb800
4 EE-1 2018-04-14 12:21:00 38.9216 -77.0282 438.8 31.3 49 1007.6 #ffb500
4 EE-1 2018-04-14 12:35:31 38.9216 -77.0282 432.8 31.2 49 1007.4 #ffcc00
4 EE-1 2018-04-14 12:50:02 38.9216 -77.0282 434.5 32.4 47.7 1007.4 #ffc600
4 EE-1 2018-04-14 13:04:33 38.9216 -77.0282 431 31.7 47.8 1006.9 #ffd300
4 EE-1 2018-04-14 13:19:03 38.9216 -77.0282 431.3 32.2 46.9 1006.4 #ffd200
4 EE-1 2018-04-14 13:33:34 38.9216 -77.0282 432.7 33.8 44 1006.5 #ffcd00
4 EE-1 2018-04-14 13:48:05 38.9216 -77.0282 427 34 43.6 1006.2 #ffe300
4 EE-1 2018-04-14 14:02:36 38.9216 -77.0282 428.7 34.8 42.7 1005.9 #ffdc00
4 EE-1 2018-04-14 14:17:07 38.9216 -77.0282 426.8 34.3 43.3 1005.9 #ffe400
4 EE-1 2018-04-14 14:31:37 38.9216 -77.0282 425.2 34 42.9 1005.4 #ffea00
4 EE-1 2018-04-14 14:46:08 38.9216 -77.0282 425.7 34.7 41.6 1005.1 #ffe800
4 EE-1 2018-04-14 15:00:39 38.9216 -77.0282 429 34.5 41.9 1005 #ffdb00
4 EE-1 2018-04-14 15:15:10 38.9216 -77.0282 427 33.7 42.5 1005 #ffe300
4 EE-1 2018-04-14 15:29:41 38.9216 -77.0282 423 33 43.6 1004.8 #fff300
4 EE-1 2018-04-14 15:44:12 38.9216 -77.0282 425.8 33.9 42.4 1004.5 #ffe800
4 EE-1 2018-04-14 15:58:43 38.9216 -77.0282 434.5 33.3 43.2 1004.4 #ffc600
4 EE-1 2018-04-14 16:13:13 38.9216 -77.0282 423 32.7 43.8 1004.4 #fff300
4 EE-1 2018-04-14 16:27:44 38.9216 -77.0282 427 33.8 42.3 1004.2 #ffe300
4 EE-1 2018-04-14 16:42:15 38.9216 -77.0282 423.7 33.1 42.7 1004.1 #fff000
4 EE-1 2018-04-14 16:56:46 38.9216 -77.0282 424 33.4 42.8 1004.1 #ffef00
4 EE-1 2018-04-14 17:11:17 38.9216 -77.0282 423 32.6 43.9 1004.2 #fff300
4 EE-1 2018-04-14 17:25:47 38.9216 -77.0282 426 33.2 42.6 1004.2 #ffe700
4 EE-1 2018-04-14 17:40:18 38.9216 -77.0282 424.2 32.9 42.4 1004.6 #ffee00
4 EE-1 2018-04-14 17:54:49 38.9216 -77.0282 424 32.3 43.8 1004.6 #ffef00
4 EE-1 2018-04-14 18:09:19 38.9216 -77.0282 424 32.4 43.8 1004.5 #ffef00
4 EE-1 2018-04-14 18:23:50 38.9216 -77.0282 428.2 32.4 43.8 1004.5 #ffde00
4 EE-1 2018-04-14 18:38:21 38.9216 -77.0282 425 31.8 44.9 1004.8 #ffeb00
4 EE-1 2018-04-14 18:52:52 38.9216 -77.0282 429.7 31.4 46.2 1004.8 #ffd900
4 EE-1 2018-04-14 19:07:23 38.9216 -77.0282 430 30.5 47.5 1004.6 #ffd700
4 EE-1 2018-04-14 19:21:53 38.9216 -77.0282 427.8 30.3 48.1 1004.7 #ffe000
4 EE-1 2018-04-14 19:36:24 38.9216 -77.0282 432 29.4 49.6 1005 #ffcf00
4 EE-1 2018-04-14 19:50:55 38.9216 -77.0282 431.8 29.2 49.4 1005.2 #ffd000
4 EE-1 2018-04-14 20:05:25 38.9216 -77.0282 432 28.5 50.9 1005.3 #ffcf00
4 EE-1 2018-04-14 20:19:56 38.9216 -77.0282 432.5 28.1 52 1005.4 #ffcd00
4 EE-1 2018-04-14 20:34:27 38.9216 -77.0282 438 28 52.6 1005.5 #ffb800
4 EE-1 2018-04-14 20:48:58 38.9216 -77.0282 436.3 27.5 53.7 1005.6 #ffbe00
4 EE-1 2018-04-14 21:03:29 38.9216 -77.0282 434.8 27.1 54.7 1005.9 #ffc400
4 EE-1 2018-04-14 21:18:00 38.9216 -77.0282 437 27 55 1006 #ffbc00
4 EE-1 2018-04-14 21:32:30 38.9216 -77.0282 439.8 27 55.1 1006.3 #ffb100
4 EE-1 2018-04-14 21:47:01 38.9216 -77.0282 440.2 26.7 55.8 1006.4 #ffaf00
4 EE-1 2018-04-14 22:01:32 38.9216 -77.0282 442 26.5 56.4 1006.7 #ffa800
4 EE-1 2018-04-14 22:16:03 38.9216 -77.0282 441.2 26.6 56.1 1006.7 #ffab00
4 EE-1 2018-04-14 22:30:33 38.9216 -77.0282 436.2 26.4 56.5 1006.7 #ffbf00
4 EE-1 2018-04-14 22:45:04 38.9216 -77.0282 440.3 25.9 57.4 1006.6 #ffaf00
4 EE-1 2018-04-14 22:59:35 38.9216 -77.0282 448 26.1 57.2 1006.5 #ff9100
4 EE-1 2018-04-14 23:14:06 38.9216 -77.0282 444.2 25.7 57.8 1006.5 #ffa000
4 EE-1 2018-04-14 23:28:37 38.9216 -77.0282 448.3 25.7 57.5 1006.5 #ff8f00
4 EE-1 2018-04-14 23:43:08 38.9216 -77.0282 438.2 25 59.6 1006.5 #ffb700
4 EE-1 2018-04-14 23:57:38 38.9216 -77.0282 439.3 25 59.2 1006.5 #ffb300
4 EE-1 2018-04-15 00:00:50 38.9216 -77.0282 438 25.1 59 1006.4 #ffb800
4 EE-1 2018-04-15 00:15:21 38.9216 -77.0282 438.3 24.8 59.7 1006.4 #ffb700
4 EE-1 2018-04-15 00:29:51 38.9216 -77.0282 435.2 24.7 59.9 1006.4 #ffc300
4 EE-1 2018-04-15 00:44:22 38.9216 -77.0282 438.8 24.7 60.3 1006.4 #ffb500
4 EE-1 2018-04-15 00:58:53 38.9216 -77.0282 437.7 24 61.6 1006.2 #ffb900
4 EE-1 2018-04-15 01:13:24 38.9216 -77.0282 439 24.2 61.6 1006.4 #ffb400
4 EE-1 2018-04-15 01:27:54 38.9216 -77.0282 437.3 24.1 61.8 1006.4 #ffbb00
4 EE-1 2018-04-15 01:42:25 38.9216 -77.0282 440.2 24 62.1 1006.4 #ffaf00
4 EE-1 2018-04-15 01:56:56 38.9216 -77.0282 438.8 23.7 63 1006.4 #ffb500
4 EE-1 2018-04-15 02:11:27 38.9216 -77.0282 440 23.5 63.7 1006.4 #ffb000
4 EE-1 2018-04-15 02:25:57 38.9216 -77.0282 442 23.7 63.5 1006.5 #ffa800
4 EE-1 2018-04-15 02:40:28 38.9216 -77.0282 442 23.3 64.7 1006.5 #ffa800
4 EE-1 2018-04-15 02:54:59 38.9216 -77.0282 439 23.2 65.2 1006.5 #ffb400
4 EE-1 2018-04-15 03:09:30 38.9216 -77.0282 441 22.8 66.6 1006.7 #ffac00
4 EE-1 2018-04-15 03:24:00 38.9216 -77.0282 441.3 22.9 66.9 1006.9 #ffab00
4 EE-1 2018-04-15 03:38:31 38.9216 -77.0282 439 22.7 68.1 1007 #ffb400
4 EE-1 2018-04-15 03:53:02 38.9216 -77.0282 440 22.7 68.7 1007.2 #ffb000
4 EE-1 2018-04-15 04:07:33 38.9216 -77.0282 443 22.2 71.7 1007.4 #ffa400
4 EE-1 2018-04-15 04:22:03 38.9216 -77.0282 446.5 22.3 71.9 1007.6 #ff9700
4 EE-1 2018-04-15 04:36:34 38.9216 -77.0282 443 22.3 73.3 1007.7 #ffa400
4 EE-1 2018-04-15 04:51:05 38.9216 -77.0282 436 22.2 74.5 1007.9 #ffc000
4 EE-1 2018-04-15 05:05:36 38.9216 -77.0282 439.2 22.2 73.2 1008.2 #ffb300
4 EE-1 2018-04-15 05:20:06 38.9216 -77.0282 442.8 22 75.3 1008.4 #ffa500
4 EE-1 2018-04-15 05:34:37 38.9216 -77.0282 448.5 21.6 72.6 1008.6 #ff8f00
4 EE-1 2018-04-15 05:49:08 38.9216 -77.0282 452.2 20 73.2 1008.9 #ff8000
4 EE-1 2018-04-15 06:03:39 38.9216 -77.0282 449.5 19 73.9 1009.2 #ff8b00
4 EE-1 2018-04-15 06:18:10 38.9216 -77.0282 452 18.4 73.9 1009.4 #ff8100
4 EE-1 2018-04-15 06:32:40 38.9216 -77.0282 447.8 17.8 74.8 1009.6 #ff9100
4 EE-1 2018-04-15 06:47:11 38.9216 -77.0282 447 17.7 75.6 1009.6 #ff9500
4 EE-1 2018-04-15 07:01:42 38.9216 -77.0282 447 17.5 76.1 1009.8 #ff9500
4 EE-1 2018-04-15 07:16:12 38.9216 -77.0282 446.7 17.5 75.6 1009.9 #ff9600
4 EE-1 2018-04-15 07:30:43 38.9216 -77.0282 444.2 17.9 75.5 1010.1 #ffa000
4 EE-1 2018-04-15 07:45:14 38.9216 -77.0282 448 18.2 74.5 1010.3 #ff9100
4 EE-1 2018-04-15 07:59:45 38.9216 -77.0282 443.2 18.4 73.8 1010.4 #ffa400
4 EE-1 2018-04-15 08:14:15 38.9216 -77.0282 443.8 18.4 74.3 1010.4 #ffa100
4 EE-1 2018-04-15 08:28:47 38.9216 -77.0282 443 18.7 73.3 1010.4 #ffa400
4 EE-1 2018-04-15 08:43:18 38.9216 -77.0282 442.3 19.5 71.5 1010.5 #ffa700
4 EE-1 2018-04-15 08:57:49 38.9216 -77.0282 442 19.5 70.7 1010.4 #ffa800
4 EE-1 2018-04-15 09:12:19 38.9216 -77.0282 437.3 19.4 70.8 1010.7 #ffbb00
4 EE-1 2018-04-15 09:26:50 38.9216 -77.0282 434.2 18.7 72.3 1010.7 #ffc700
4 EE-1 2018-04-15 09:41:21 38.9216 -77.0282 434.8 18.3 72.5 1011 #ffc400
4 EE-1 2018-04-15 09:55:51 38.9216 -77.0282 436.2 17.9 73.4 1011.2 #ffbf00
4 EE-1 2018-04-15 10:10:22 38.9216 -77.0282 435 17.5 73.3 1011.3 #ffc400
4 EE-1 2018-04-15 10:24:54 38.9216 -77.0282 436.3 16.9 75 1011.1 #ffbe00
4 EE-1 2018-04-15 10:39:25 38.9216 -77.0282 437.5 16.2 77.3 1011.2 #ffba00
4 EE-1 2018-04-15 10:53:55 38.9216 -77.0282 436.8 15.9 77.6 1011.6 #ffbc00
4 EE-1 2018-04-15 11:08:26 38.9216 -77.0282 435.7 14.5 81 1011.6 #ffc100
4 EE-1 2018-04-15 11:22:57 38.9216 -77.0282 435.8 13.6 85.3 1011.8 #ffc000
4 EE-1 2018-04-15 11:37:27 38.9216 -77.0282 434 13.6 85.8 1011.4 #ffc800
4 EE-1 2018-04-15 11:51:58 38.9216 -77.0282 431.5 13.8 84.9 1011 #ffd100
4 EE-1 2018-04-15 12:06:29 38.9216 -77.0282 432 13.3 85.8 1011.2 #ffcf00
4 EE-1 2018-04-15 12:20:59 38.9216 -77.0282 429.5 13.5 85.1 1011.1 #ffd900
4 EE-1 2018-04-15 12:35:30 38.9216 -77.0282 426.3 13.5 84.4 1011.1 #ffe600
4 EE-1 2018-04-15 12:50:01 38.9216 -77.0282 430.3 13.9 83.7 1011 #ffd600
4 EE-1 2018-04-15 13:04:32 38.9216 -77.0282 430 14.1 82.9 1010.6 #ffd700
4 EE-1 2018-04-15 13:19:03 38.9216 -77.0282 429.2 13.5 85.7 1010.4 #ffdb00
4 EE-1 2018-04-15 13:33:34 38.9216 -77.0282 430.2 13 88.7 1010 #ffd700
4 EE-1 2018-04-15 13:48:05 38.9216 -77.0282 427.2 12.7 89.3 1010 #ffe200
4 EE-1 2018-04-15 14:02:35 38.9216 -77.0282 428 12.6 89.3 1010.2 #ffdf00
4 EE-1 2018-04-15 14:17:06 38.9216 -77.0282 431.8 12.5 90.3 1009.9 #ffd000
4 EE-1 2018-04-15 14:31:37 38.9216 -77.0282 430.5 12.4 90.3 1009.8 #ffd500
4 EE-1 2018-04-15 14:46:07 38.9216 -77.0282 427.2 12.4 90.6 1009.6 #ffe200
4 EE-1 2018-04-15 15:00:38 38.9216 -77.0282 427 12.5 90.1 1009.3 #ffe300
4 EE-1 2018-04-15 15:15:09 38.9216 -77.0282 429.2 12.5 90.3 1009.2 #ffdb00
4 EE-1 2018-04-15 15:29:40 38.9216 -77.0282 427.5 12.7 89.2 1008.9 #ffe100
4 EE-1 2018-04-15 15:44:11 38.9216 -77.0282 426.3 12.4 89.9 1008.6 #ffe600
4 EE-1 2018-04-15 15:58:42 38.9216 -77.0282 422.7 12.4 89.7 1008.1 #fff400
4 EE-1 2018-04-15 16:13:12 38.9216 -77.0282 426.2 12.2 88.8 1008.5 #ffe600
4 EE-1 2018-04-15 16:27:43 38.9216 -77.0282 425.8 12.3 88.1 1008.4 #ffe800
4 EE-1 2018-04-15 16:42:14 38.9216 -77.0282 427 12 88.4 1008.2 #ffe300
4 EE-1 2018-04-15 16:56:45 38.9216 -77.0282 428.7 12.4 87.8 1008.3 #ffdc00
4 EE-1 2018-04-15 17:11:16 38.9216 -77.0282 426 11.8 89.5 1008.3 #ffe700
4 EE-1 2018-04-15 17:25:47 38.9216 -77.0282 428 11.3 91.4 1008.1 #ffdf00
4 EE-1 2018-04-15 17:40:17 38.9216 -77.0282 428.7 11.3 91.8 1008 #ffdc00
4 EE-1 2018-04-15 17:54:48 38.9216 -77.0282 428 11.3 91.6 1007.7 #ffdf00
4 EE-1 2018-04-15 18:09:19 38.9216 -77.0282 425.5 11.1 91.5 1007.2 #ffe900
4 EE-1 2018-04-15 18:23:50 38.9216 -77.0282 425.8 10.9 91.5 1006.9 #ffe800
4 EE-1 2018-04-15 18:38:20 38.9216 -77.0282 427.2 10.7 91.8 1006.9 #ffe200
4 EE-1 2018-04-15 18:52:51 38.9216 -77.0282 425.8 10.6 90.8 1006.8 #ffe800
4 EE-1 2018-04-15 19:07:22 38.9216 -77.0282 429.2 10.4 92.2 1006.4 #ffdb00
4 EE-1 2018-04-15 19:21:58 38.9216 -77.0282 430.3 10.2 92.9 1006.5 #ffd600
4 EE-1 2018-04-15 19:36:29 38.9216 -77.0282 427.7 10.2 92.5 1006.4 #ffe000
4 EE-1 2018-04-15 19:51:00 38.9216 -77.0282 432 9.9 93.5 1006.5 #ffcf00
4 EE-1 2018-04-15 20:05:31 38.9216 -77.0282 429.2 9.9 93 1006.4 #ffdb00
4 EE-1 2018-04-15 20:20:02 38.9216 -77.0282 423.7 9.8 92.9 1005.9 #fff000
4 EE-1 2018-04-15 20:34:33 38.9216 -77.0282 427.8 9.6 93.5 1005.6 #ffe000
4 EE-1 2018-04-15 20:49:03 38.9216 -77.0282 425.7 9.8 92.9 1005.7 #ffe800
4 EE-1 2018-04-15 21:03:34 38.9216 -77.0282 427.8 9.7 93.6 1005.5 #ffe000
4 EE-1 2018-04-15 21:18:05 38.9216 -77.0282 427.3 9.5 93.7 1005.3 #ffe200
4 EE-1 2018-04-15 21:32:36 38.9216 -77.0282 431.7 9.4 94.3 1005 #ffd100
4 EE-1 2018-04-15 21:47:07 38.9216 -77.0282 427.2 9.3 95.5 1004 #ffe200
4 EE-1 2018-04-15 22:01:38 38.9216 -77.0282 431.3 9.5 95 1004.3 #ffd200
4 EE-1 2018-04-15 22:16:08 38.9216 -77.0282 429.8 9.6 95.1 1004 #ffd800
4 EE-1 2018-04-15 22:30:39 38.9216 -77.0282 427.3 9.5 95.3 1003.5 #ffe200
4 EE-1 2018-04-15 22:45:10 38.9216 -77.0282 430.8 9.4 96.2 1002.2 #ffd400
4 EE-1 2018-04-15 22:59:41 38.9216 -77.0282 428.3 9.7 96.2 1002.1 #ffde00
4 EE-1 2018-04-15 23:14:12 38.9216 -77.0282 426 9.7 96.9 1000.7 #ffe700
4 EE-1 2018-04-15 23:28:42 38.9216 -77.0282 431 10 96 1002 #ffd300
4 EE-1 2018-04-15 23:43:13 38.9216 -77.0282 431.3 10.1 96.7 1000.7 #ffd200
4 EE-1 2018-04-15 23:57:44 38.9216 -77.0282 425.7 10.3 96.2 1000.8 #ffe800
4 EE-1 2018-04-20 00:00:48 38.9216 -77.0282 423.8 7.6 55.2 1014.1 #ffef00
4 EE-1 2018-04-20 00:15:19 38.9216 -77.0282 422.3 7.7 54.7 1014.3 #fff500
4 EE-1 2018-04-20 00:29:50 38.9216 -77.0282 424.7 7.6 54.6 1014.4 #ffec00
4 EE-1 2018-04-20 00:44:21 38.9216 -77.0282 422.8 7.5 54.6 1014.5 #fff300
4 EE-1 2018-04-20 00:58:51 38.9216 -77.0282 424.3 7.3 54.8 1014.6 #ffee00
4 EE-1 2018-04-20 01:13:22 38.9216 -77.0282 423 7.2 55 1014.7 #fff300
4 EE-1 2018-04-20 01:27:53 38.9216 -77.0282 431.8 7 55.2 1014.6 #ffd000
4 EE-1 2018-04-20 01:42:24 38.9216 -77.0282 435.3 6.9 55.6 1014.9 #ffc200
4 EE-1 2018-04-20 01:56:55 38.9216 -77.0282 427 6.6 55.9 1015.2 #ffe300
4 EE-1 2018-04-20 02:11:26 38.9216 -77.0282 425.5 6.3 56.2 1015.3 #ffe900
4 EE-1 2018-04-20 02:25:56 38.9216 -77.0282 423 6.3 55.9 1015.4 #fff300
4 EE-1 2018-04-20 02:40:27 38.9216 -77.0282 428.8 6.3 55.7 1015.6 #ffdc00
4 EE-1 2018-04-20 02:54:58 38.9216 -77.0282 424.3 6.3 55.8 1015.7 #ffee00
4 EE-1 2018-04-20 03:09:29 38.9216 -77.0282 422 6.1 56.4 1015.9 #fff700
4 EE-1 2018-04-20 03:23:59 38.9216 -77.0282 425.5 6 56.6 1016.1 #ffe900
4 EE-1 2018-04-20 03:38:30 38.9216 -77.0282 424 5.7 57.9 1016.2 #ffef00
4 EE-1 2018-04-20 03:53:01 38.9216 -77.0282 446.2 5.6 58 1016.4 #ff9800
4 EE-1 2018-04-20 04:07:32 38.9216 -77.0282 440 5.5 58.6 1016.7 #ffb000
4 EE-1 2018-04-20 04:22:02 38.9216 -77.0282 436.3 5.4 59 1016.9 #ffbe00
4 EE-1 2018-04-20 04:36:33 38.9216 -77.0282 433.7 5.2 59.5 1017.2 #ffc900
4 EE-1 2018-04-20 04:51:04 38.9216 -77.0282 432.3 5.1 59.9 1017.2 #ffce00
4 EE-1 2018-04-20 05:05:35 38.9216 -77.0282 432 5.1 59.9 1017.3 #ffcf00
4 EE-1 2018-04-20 05:20:05 38.9216 -77.0282 431.5 4.7 61.5 1017.5 #ffd100
4 EE-1 2018-04-20 05:34:36 38.9216 -77.0282 438 4.6 61.7 1017.5 #ffb800
4 EE-1 2018-04-20 05:49:07 38.9216 -77.0282 434 4.3 63.7 1017.6 #ffc800
4 EE-1 2018-04-20 06:03:38 38.9216 -77.0282 436 4.2 64 1017.9 #ffc000
4 EE-1 2018-04-20 06:18:08 38.9216 -77.0282 434 4.3 63.2 1018 #ffc800
4 EE-1 2018-04-20 06:32:39 38.9216 -77.0282 451.8 4.2 64.1 1018.2 #ff8200
4 EE-1 2018-04-20 06:47:10 38.9216 -77.0282 446 4.5 64.1 1018.3 #ff9900
4 EE-1 2018-04-20 07:01:41 38.9216 -77.0282 449 5.4 62.4 1018.4 #ff8d00
4 EE-1 2018-04-20 07:16:11 38.9216 -77.0282 449 6.3 60.4 1018.5 #ff8d00
4 EE-1 2018-04-20 07:30:42 38.9216 -77.0282 436.7 6.2 59.3 1018.6 #ffbd00
4 EE-1 2018-04-20 07:45:13 38.9216 -77.0282 435.3 7.2 56.2 1018.6 #ffc200
4 EE-1 2018-04-20 07:59:44 38.9216 -77.0282 438.5 8 54.8 1018.7 #ffb600
4 EE-1 2018-04-20 08:14:15 38.9216 -77.0282 436 8.6 53.1 1018.7 #ffc000
4 EE-1 2018-04-20 08:28:46 38.9216 -77.0282 431.8 10.9 50 1018.6 #ffd000
4 EE-1 2018-04-20 08:43:16 38.9216 -77.0282 428 11.7 46.7 1018.7 #ffdf00
4 EE-1 2018-04-20 08:57:47 38.9216 -77.0282 428 13.4 45 1018.7 #ffdf00
4 EE-1 2018-04-20 09:12:18 38.9216 -77.0282 427.8 15.1 42.7 1018.7 #ffe000
4 EE-1 2018-04-20 09:26:49 38.9216 -77.0282 422 14.7 42.2 1018.9 #fff700
4 EE-1 2018-04-20 09:41:19 38.9216 -77.0282 422.3 14.7 40.7 1018.9 #fff500
4 EE-1 2018-04-20 09:55:50 38.9216 -77.0282 422 16.4 39.4 1018.9 #fff700
4 EE-1 2018-04-20 10:10:21 38.9216 -77.0282 422 15.3 39.4 1019.1 #fff700
4 EE-1 2018-04-20 10:24:52 38.9216 -77.0282 421.3 16.3 38.7 1019.2 #fff900
4 EE-1 2018-04-20 10:39:23 38.9216 -77.0282 424 18.5 37.6 1019.2 #ffef00
4 EE-1 2018-04-20 10:53:54 38.9216 -77.0282 420.3 17.2 37.3 1019.3 #fffd00
4 EE-1 2018-04-20 11:08:24 38.9216 -77.0282 417.7 15.8 39.6 1019.4 #f6ff00
4 EE-1 2018-04-20 11:22:55 38.9216 -77.0282 423 19.6 36.1 1019.3 #fff300
4 EE-1 2018-04-20 11:37:26 38.9216 -77.0282 420.2 20 35.7 1019.2 #fffe00
4 EE-1 2018-04-20 11:51:57 38.9216 -77.0282 416.2 16.5 38.5 1019.1 #f1ff00
4 EE-1 2018-04-20 12:06:27 38.9216 -77.0282 421 19.9 35.9 1019 #fffb00
4 EE-1 2018-04-20 12:20:58 38.9216 -77.0282 422 21.8 33.5 1019 #fff700
4 EE-1 2018-04-20 12:35:29 38.9216 -77.0282 421 21.5 33.7 1019 #fffb00
4 EE-1 2018-04-20 12:50:00 38.9216 -77.0282 420.2 21.2 34.1 1018.7 #fffe00
4 EE-1 2018-04-20 13:04:30 38.9216 -77.0282 417.5 19.4 35.7 1018.6 #f5ff00
4 EE-1 2018-04-20 13:19:01 38.9216 -77.0282 420 21.6 34 1018.6 #ffff00
4 EE-1 2018-04-20 13:33:32 38.9216 -77.0282 417.7 21.2 33.6 1018.6 #f6ff00
4 EE-1 2018-04-20 13:48:03 38.9216 -77.0282 416 20.9 34.3 1018.4 #f0ff00
4 EE-1 2018-04-20 14:02:33 38.9216 -77.0282 418.3 20.4 34.5 1018.4 #f8ff00
4 EE-1 2018-04-20 14:17:04 38.9216 -77.0282 418.2 21.2 34 1018.2 #f8ff00
4 EE-1 2018-04-20 14:31:35 38.9216 -77.0282 418 22.3 33.5 1018 #f7ff00
4 EE-1 2018-04-20 14:46:06 38.9216 -77.0282 419.7 22.8 32.4 1018 #fdff00
4 EE-1 2018-04-20 15:00:36 38.9216 -77.0282 418 22.7 32.6 1017.8 #f7ff00
4 EE-1 2018-04-20 15:15:07 38.9216 -77.0282 419.3 24.1 31.1 1017.9 #fcff00
4 EE-1 2018-04-20 15:29:38 38.9216 -77.0282 419 23.8 31.6 1017.8 #fbff00
4 EE-1 2018-04-20 15:44:09 38.9216 -77.0282 421 25.7 30 1017.7 #fffb00
4 EE-1 2018-04-20 15:58:39 38.9216 -77.0282 422.8 28 29.2 1017.6 #fff300
4 EE-1 2018-04-20 16:13:10 38.9216 -77.0282 421 27 29.7 1017.6 #fffb00
4 EE-1 2018-04-20 16:27:41 38.9216 -77.0282 421 27.7 29.5 1017.7 #fffb00
4 EE-1 2018-04-20 16:42:12 38.9216 -77.0282 419.7 26.3 29.5 1017.7 #fdff00
4 EE-1 2018-04-20 16:56:42 38.9216 -77.0282 421.7 24.7 31.1 1017.8 #fff800
4 EE-1 2018-04-20 17:11:13 38.9216 -77.0282 420.5 25.5 30.8 1017.8 #fffd00
4 EE-1 2018-04-20 17:25:44 38.9216 -77.0282 422.3 26.5 30.2 1017.9 #fff500
4 EE-1 2018-04-20 17:40:15 38.9216 -77.0282 421.3 26.6 30.1 1018 #fff900
4 EE-1 2018-04-20 17:54:46 38.9216 -77.0282 422 25.4 30.9 1018 #fff700
4 EE-1 2018-04-20 18:09:16 38.9216 -77.0282 422 25.3 30.9 1018.1 #fff700
4 EE-1 2018-04-20 18:23:47 38.9216 -77.0282 424 22.3 33.6 1018 #ffef00
4 EE-1 2018-04-20 18:38:18 38.9216 -77.0282 422 23 33.2 1018 #fff700
4 EE-1 2018-04-20 18:52:48 38.9216 -77.0282 424.8 23.2 33 1018.1 #ffec00
4 EE-1 2018-04-20 19:07:19 38.9216 -77.0282 426 22.1 34.2 1018.3 #ffe700
4 EE-1 2018-04-20 19:21:50 38.9216 -77.0282 427.2 20.6 35.4 1018.6 #ffe200
4 EE-1 2018-04-20 19:36:20 38.9216 -77.0282 429 18.6 37.3 1018.7 #ffdb00
4 EE-1 2018-04-20 19:50:51 38.9216 -77.0282 430.5 17.3 39.1 1019 #ffd500
4 EE-1 2018-04-20 20:05:22 38.9216 -77.0282 431 16.5 39.8 1019.3 #ffd300
4 EE-1 2018-04-20 20:19:53 38.9216 -77.0282 431.3 15.9 40.2 1019.4 #ffd200
4 EE-1 2018-04-20 20:34:23 38.9216 -77.0282 433 15.4 41.5 1019.6 #ffcc00
4 EE-1 2018-04-20 20:48:54 38.9216 -77.0282 431.8 15.1 41.9 1019.8 #ffd000
4 EE-1 2018-04-20 21:03:25 38.9216 -77.0282 439.5 14.7 42.3 1020.1 #ffb200
4 EE-1 2018-04-20 21:17:56 38.9216 -77.0282 438.3 14.1 43.2 1020.3 #ffb700
4 EE-1 2018-04-20 21:32:26 38.9216 -77.0282 443 13.7 43.6 1020.3 #ffa400
4 EE-1 2018-04-20 21:46:57 38.9216 -77.0282 446.2 13.4 44.3 1020.5 #ff9800
4 EE-1 2018-04-20 22:01:28 38.9216 -77.0282 445.8 13.2 44.4 1020.6 #ff9900
4 EE-1 2018-04-20 22:15:58 38.9216 -77.0282 446 12.9 44.8 1020.6 #ff9900
4 EE-1 2018-04-20 22:30:29 38.9216 -77.0282 449 12.6 47.2 1020.8 #ff8d00
4 EE-1 2018-04-20 22:45:00 38.9216 -77.0282 447.8 12.4 47 1020.7 #ff9100
4 EE-1 2018-04-20 22:59:31 38.9216 -77.0282 450 12.3 46.9 1021.1 #ff8900
4 EE-1 2018-04-20 23:14:02 38.9216 -77.0282 449.5 12.1 47.8 1021.1 #ff8b00
4 EE-1 2018-04-20 23:28:33 38.9216 -77.0282 449 11.9 48.3 1021.3 #ff8d00
4 EE-1 2018-04-20 23:43:03 38.9216 -77.0282 453 11.8 47.9 1021.3 #ff7d00
4 EE-1 2018-04-20 23:57:34 38.9216 -77.0282 449.7 11.5 49.6 1021.8 #ff8a00
4 EE-1 2018-04-22 00:00:49 38.9216 -77.0282 448.8 15.1 52.4 1021.4 #ff8d00
4 EE-1 2018-04-22 00:15:20 38.9216 -77.0282 453.8 15.3 52.6 1021.5 #ff7a00
4 EE-1 2018-04-22 00:29:50 38.9216 -77.0282 447.8 14.6 54.9 1021.5 #ff9100
4 EE-1 2018-04-22 00:44:21 38.9216 -77.0282 443.7 14.6 55.3 1021.5 #ffa200
4 EE-1 2018-04-22 00:58:52 38.9216 -77.0282 444 14.3 56.7 1021.6 #ffa000
4 EE-1 2018-04-22 01:13:23 38.9216 -77.0282 443.7 13.9 58.3 1021.7 #ffa200
4 EE-1 2018-04-22 01:27:54 38.9216 -77.0282 443.7 14.5 57.5 1021.6 #ffa200
4 EE-1 2018-04-22 01:42:25 38.9216 -77.0282 443.3 14.5 57.5 1021.6 #ffa300
4 EE-1 2018-04-22 01:56:55 38.9216 -77.0282 445.3 13.8 59.8 1021.5 #ff9b00
4 EE-1 2018-04-22 02:11:26 38.9216 -77.0282 447 13.3 62.3 1021.3 #ff9500
4 EE-1 2018-04-22 02:25:57 38.9216 -77.0282 445.3 13.5 60.5 1021 #ff9b00
4 EE-1 2018-04-22 02:40:28 38.9216 -77.0282 442 13.3 63 1021.2 #ffa800
4 EE-1 2018-04-22 02:54:58 38.9216 -77.0282 446.5 13 64.1 1021.2 #ff9700
4 EE-1 2018-04-22 03:09:29 38.9216 -77.0282 446 13.1 64.7 1021.3 #ff9900
4 EE-1 2018-04-22 03:24:00 38.9216 -77.0282 443.5 12.9 64.8 1021.4 #ffa200
4 EE-1 2018-04-22 03:38:31 38.9216 -77.0282 443.2 12.9 66 1021.3 #ffa400
4 EE-1 2018-04-22 03:53:01 38.9216 -77.0282 440.3 12.9 64.9 1021.3 #ffaf00
4 EE-1 2018-04-22 04:07:33 38.9216 -77.0282 444.7 12.9 65.2 1021.5 #ff9e00
4 EE-1 2018-04-22 04:22:04 38.9216 -77.0282 441.7 12.4 66.1 1021.5 #ffa900
4 EE-1 2018-04-22 04:36:35 38.9216 -77.0282 444.2 12.5 65 1021.4 #ffa000
4 EE-1 2018-04-22 04:51:05 38.9216 -77.0282 440.7 12.2 66.6 1021.5 #ffad00
4 EE-1 2018-04-22 05:05:36 38.9216 -77.0282 441.8 12.1 66.5 1021.5 #ffa900
4 EE-1 2018-04-22 05:20:07 38.9216 -77.0282 445 12 66.8 1021.6 #ff9c00
4 EE-1 2018-04-22 05:34:38 38.9216 -77.0282 442 12.2 67.1 1021.6 #ffa800
4 EE-1 2018-04-22 05:49:09 38.9216 -77.0282 441.3 11.8 68.2 1021.6 #ffab00
4 EE-1 2018-04-22 06:03:40 38.9216 -77.0282 445.3 12 65.2 1021.7 #ff9b00
4 EE-1 2018-04-22 06:18:11 38.9216 -77.0282 450.7 12.2 66.7 1021.7 #ff8600
4 EE-1 2018-04-22 06:32:43 38.9216 -77.0282 444 12 68.4 1022.1 #ffa000
4 EE-1 2018-04-22 06:47:13 38.9216 -77.0282 446 12.1 68.8 1022.3 #ff9900
4 EE-1 2018-04-22 07:01:44 38.9216 -77.0282 450 12.9 66.2 1022.3 #ff8900
4 EE-1 2018-04-22 07:16:15 38.9216 -77.0282 448.8 13.5 65.6 1022.5 #ff8d00
4 EE-1 2018-04-22 07:30:46 38.9216 -77.0282 456.8 13.8 65.1 1022.6 #ff6e00
4 EE-1 2018-04-22 07:45:16 38.9216 -77.0282 467.8 14.3 64.1 1022.6 #ff4300
4 EE-1 2018-04-22 07:59:47 38.9216 -77.0282 468.8 14.3 64.2 1022.6 #ff3f00
4 EE-1 2018-04-22 08:14:19 38.9216 -77.0282 463.7 15 63.2 1022.8 #ff5300
4 EE-1 2018-04-22 08:28:50 38.9216 -77.0282 466.7 16.4 60.6 1022.8 #ff4700
4 EE-1 2018-04-22 08:43:21 38.9216 -77.0282 459.2 18.3 56.9 1022.8 #ff6500
4 EE-1 2018-04-22 08:57:51 38.9216 -77.0282 453 19.5 54.6 1022.9 #ff7d00
4 EE-1 2018-04-22 09:12:22 38.9216 -77.0282 445.2 19.2 54.6 1022.7 #ff9c00
4 EE-1 2018-04-22 09:26:54 38.9216 -77.0282 444.5 20.4 52.5 1022.7 #ff9e00
4 EE-1 2018-04-22 09:41:25 38.9216 -77.0282 447 21.8 50.4 1022.6 #ff9500
4 EE-1 2018-04-22 09:55:55 38.9216 -77.0282 441.8 23 48.5 1022.5 #ffa900
4 EE-1 2018-04-22 10:10:27 38.9216 -77.0282 446.8 24.4 47.1 1022.3 #ff9500
4 EE-1 2018-04-22 10:24:58 38.9216 -77.0282 443.8 25.6 44.6 1022.3 #ffa100
4 EE-1 2018-04-22 10:39:28 38.9216 -77.0282 440 25.5 43.7 1022.3 #ffb000
4 EE-1 2018-04-22 10:53:59 38.9216 -77.0282 441.3 26.9 41.4 1022.2 #ffab00
4 EE-1 2018-04-22 11:08:30 38.9216 -77.0282 435.7 26.9 41.1 1022.2 #ffc100
4 EE-1 2018-04-22 11:23:02 38.9216 -77.0282 431.3 26.2 40.7 1022 #ffd200
4 EE-1 2018-04-22 11:37:32 38.9216 -77.0282 431 27.6 39.1 1021.6 #ffd300
4 EE-1 2018-04-22 11:52:03 38.9216 -77.0282 430.3 27.5 39.1 1021.5 #ffd600
4 EE-1 2018-04-22 12:06:34 38.9216 -77.0282 432 28 38.4 1021.5 #ffcf00
4 EE-1 2018-04-22 12:21:04 38.9216 -77.0282 430.3 27.7 38.1 1021.4 #ffd600
4 EE-1 2018-04-22 12:35:35 38.9216 -77.0282 427.3 28.8 36.9 1021.2 #ffe200
4 EE-1 2018-04-22 12:50:06 38.9216 -77.0282 426.7 28.8 36.8 1021.1 #ffe400
4 EE-1 2018-04-22 13:04:38 38.9216 -77.0282 427.7 29.6 36.1 1021.1 #ffe000
4 EE-1 2018-04-22 13:19:09 38.9216 -77.0282 426.8 30.3 35.2 1021 #ffe400
4 EE-1 2018-04-22 13:33:39 38.9216 -77.0282 427.8 29.6 36.1 1020.8 #ffe000
4 EE-1 2018-04-22 13:48:10 38.9216 -77.0282 426.2 30.2 35.6 1020.9 #ffe600
4 EE-1 2018-04-22 14:02:41 38.9216 -77.0282 429.5 32 34 1020.7 #ffd900
4 EE-1 2018-04-22 14:17:12 38.9216 -77.0282 426.7 29.5 36.3 1020.5 #ffe400
4 EE-1 2018-04-22 14:31:43 38.9216 -77.0282 428.3 30.3 35.8 1020.5 #ffde00
4 EE-1 2018-04-22 14:46:14 38.9216 -77.0282 428 28.8 37.5 1020.3 #ffdf00
4 EE-1 2018-04-22 15:00:45 38.9216 -77.0282 428 27.3 39.5 1020.4 #ffdf00
4 EE-1 2018-04-22 15:15:16 38.9216 -77.0282 428 28.8 38.1 1020.1 #ffdf00
4 EE-1 2018-04-22 15:29:47 38.9216 -77.0282 429.3 29.4 36.9 1019.8 #ffda00
4 EE-1 2018-04-22 15:44:18 38.9216 -77.0282 427.5 27.9 38.3 1019.7 #ffe100
4 EE-1 2018-04-22 15:58:49 38.9216 -77.0282 429.5 29.5 36.7 1019.6 #ffd900
4 EE-1 2018-04-22 16:13:19 38.9216 -77.0282 429.8 28.8 37.3 1019.6 #ffd800
4 EE-1 2018-04-22 16:27:50 38.9216 -77.0282 423.8 28.1 37 1019.5 #ffef00
4 EE-1 2018-04-22 16:42:21 38.9216 -77.0282 425.3 26.1 38.5 1019.5 #ffea00
4 EE-1 2018-04-22 16:56:52 38.9216 -77.0282 427 26.1 38 1019.5 #ffe300
4 EE-1 2018-04-22 17:11:22 38.9216 -77.0282 424 25 38.1 1019.5 #ffef00
4 EE-1 2018-04-22 17:25:53 38.9216 -77.0282 425.7 23.5 39.9 1019.4 #ffe800
4 EE-1 2018-04-22 17:40:24 38.9216 -77.0282 422.8 23.5 39.6 1019.5 #fff300
4 EE-1 2018-04-22 17:54:55 38.9216 -77.0282 425 23.8 39.3 1019.5 #ffeb00
4 EE-1 2018-04-22 18:09:26 38.9216 -77.0282 425.5 23 39.4 1019.5 #ffe900
4 EE-1 2018-04-22 18:23:57 38.9216 -77.0282 424.5 22.4 40.4 1019.5 #ffed00
4 EE-1 2018-04-22 18:38:28 38.9216 -77.0282 423.2 21.9 41.7 1019.5 #fff200
4 EE-1 2018-04-22 18:52:59 38.9216 -77.0282 426 21.1 43.7 1019.6 #ffe700
4 EE-1 2018-04-22 19:07:30 38.9216 -77.0282 423 21.7 43.2 1019.7 #fff300
4 EE-1 2018-04-22 19:22:00 38.9216 -77.0282 422.2 20.9 43.7 1019.8 #fff600
4 EE-1 2018-04-22 19:36:31 38.9216 -77.0282 427 19.8 45.3 1019.9 #ffe300
4 EE-1 2018-04-22 19:51:02 38.9216 -77.0282 424.5 19.1 46.8 1020.1 #ffed00
4 EE-1 2018-04-22 20:05:33 38.9216 -77.0282 428.3 18.6 47.8 1020.3 #ffde00
4 EE-1 2018-04-22 20:20:04 38.9216 -77.0282 427.7 18.3 48.9 1020.4 #ffe000
4 EE-1 2018-04-22 20:34:35 38.9216 -77.0282 426 17.9 50 1020.6 #ffe700
4 EE-1 2018-04-22 20:49:06 38.9216 -77.0282 427.8 17.7 50.4 1020.8 #ffe000
4 EE-1 2018-04-22 21:03:37 38.9216 -77.0282 433.8 17.6 50.3 1020.9 #ffc800
4 EE-1 2018-04-22 21:18:07 38.9216 -77.0282 431 17.4 49.1 1021.1 #ffd300
4 EE-1 2018-04-22 21:32:38 38.9216 -77.0282 431 17 49.4 1021.3 #ffd300
4 EE-1 2018-04-22 21:47:09 38.9216 -77.0282 428.7 16.8 49.2 1021.5 #ffdc00
4 EE-1 2018-04-22 22:01:41 38.9216 -77.0282 427.7 16.5 50.2 1021.6 #ffe000
4 EE-1 2018-04-22 22:16:12 38.9216 -77.0282 428.2 16.3 50.1 1021.8 #ffde00
4 EE-1 2018-04-22 22:30:42 38.9216 -77.0282 431 16 50.8 1021.8 #ffd300
4 EE-1 2018-04-22 22:45:13 38.9216 -77.0282 428 15.8 51.4 1021.8 #ffdf00
4 EE-1 2018-04-22 22:59:44 38.9216 -77.0282 434 15.9 51.6 1021.8 #ffc800
4 EE-1 2018-04-22 23:14:16 38.9216 -77.0282 430 16.1 50.2 1022 #ffd700
4 EE-1 2018-04-22 23:28:46 38.9216 -77.0282 431.2 16 50.9 1022.1 #ffd300
4 EE-1 2018-04-22 23:43:17 38.9216 -77.0282 429 16 51 1022.3 #ffdb00
4 EE-1 2018-04-22 23:57:48 38.9216 -77.0282 432 15.9 51.1 1022.4 #ffcf00
4 EE-1 2018-04-25 00:00:48 38.9216 -77.0282 430 14.9 92.5 1007.4 #ffd700
4 EE-1 2018-04-25 00:15:19 38.9216 -77.0282 430.7 14.9 92.4 1007.2 #ffd500
4 EE-1 2018-04-25 00:29:50 38.9216 -77.0282 434 15 92.1 1006.8 #ffc800
4 EE-1 2018-04-25 00:44:21 38.9216 -77.0282 435 14.9 92.7 1006.6 #ffc400
4 EE-1 2018-04-25 00:58:51 38.9216 -77.0282 432 15 91.6 1006.5 #ffcf00
4 EE-1 2018-04-25 01:13:22 38.9216 -77.0282 438.3 15.1 91.8 1006.2 #ffb700
4 EE-1 2018-04-25 01:27:53 38.9216 -77.0282 431.5 15 92 1005.8 #ffd100
4 EE-1 2018-04-25 01:42:24 38.9216 -77.0282 432 15.1 91.9 1005.6 #ffcf00
4 EE-1 2018-04-25 01:56:54 38.9216 -77.0282 432 15.1 92.6 1005.3 #ffcf00
4 EE-1 2018-04-25 02:11:25 38.9216 -77.0282 431 15.2 91.8 1005 #ffd300
4 EE-1 2018-04-25 02:25:56 38.9216 -77.0282 435 15.3 91.4 1004.9 #ffc400
4 EE-1 2018-04-25 02:40:27 38.9216 -77.0282 435.5 15.4 91.8 1004.7 #ffc200
4 EE-1 2018-04-25 02:54:57 38.9216 -77.0282 434.5 15.4 92 1004.4 #ffc600
4 EE-1 2018-04-25 03:09:28 38.9216 -77.0282 433 15.5 92.3 1004.2 #ffcc00
4 EE-1 2018-04-25 03:23:59 38.9216 -77.0282 430 15.5 92.5 1004 #ffd700
4 EE-1 2018-04-25 03:38:30 38.9216 -77.0282 429.8 15.6 92.1 1003.8 #ffd800
4 EE-1 2018-04-25 03:53:01 38.9216 -77.0282 435.5 15.6 92.5 1003.7 #ffc200
4 EE-1 2018-04-25 04:07:31 38.9216 -77.0282 431 15.7 92.2 1003.7 #ffd300
4 EE-1 2018-04-25 04:22:02 38.9216 -77.0282 434.7 15.7 92.3 1003.4 #ffc500
4 EE-1 2018-04-25 04:36:33 38.9216 -77.0282 438 15.7 92.5 1003.3 #ffb800
4 EE-1 2018-04-25 04:51:04 38.9216 -77.0282 435.7 15.6 93.3 1003.2 #ffc100
4 EE-1 2018-04-25 05:05:34 38.9216 -77.0282 438 15.8 92.4 1003 #ffb800
4 EE-1 2018-04-25 05:20:06 38.9216 -77.0282 438 15.7 93.4 1002.7 #ffb800
4 EE-1 2018-04-25 05:34:37 38.9216 -77.0282 437.3 15.7 93.2 1002.7 #ffbb00
4 EE-1 2018-04-25 05:49:07 38.9216 -77.0282 436.3 15.8 93.2 1002.6 #ffbe00
4 EE-1 2018-04-25 06:03:38 38.9216 -77.0282 436 15.9 92.9 1002.5 #ffc000
4 EE-1 2018-04-25 06:18:09 38.9216 -77.0282 438 16 92.3 1002.5 #ffb800
4 EE-1 2018-04-25 06:32:40 38.9216 -77.0282 440.8 16 92.6 1002.6 #ffad00
4 EE-1 2018-04-25 06:47:11 38.9216 -77.0282 441.3 16.1 92.9 1002.5 #ffab00
4 EE-1 2018-04-25 07:01:42 38.9216 -77.0282 443 16.4 92.4 1002.6 #ffa400
4 EE-1 2018-04-25 07:16:12 38.9216 -77.0282 444.2 16.6 91.8 1002.5 #ffa000
4 EE-1 2018-04-25 07:30:43 38.9216 -77.0282 442.3 16.7 92.2 1002.4 #ffa700
4 EE-1 2018-04-25 07:45:14 38.9216 -77.0282 446 16.8 92.3 1002.4 #ff9900
4 EE-1 2018-04-25 07:59:46 38.9216 -77.0282 448.2 17.4 90.7 1002.3 #ff9000
4 EE-1 2018-04-25 08:14:16 38.9216 -77.0282 451 17.6 90.4 1002.1 #ff8500
4 EE-1 2018-04-25 08:28:47 38.9216 -77.0282 454 17.5 90.7 1002.2 #ff7900
4 EE-1 2018-04-25 08:43:18 38.9216 -77.0282 455 17.5 91 1002.1 #ff7500
4 EE-1 2018-04-25 08:57:50 38.9216 -77.0282 452.2 17.6 90.9 1002.1 #ff8000
4 EE-1 2018-04-25 09:12:21 38.9216 -77.0282 447.7 17.6 91.2 1002 #ff9200
4 EE-1 2018-04-25 09:26:52 38.9216 -77.0282 451.8 17.9 91 1001.8 #ff8200
4 EE-1 2018-04-25 09:41:22 38.9216 -77.0282 450 18.1 90.8 1001.6 #ff8900
4 EE-1 2018-04-25 09:55:53 38.9216 -77.0282 448.3 19 89.5 1001.4 #ff8f00
4 EE-1 2018-04-25 10:10:24 38.9216 -77.0282 446 19.4 88.1 1001.3 #ff9900
4 EE-1 2018-04-25 10:24:55 38.9216 -77.0282 447.3 19.6 87.5 1001.3 #ff9300
4 EE-1 2018-04-25 10:39:25 38.9216 -77.0282 447.2 19.8 87.4 1001.3 #ff9400
4 EE-1 2018-04-25 10:53:56 38.9216 -77.0282 442.8 19.9 86.4 1001.4 #ffa500
4 EE-1 2018-04-25 11:08:27 38.9216 -77.0282 440.3 19.7 86.9 1001.4 #ffaf00
4 EE-1 2018-04-25 11:22:58 38.9216 -77.0282 444 19.7 87.8 1001.3 #ffa000
4 EE-1 2018-04-25 11:37:28 38.9216 -77.0282 441.5 20.4 87.2 1001.1 #ffaa00
4 EE-1 2018-04-25 11:51:59 38.9216 -77.0282 443 20.7 86 1000.8 #ffa400
4 EE-1 2018-04-25 12:06:30 38.9216 -77.0282 446.2 20.8 86 1000.6 #ff9800
4 EE-1 2018-04-25 12:21:01 38.9216 -77.0282 447 21.4 84.4 1000.4 #ff9500
4 EE-1 2018-04-25 12:35:31 38.9216 -77.0282 448 21.3 84 1000.5 #ff9100
4 EE-1 2018-04-25 12:50:02 38.9216 -77.0282 448.5 21.5 84.2 1000.4 #ff8f00
4 EE-1 2018-04-25 13:04:33 38.9216 -77.0282 447.5 21.5 83.3 1000.3 #ff9300
4 EE-1 2018-04-25 13:19:04 38.9216 -77.0282 446.3 22.2 82.1 1000 #ff9700
4 EE-1 2018-04-25 13:33:35 38.9216 -77.0282 447.8 24 78.8 999.9 #ff9100
4 EE-1 2018-04-25 13:48:05 38.9216 -77.0282 440.7 24.8 74.8 999.7 #ffad00
4 EE-1 2018-04-25 14:02:36 38.9216 -77.0282 443 23.3 75.6 999.6 #ffa400
4 EE-1 2018-04-25 14:17:07 38.9216 -77.0282 439.5 23.3 77.1 999.5 #ffb200
4 EE-1 2018-04-25 14:31:38 38.9216 -77.0282 442.7 23.6 75.2 999.4 #ffa600
4 EE-1 2018-04-25 14:46:08 38.9216 -77.0282 440.5 24.7 73.2 999.4 #ffae00
4 EE-1 2018-04-25 15:00:39 38.9216 -77.0282 440.8 26.5 68.9 999.2 #ffad00
4 EE-1 2018-04-25 15:15:10 38.9216 -77.0282 440 25.9 69.7 999.2 #ffb000
4 EE-1 2018-04-25 15:29:42 38.9216 -77.0282 440.8 24.8 70.7 999 #ffad00
4 EE-1 2018-04-25 15:44:12 38.9216 -77.0282 438.8 25.9 69.5 998.8 #ffb500
4 EE-1 2018-04-25 15:58:43 38.9216 -77.0282 440.3 28.9 63.8 998.6 #ffaf00
4 EE-1 2018-04-25 16:13:14 38.9216 -77.0282 434.7 26.6 63.8 998.5 #ffc500
4 EE-1 2018-04-25 16:27:45 38.9216 -77.0282 431.7 26.9 62.3 998.4 #ffd100
4 EE-1 2018-04-25 16:42:18 38.9216 -77.0282 431.5 25.3 65 998.6 #ffd100
4 EE-1 2018-04-25 16:56:48 38.9216 -77.0282 435.5 23.7 69 998.6 #ffc200
4 EE-1 2018-04-25 17:11:19 38.9216 -77.0282 435 22.2 72.5 998.8 #ffc400
4 EE-1 2018-04-25 17:25:50 38.9216 -77.0282 437.7 22.9 70.7 998.8 #ffb900
4 EE-1 2018-04-25 17:40:21 38.9216 -77.0282 438 22.1 72.6 998.9 #ffb800
4 EE-1 2018-04-25 17:54:52 38.9216 -77.0282 438.5 21.8 73.4 998.9 #ffb600
4 EE-1 2018-04-25 18:09:22 38.9216 -77.0282 431.7 22 73.4 998.7 #ffd100
4 EE-1 2018-04-25 18:23:53 38.9216 -77.0282 436.3 22.3 72.5 998.6 #ffbe00
4 EE-1 2018-04-25 18:38:24 38.9216 -77.0282 440.3 22 72.8 998.7 #ffaf00
4 EE-1 2018-04-25 18:52:55 38.9216 -77.0282 438 21.8 73.2 998.6 #ffb800
4 EE-1 2018-04-25 19:07:26 38.9216 -77.0282 440.8 21.6 73.5 998.8 #ffad00
4 EE-1 2018-04-25 19:21:56 38.9216 -77.0282 440.8 21.4 74 998.8 #ffad00
4 EE-1 2018-04-25 19:36:27 38.9216 -77.0282 445.2 21.1 75.3 999.2 #ff9c00
4 EE-1 2018-04-25 19:50:58 38.9216 -77.0282 448.3 19.9 80.9 999.4 #ff8f00
4 EE-1 2018-04-25 20:05:29 38.9216 -77.0282 447 20 79.6 999.6 #ff9500
4 EE-1 2018-04-25 20:19:59 38.9216 -77.0282 450 19.9 79.6 999.7 #ff8900
4 EE-1 2018-04-25 20:34:30 38.9216 -77.0282 451 19.6 81.4 999.9 #ff8500
4 EE-1 2018-04-25 20:49:01 38.9216 -77.0282 452.5 19.8 80.6 1000.1 #ff7f00
4 EE-1 2018-04-25 21:03:32 38.9216 -77.0282 456.7 19.7 81 1000.1 #ff6f00
4 EE-1 2018-04-25 21:18:02 38.9216 -77.0282 453 19.7 81.6 1000.2 #ff7d00
4 EE-1 2018-04-25 21:32:33 38.9216 -77.0282 449.8 19.5 82.6 1000.4 #ff8900
4 EE-1 2018-04-25 21:47:04 38.9216 -77.0282 447 19.5 83.1 1000.3 #ff9500
4 EE-1 2018-04-25 22:01:34 38.9216 -77.0282 445.8 19.1 84.3 1000.3 #ff9900
4 EE-1 2018-04-25 22:16:05 38.9216 -77.0282 460.2 18.6 86.2 1000.3 #ff6100
4 EE-1 2018-04-25 22:30:36 38.9216 -77.0282 450.8 18.2 87 1000.4 #ff8600
4 EE-1 2018-04-25 22:45:07 38.9216 -77.0282 447 18.3 86.5 1000.4 #ff9500
4 EE-1 2018-04-25 22:59:38 38.9216 -77.0282 451 17.8 88.7 1000.4 #ff8500
4 EE-1 2018-04-25 23:14:09 38.9216 -77.0282 448.7 17.8 86.5 1000.4 #ff8e00
4 EE-1 2018-04-25 23:28:39 38.9216 -77.0282 454.2 17.5 86.4 1000.6 #ff7800
4 EE-1 2018-04-25 23:43:10 38.9216 -77.0282 451.2 17.1 86.7 1000.7 #ff8400
4 EE-1 2018-04-25 23:57:41 38.9216 -77.0282 448.7 17.1 84.5 1000.6 #ff8e00
4 EE-1 2018-04-26 00:00:50 38.9216 -77.0282 450.2 17.2 84.6 1000.7 #ff8800
4 EE-1 2018-04-26 00:15:21 38.9216 -77.0282 442.8 17.1 82.8 1000.5 #ffa500
4 EE-1 2018-04-26 00:29:52 38.9216 -77.0282 440 17 81.7 1000.5 #ffb000
4 EE-1 2018-04-26 00:44:22 38.9216 -77.0282 439.3 16.8 80.3 1000.4 #ffb300
4 EE-1 2018-04-26 00:58:53 38.9216 -77.0282 437 16.5 81.1 1000.7 #ffbc00
4 EE-1 2018-04-26 01:13:24 38.9216 -77.0282 435 16.5 79 1000.6 #ffc400
4 EE-1 2018-04-26 01:27:55 38.9216 -77.0282 435 16.3 78.7 1000.8 #ffc400
4 EE-1 2018-04-26 01:42:25 38.9216 -77.0282 432 16.1 78.2 1001 #ffcf00
4 EE-1 2018-04-26 01:56:56 38.9216 -77.0282 429.3 15.7 77 1001 #ffda00
4 EE-1 2018-04-26 02:11:27 38.9216 -77.0282 430.5 15.7 76.5 1001 #ffd500
4 EE-1 2018-04-26 02:25:58 38.9216 -77.0282 428 15.4 76.7 1001.2 #ffdf00
4 EE-1 2018-04-26 02:40:29 38.9216 -77.0282 433.5 15 76.3 1001.5 #ffca00
4 EE-1 2018-04-26 02:54:59 38.9216 -77.0282 430.5 14.5 75.5 1001.8 #ffd500
4 EE-1 2018-04-26 03:09:30 38.9216 -77.0282 428.8 13.8 75.5 1002 #ffdc00
4 EE-1 2018-04-26 03:24:01 38.9216 -77.0282 426.7 13.6 75.4 1002.2 #ffe400
4 EE-1 2018-04-26 03:38:31 38.9216 -77.0282 427 13.1 74.5 1002.4 #ffe300
4 EE-1 2018-04-26 03:53:02 38.9216 -77.0282 427 12.8 73.5 1002.9 #ffe300
4 EE-1 2018-04-26 04:07:33 38.9216 -77.0282 426 12.5 72.8 1003.1 #ffe700
4 EE-1 2018-04-26 04:22:04 38.9216 -77.0282 427.5 12.2 72.6 1003.5 #ffe100
4 EE-1 2018-04-26 04:36:35 38.9216 -77.0282 428 12 72.7 1003.6 #ffdf00
4 EE-1 2018-04-26 04:51:05 38.9216 -77.0282 433 12 73 1003.3 #ffcc00
4 EE-1 2018-04-26 05:05:36 38.9216 -77.0282 428.3 11.6 73.6 1003.4 #ffde00
4 EE-1 2018-04-26 05:20:07 38.9216 -77.0282 427.8 11.5 73.8 1003.3 #ffe000
4 EE-1 2018-04-26 05:34:38 38.9216 -77.0282 432 11.3 74.7 1003.1 #ffcf00
4 EE-1 2018-04-26 05:49:09 38.9216 -77.0282 433.8 11 75.6 1003 #ffc800
4 EE-1 2018-04-26 06:03:39 38.9216 -77.0282 432.7 10.8 75.9 1003.2 #ffcd00
4 EE-1 2018-04-26 06:18:10 38.9216 -77.0282 433.3 10.8 76.4 1003.3 #ffca00
4 EE-1 2018-04-26 06:32:41 38.9216 -77.0282 436 10.9 76.1 1003.4 #ffc000
4 EE-1 2018-04-26 06:47:12 38.9216 -77.0282 437 11.6 74.5 1003.4 #ffbc00
4 EE-1 2018-04-26 07:01:42 38.9216 -77.0282 437.8 12.4 71.8 1003.6 #ffb900
4 EE-1 2018-04-26 07:16:13 38.9216 -77.0282 437 13.2 69.4 1003.6 #ffbc00
4 EE-1 2018-04-26 07:30:45 38.9216 -77.0282 432.5 13.7 68.2 1003.9 #ffcd00
4 EE-1 2018-04-26 07:45:16 38.9216 -77.0282 431 14.1 65.9 1004.3 #ffd300
4 EE-1 2018-04-26 07:59:46 38.9216 -77.0282 428.8 14.9 64 1004.5 #ffdc00
4 EE-1 2018-04-26 08:14:17 38.9216 -77.0282 429.5 15.3 60.8 1004.6 #ffd900
4 EE-1 2018-04-26 08:28:49 38.9216 -77.0282 430.8 16.4 58.4 1004.9 #ffd400
4 EE-1 2018-04-26 08:43:20 38.9216 -77.0282 427.7 15.8 58.8 1005.2 #ffe000
4 EE-1 2018-04-26 08:57:50 38.9216 -77.0282 424.7 14.5 60.3 1005.3 #ffec00
4 EE-1 2018-04-26 09:12:21 38.9216 -77.0282 424 15.7 58.1 1005.1 #ffef00
4 EE-1 2018-04-26 09:26:52 38.9216 -77.0282 422 16.5 56.9 1005.1 #fff700
4 EE-1 2018-04-26 09:41:23 38.9216 -77.0282 425 16.9 54.9 1005.5 #ffeb00
4 EE-1 2018-04-26 09:55:55 38.9216 -77.0282 421 17.3 54.7 1005.4 #fffb00
4 EE-1 2018-04-26 10:10:25 38.9216 -77.0282 426.2 20.2 49 1005.3 #ffe600
4 EE-1 2018-04-26 10:24:56 38.9216 -77.0282 421 20.7 48.7 1005.1 #fffb00
4 EE-1 2018-04-26 10:39:27 38.9216 -77.0282 422 22.2 45 1005.3 #fff700
4 EE-1 2018-04-26 10:53:58 38.9216 -77.0282 421.5 21.4 46.2 1005.1 #fff900
4 EE-1 2018-04-26 11:08:28 38.9216 -77.0282 420.8 21.8 45.5 1005 #fffb00
4 EE-1 2018-04-26 11:23:00 38.9216 -77.0282 430.5 24.9 43.6 1005.2 #ffd500
4 EE-1 2018-04-26 11:37:36 38.9216 -77.0282 426.3 27.7 38.5 1005.2 #ffe600
4 EE-1 2018-04-26 11:52:07 38.9216 -77.0282 419.5 23.1 43 1005.1 #fdff00
4 EE-1 2018-04-26 12:06:38 38.9216 -77.0282 420.3 24.9 39.5 1005.1 #fffd00
4 EE-1 2018-04-26 12:21:08 38.9216 -77.0282 420.3 25.7 38.8 1005 #fffd00
4 EE-1 2018-04-26 12:35:39 38.9216 -77.0282 427.7 29.4 35.4 1004.9 #ffe000
4 EE-1 2018-04-26 12:50:10 38.9216 -77.0282 423.2 30.5 34.3 1004.6 #fff200
4 EE-1 2018-04-26 13:04:40 38.9216 -77.0282 424.5 29.2 35.4 1004.5 #ffed00
4 EE-1 2018-04-26 13:19:11 38.9216 -77.0282 418 26.7 36.7 1004.5 #f7ff00
4 EE-1 2018-04-26 13:33:42 38.9216 -77.0282 419 27.3 36.5 1004.5 #fbff00
4 EE-1 2018-04-26 13:48:13 38.9216 -77.0282 421 28.2 34.8 1004.3 #fffb00
4 EE-1 2018-04-26 14:02:43 38.9216 -77.0282 424.3 31.4 33.3 1004.2 #ffee00
4 EE-1 2018-04-26 14:17:14 38.9216 -77.0282 420 30.9 32.3 1004.2 #ffff00
4 EE-1 2018-04-26 14:31:45 38.9216 -77.0282 425.5 34.4 32 1003.9 #ffe900
4 EE-1 2018-04-26 14:46:16 38.9216 -77.0282 422 32.3 32.2 1004 #fff700
4 EE-1 2018-04-26 15:00:46 38.9216 -77.0282 418 27.9 33.1 1003.9 #f7ff00
4 EE-1 2018-04-26 15:15:17 38.9216 -77.0282 421 28.9 33.7 1003.9 #fffb00
4 EE-1 2018-04-26 15:29:48 38.9216 -77.0282 422.8 31.5 31.9 1003.8 #fff300
4 EE-1 2018-04-26 15:44:18 38.9216 -77.0282 420.5 31.9 31.4 1003.5 #fffd00
4 EE-1 2018-04-26 15:58:49 38.9216 -77.0282 420 34.4 30.3 1003.5 #ffff00
4 EE-1 2018-04-26 16:13:20 38.9216 -77.0282 421.8 31.9 31.2 1003.3 #fff700
4 EE-1 2018-04-26 16:27:51 38.9216 -77.0282 426 34.4 30.9 1003.2 #ffe700
4 EE-1 2018-04-26 16:42:21 38.9216 -77.0282 421 31.1 30.4 1003.3 #fffb00
4 EE-1 2018-04-26 16:56:52 38.9216 -77.0282 419 32.7 29.4 1003.1 #fbff00
4 EE-1 2018-04-26 17:11:23 38.9216 -77.0282 422.7 33.7 29.5 1003.2 #fff400
4 EE-1 2018-04-26 17:25:53 38.9216 -77.0282 423.2 34.4 28.5 1003.3 #fff200
4 EE-1 2018-04-26 17:40:24 38.9216 -77.0282 422 30.4 30.1 1003.3 #fff700
4 EE-1 2018-04-26 17:54:55 38.9216 -77.0282 424.2 33.5 29.4 1003.2 #ffee00
4 EE-1 2018-04-26 18:09:26 38.9216 -77.0282 425.7 34 28.4 1003.2 #ffe800
4 EE-1 2018-04-26 18:23:56 38.9216 -77.0282 423 32 30.2 1003 #fff300
4 EE-1 2018-04-26 18:38:27 38.9216 -77.0282 424 32.1 30.4 1003.2 #ffef00
4 EE-1 2018-04-26 18:52:58 38.9216 -77.0282 423.7 28.7 32.4 1003.2 #fff000
4 EE-1 2018-04-26 19:07:28 38.9216 -77.0282 426.2 26.6 34.1 1003.2 #ffe600
4 EE-1 2018-04-26 19:21:59 38.9216 -77.0282 425.8 25.4 35.4 1003.2 #ffe800
4 EE-1 2018-04-26 19:36:30 38.9216 -77.0282 430.2 24.8 36.3 1003.3 #ffd700
4 EE-1 2018-04-26 19:51:00 38.9216 -77.0282 429 24.3 37.1 1003.5 #ffdb00
4 EE-1 2018-04-26 20:05:31 38.9216 -77.0282 430.7 23.9 37.8 1003.6 #ffd500
4 EE-1 2018-04-26 20:20:02 38.9216 -77.0282 430.7 23.3 38.2 1003.7 #ffd500
4 EE-1 2018-04-26 20:34:32 38.9216 -77.0282 437 22.6 39.1 1003.9 #ffbc00
4 EE-1 2018-04-26 20:49:03 38.9216 -77.0282 440.7 22.1 40 1003.9 #ffad00
4 EE-1 2018-04-26 21:03:35 38.9216 -77.0282 447.7 22 40.6 1003.9 #ff9200
4 EE-1 2018-04-26 21:18:05 38.9216 -77.0282 447 22 40.7 1003.9 #ff9500
4 EE-1 2018-04-26 21:32:36 38.9216 -77.0282 446 21.7 40.9 1004 #ff9900
4 EE-1 2018-04-26 21:47:08 38.9216 -77.0282 448.8 21.5 42 1004.1 #ff8d00
4 EE-1 2018-04-26 22:01:39 38.9216 -77.0282 459.3 21.1 44.1 1004.4 #ff6400
4 EE-1 2018-04-26 22:16:09 38.9216 -77.0282 450.7 20.8 46.5 1004.6 #ff8600
4 EE-1 2018-04-26 22:30:40 38.9216 -77.0282 450 20.7 47.6 1004.4 #ff8900
4 EE-1 2018-04-26 22:45:11 38.9216 -77.0282 443.3 20.4 48.6 1003.9 #ffa300
4 EE-1 2018-04-26 22:59:41 38.9216 -77.0282 444.2 20.4 49.4 1003.6 #ffa000
4 EE-1 2018-04-26 23:14:12 38.9216 -77.0282 442 20 49.7 1004 #ffa800
4 EE-1 2018-04-26 23:28:43 38.9216 -77.0282 446.2 19.9 50.5 1004 #ff9800
4 EE-1 2018-04-26 23:43:15 38.9216 -77.0282 446 19.9 51.5 1003.9 #ff9900
4 EE-1 2018-04-26 23:57:46 38.9216 -77.0282 442 19.6 52.8 1003.8 #ffa800
4 EE-1 2018-04-27 00:00:52 38.9216 -77.0282 438.8 19.5 52.9 1003.8 #ffb500
4 EE-1 2018-04-27 00:15:22 38.9216 -77.0282 443 19.3 53.8 1003.7 #ffa400
4 EE-1 2018-04-27 00:29:53 38.9216 -77.0282 437.8 19 54.7 1003.5 #ffb900
4 EE-1 2018-04-27 00:44:24 38.9216 -77.0282 439 18.8 55.5 1003.3 #ffb400
4 EE-1 2018-04-27 00:58:55 38.9216 -77.0282 437 18.8 56.8 1002.9 #ffbc00
4 EE-1 2018-04-27 01:13:25 38.9216 -77.0282 431 18.7 57.7 1002.7 #ffd300
4 EE-1 2018-04-27 01:27:56 38.9216 -77.0282 434.8 18.4 57.9 1002.5 #ffc400
4 EE-1 2018-04-27 01:42:27 38.9216 -77.0282 436 18.2 59.2 1002.5 #ffc000
4 EE-1 2018-04-27 01:56:57 38.9216 -77.0282 438 18 60.7 1002.2 #ffb800
4 EE-1 2018-04-27 02:11:28 38.9216 -77.0282 434 18 62 1001.7 #ffc800
4 EE-1 2018-04-27 02:25:59 38.9216 -77.0282 435.5 18.1 62.9 1001.4 #ffc200
4 EE-1 2018-04-27 02:40:30 38.9216 -77.0282 433 18 63.4 1001.4 #ffcc00
4 EE-1 2018-04-27 02:55:00 38.9216 -77.0282 428.2 18 64 1001.4 #ffde00
4 EE-1 2018-04-27 03:09:31 38.9216 -77.0282 432 17.4 68.1 1001.4 #ffcf00
4 EE-1 2018-04-27 03:24:01 38.9216 -77.0282 436.2 16.8 71.9 1001.3 #ffbf00
4 EE-1 2018-04-27 03:38:32 38.9216 -77.0282 437 16.2 73.3 1001.7 #ffbc00
4 EE-1 2018-04-27 03:53:03 38.9216 -77.0282 434.8 16 75.1 1002.3 #ffc400
4 EE-1 2018-04-27 04:07:34 38.9216 -77.0282 437.5 15.8 74.6 1002.1 #ffba00
4 EE-1 2018-04-27 04:22:04 38.9216 -77.0282 436.2 15.8 77.3 1001.9 #ffbf00
4 EE-1 2018-04-27 04:36:35 38.9216 -77.0282 434 15.5 81.8 1001.2 #ffc800
4 EE-1 2018-04-27 04:51:06 38.9216 -77.0282 439.8 15.3 81 1001.2 #ffb100
4 EE-1 2018-04-27 05:05:36 38.9216 -77.0282 443 14.9 85.7 1001 #ffa400
4 EE-1 2018-04-27 05:20:07 38.9216 -77.0282 445.7 14.8 87.2 1000.4 #ff9a00
4 EE-1 2018-04-27 05:34:38 38.9216 -77.0282 443 14.8 86.2 1000.8 #ffa400
4 EE-1 2018-04-27 05:49:09 38.9216 -77.0282 447.5 14.9 87 1000.7 #ff9300
4 EE-1 2018-04-27 06:03:40 38.9216 -77.0282 445 14.8 87.1 1001 #ff9c00
4 EE-1 2018-04-27 06:18:10 38.9216 -77.0282 446.3 15 86.2 1001.8 #ff9700
4 EE-1 2018-04-27 06:32:41 38.9216 -77.0282 445 15.1 84.9 1001.2 #ff9c00
4 EE-1 2018-04-27 06:47:12 38.9216 -77.0282 443 14.7 90.2 1000.6 #ffa400
4 EE-1 2018-04-27 07:01:43 38.9216 -77.0282 448.2 14.6 90.1 1001.1 #ff9000
4 EE-1 2018-04-27 07:16:13 38.9216 -77.0282 447.5 14.6 90.8 1001.1 #ff9300
4 EE-1 2018-04-27 07:30:44 38.9216 -77.0282 446.7 14.5 91.4 1001 #ff9600
4 EE-1 2018-04-27 07:45:15 38.9216 -77.0282 442.7 14.5 90.9 1001.2 #ffa600
4 EE-1 2018-04-27 07:59:46 38.9216 -77.0282 440.2 14.5 89.7 1001.6 #ffaf00
4 EE-1 2018-04-27 08:14:17 38.9216 -77.0282 441 14.6 89.7 1001.9 #ffac00
4 EE-1 2018-04-27 08:28:48 38.9216 -77.0282 437.2 14.6 89.5 1001.8 #ffbb00
4 EE-1 2018-04-27 08:43:19 38.9216 -77.0282 436 14.7 89.4 1001.9 #ffc000
4 EE-1 2018-04-27 08:57:50 38.9216 -77.0282 446 14.8 89.1 1001.9 #ff9900
4 EE-1 2018-04-27 09:12:21 38.9216 -77.0282 443 15.1 89.5 1001.2 #ffa400
4 EE-1 2018-04-27 09:26:51 38.9216 -77.0282 438.8 15.2 88.7 1001.3 #ffb500
4 EE-1 2018-04-27 09:41:22 38.9216 -77.0282 435.7 15.3 88.4 1001.4 #ffc100
4 EE-1 2018-04-27 09:55:53 38.9216 -77.0282 439 16.3 85.5 1001.3 #ffb400
4 EE-1 2018-04-27 10:10:24 38.9216 -77.0282 449.7 16.7 83.8 1001.3 #ff8a00
4 EE-1 2018-04-27 10:24:55 38.9216 -77.0282 438.8 17.3 82.1 1001.4 #ffb500
4 EE-1 2018-04-27 10:39:26 38.9216 -77.0282 438 17 81.3 1001.5 #ffb800
4 EE-1 2018-04-27 10:53:59 38.9216 -77.0282 440.8 17.5 80.2 1001.7 #ffad00
4 EE-1 2018-04-27 11:08:30 38.9216 -77.0282 440.5 17.7 79.6 1001.5 #ffae00
4 EE-1 2018-04-27 11:23:02 38.9216 -77.0282 437.5 18.1 77.7 1001.8 #ffba00
4 EE-1 2018-04-27 11:37:33 38.9216 -77.0282 438.2 18.3 77.4 1001.6 #ffb700
4 EE-1 2018-04-27 11:52:04 38.9216 -77.0282 442.8 18.4 76.3 1001.8 #ffa500
4 EE-1 2018-04-27 12:06:35 38.9216 -77.0282 442 18.1 77.4 1001.6 #ffa800
4 EE-1 2018-04-27 12:21:06 38.9216 -77.0282 442.3 18 78.2 1001.6 #ffa700
4 EE-1 2018-04-27 12:35:37 38.9216 -77.0282 442 18.3 77.7 1001.3 #ffa800
4 EE-1 2018-04-27 12:50:07 38.9216 -77.0282 441 19.7 74.8 1001.4 #ffac00
4 EE-1 2018-04-27 13:04:38 38.9216 -77.0282 440 19.6 74.2 1001.6 #ffb000
4 EE-1 2018-04-27 13:19:09 38.9216 -77.0282 441.5 20.3 72.8 1001.4 #ffaa00
4 EE-1 2018-04-27 13:33:40 38.9216 -77.0282 438.3 22.4 67.3 1001.5 #ffb700
4 EE-1 2018-04-27 13:48:10 38.9216 -77.0282 433.5 22.5 66.3 1001.1 #ffca00
4 EE-1 2018-04-27 14:02:41 38.9216 -77.0282 434.2 22.1 64.8 1001.1 #ffc700
4 EE-1 2018-04-27 14:17:12 38.9216 -77.0282 432 23.9 61.3 1001.1 #ffcf00
4 EE-1 2018-04-27 14:31:43 38.9216 -77.0282 431.7 24.4 60.4 1001.3 #ffd100
4 EE-1 2018-04-27 14:46:14 38.9216 -77.0282 429 22.5 62.3 1001.1 #ffdb00
4 EE-1 2018-04-27 15:00:45 38.9216 -77.0282 426 23.5 61.9 1000.9 #ffe700
4 EE-1 2018-04-27 15:15:16 38.9216 -77.0282 428.7 24.1 58.1 1000.7 #ffdc00
4 EE-1 2018-04-27 15:29:47 38.9216 -77.0282 431 27.6 53.3 1000.5 #ffd300
4 EE-1 2018-04-27 15:44:17 38.9216 -77.0282 426 21.6 61.3 1000.6 #ffe700
4 EE-1 2018-04-27 15:58:48 38.9216 -77.0282 426.2 21.2 63.2 1000.4 #ffe600
4 EE-1 2018-04-27 16:13:19 38.9216 -77.0282 426.8 20.5 64.7 1000.3 #ffe400
4 EE-1 2018-04-27 16:27:50 38.9216 -77.0282 424 21.3 63.6 1000.3 #ffef00
4 EE-1 2018-04-27 16:42:21 38.9216 -77.0282 422.5 20.7 64.3 1000.5 #fff500
4 EE-1 2018-04-27 16:56:51 38.9216 -77.0282 423 20.2 65.3 1000.5 #fff300
4 EE-1 2018-04-27 17:11:22 38.9216 -77.0282 426.3 22.1 62.4 1000.5 #ffe600
4 EE-1 2018-04-27 17:25:53 38.9216 -77.0282 427.3 23.9 57.4 1000.4 #ffe200
4 EE-1 2018-04-27 17:40:24 38.9216 -77.0282 426 25 54.4 1000.4 #ffe700
4 EE-1 2018-04-27 17:54:55 38.9216 -77.0282 423 25.9 53.4 1000.4 #fff300
4 EE-1 2018-04-27 18:09:26 38.9216 -77.0282 423.3 26.9 51.4 1000.4 #fff100
4 EE-1 2018-04-27 18:23:56 38.9216 -77.0282 423.3 23.8 53.8 1000.3 #fff100
4 EE-1 2018-04-27 18:38:27 38.9216 -77.0282 423.5 23.7 55.2 1000.2 #fff100
4 EE-1 2018-04-27 18:52:58 38.9216 -77.0282 431.3 22.1 57.4 1000.2 #ffd200
4 EE-1 2018-04-27 19:07:29 38.9216 -77.0282 430.5 21.3 58.9 1000.2 #ffd500
4 EE-1 2018-04-27 19:22:00 38.9216 -77.0282 429 20.5 60.7 1000.3 #ffdb00
4 EE-1 2018-04-27 19:36:31 38.9216 -77.0282 426.8 20.1 61.7 1000.3 #ffe400
4 EE-1 2018-04-27 19:51:02 38.9216 -77.0282 429 20.5 60.8 1000.3 #ffdb00
4 EE-1 2018-04-27 20:05:33 38.9216 -77.0282 432 20 62.2 1000.6 #ffcf00
4 EE-1 2018-04-27 20:20:04 38.9216 -77.0282 433 20 62.6 1000.5 #ffcc00
4 EE-1 2018-04-27 20:34:35 38.9216 -77.0282 437 19.9 63.2 1000.6 #ffbc00
4 EE-1 2018-04-27 20:49:05 38.9216 -77.0282 442.8 19.5 64.7 1000.6 #ffa500
4 EE-1 2018-04-27 21:03:36 38.9216 -77.0282 446.5 18.9 66.7 1000.7 #ff9700
4 EE-1 2018-04-27 21:18:07 38.9216 -77.0282 443 18.4 68.1 1000.8 #ffa400
4 EE-1 2018-04-27 21:32:38 38.9216 -77.0282 448.2 18.2 68.7 1000.9 #ff9000
4 EE-1 2018-04-27 21:47:09 38.9216 -77.0282 447.2 17.9 71.2 1001.3 #ff9400
4 EE-1 2018-04-27 22:01:40 38.9216 -77.0282 447.5 17.5 73.5 1001.4 #ff9300
4 EE-1 2018-04-27 22:16:11 38.9216 -77.0282 449.5 17.4 73 1001.5 #ff8b00
4 EE-1 2018-04-27 22:30:42 38.9216 -77.0282 458 17.4 73.8 1001.5 #ff6900
4 EE-1 2018-04-27 22:45:12 38.9216 -77.0282 456 16.8 77.4 1001.3 #ff7100
4 EE-1 2018-04-27 22:59:43 38.9216 -77.0282 459.3 16.9 76.7 1001.5 #ff6400
4 EE-1 2018-04-27 23:14:14 38.9216 -77.0282 461 17 74.7 1001.5 #ff5e00
4 EE-1 2018-04-27 23:28:45 38.9216 -77.0282 467.7 16.8 75.1 1001.6 #ff4300
4 EE-1 2018-04-27 23:43:16 38.9216 -77.0282 473.3 16.7 76 1001.7 #ff2d00
4 EE-1 2018-04-27 23:57:46 38.9216 -77.0282 464.8 16.6 78.3 1001.9 #ff4f00
4 EE-1 2018-04-30 00:00:52 38.9216 -77.0282 433 9.1 63.4 1014.7 #ffcc00
4 EE-1 2018-04-30 00:15:22 38.9216 -77.0282 437.2 9.2 64 1014.7 #ffbb00
4 EE-1 2018-04-30 00:29:53 38.9216 -77.0282 443 9.2 64.1 1014.7 #ffa400
4 EE-1 2018-04-30 00:44:24 38.9216 -77.0282 441.8 9 65 1014.6 #ffa900
4 EE-1 2018-04-30 00:58:55 38.9216 -77.0282 437.7 8.9 65.5 1014.7 #ffb900
4 EE-1 2018-04-30 01:13:25 38.9216 -77.0282 440 8.7 66 1014.6 #ffb000
4 EE-1 2018-04-30 01:27:56 38.9216 -77.0282 442.5 8.6 65.7 1014.3 #ffa600
4 EE-1 2018-04-30 01:42:27 38.9216 -77.0282 440.2 8.6 66.3 1014.5 #ffaf00
4 EE-1 2018-04-30 01:56:58 38.9216 -77.0282 440.5 8.5 67 1014.4 #ffae00
4 EE-1 2018-04-30 02:11:29 38.9216 -77.0282 439.2 8.4 67 1014.4 #ffb300
4 EE-1 2018-04-30 02:25:59 38.9216 -77.0282 440.7 8.3 66 1014.3 #ffad00
4 EE-1 2018-04-30 02:40:30 38.9216 -77.0282 443 7.9 67.8 1014.4 #ffa400
4 EE-1 2018-04-30 02:55:01 38.9216 -77.0282 445.5 7.6 66.7 1014.6 #ff9a00
4 EE-1 2018-04-30 03:09:32 38.9216 -77.0282 447.3 7.3 66.9 1014.7 #ff9300
4 EE-1 2018-04-30 03:24:02 38.9216 -77.0282 447.8 7.1 66.4 1014.8 #ff9100
4 EE-1 2018-04-30 03:38:33 38.9216 -77.0282 447 6.9 66.1 1015 #ff9500
4 EE-1 2018-04-30 03:53:04 38.9216 -77.0282 443.3 6.9 65.3 1015.3 #ffa300
4 EE-1 2018-04-30 04:07:34 38.9216 -77.0282 441.5 6.9 64.7 1015.3 #ffaa00
4 EE-1 2018-04-30 04:22:05 38.9216 -77.0282 441 7.1 62.6 1015.2 #ffac00
4 EE-1 2018-04-30 04:36:36 38.9216 -77.0282 436.8 7.1 60.8 1015.1 #ffbc00
4 EE-1 2018-04-30 04:51:07 38.9216 -77.0282 450.8 7.1 62.6 1015.3 #ff8600
4 EE-1 2018-04-30 05:05:38 38.9216 -77.0282 447 7.1 61.6 1015.3 #ff9500
4 EE-1 2018-04-30 05:20:08 38.9216 -77.0282 443.8 7.1 61.1 1015.3 #ffa100
4 EE-1 2018-04-30 05:34:40 38.9216 -77.0282 445 7 60.5 1015.3 #ff9c00
4 EE-1 2018-04-30 05:49:11 38.9216 -77.0282 442 7.1 57.7 1015.3 #ffa800
4 EE-1 2018-04-30 06:03:41 38.9216 -77.0282 435.7 7.3 55.1 1015.4 #ffc100
4 EE-1 2018-04-30 06:18:12 38.9216 -77.0282 432.5 7.4 53.3 1015.4 #ffcd00
4 EE-1 2018-04-30 06:32:43 38.9216 -77.0282 433.5 7.6 52.6 1015.6 #ffca00
4 EE-1 2018-04-30 06:47:15 38.9216 -77.0282 434.3 7.7 52.2 1015.8 #ffc600
4 EE-1 2018-04-30 07:01:45 38.9216 -77.0282 436.3 7.9 52 1015.9 #ffbe00
4 EE-1 2018-04-30 07:16:16 38.9216 -77.0282 439.7 9.1 49.7 1015.9 #ffb100
4 EE-1 2018-04-30 07:30:48 38.9216 -77.0282 437 10.1 47 1016.1 #ffbc00
4 EE-1 2018-04-30 07:45:20 38.9216 -77.0282 432.2 10.8 45.6 1016.1 #ffcf00
4 EE-1 2018-04-30 07:59:51 38.9216 -77.0282 428.5 11.4 43.8 1016.3 #ffdd00
4 EE-1 2018-04-30 08:14:21 38.9216 -77.0282 428 12 43 1016.4 #ffdf00
4 EE-1 2018-04-30 08:28:53 38.9216 -77.0282 423.2 12.8 40.4 1016.2 #fff200
4 EE-1 2018-04-30 08:43:24 38.9216 -77.0282 424 13.2 39.6 1016.4 #ffef00
4 EE-1 2018-04-30 08:57:55 38.9216 -77.0282 420.5 13.5 38.8 1016.1 #fffd00
4 EE-1 2018-04-30 09:12:25 38.9216 -77.0282 425.8 16.5 36.6 1016.2 #ffe800
4 EE-1 2018-04-30 09:26:56 38.9216 -77.0282 417 16.1 35.7 1016.3 #f4ff00
4 EE-1 2018-04-30 09:41:27 38.9216 -77.0282 421 17.9 34 1016.2 #fffb00
4 EE-1 2018-04-30 09:55:59 38.9216 -77.0282 418.5 19.1 32.5 1016.2 #f9ff00
4 EE-1 2018-04-30 10:10:29 38.9216 -77.0282 415.3 19 31.9 1016.1 #edff00
4 EE-1 2018-04-30 10:25:00 38.9216 -77.0282 416 20.4 31.2 1016 #f0ff00
4 EE-1 2018-04-30 10:39:31 38.9216 -77.0282 415 19.9 30.5 1015.8 #ecff00
4 EE-1 2018-04-30 10:54:01 38.9216 -77.0282 417 21.6 29.2 1015.7 #f4ff00
4 EE-1 2018-04-30 11:08:33 38.9216 -77.0282 416 22.8 28.2 1015.6 #f0ff00
4 EE-1 2018-04-30 11:23:04 38.9216 -77.0282 414 20.4 29.5 1015.5 #e9ff00
4 EE-1 2018-04-30 11:37:35 38.9216 -77.0282 415.5 22.4 27.8 1015.3 #eeff00
4 EE-1 2018-04-30 11:52:06 38.9216 -77.0282 412.2 21.4 28.5 1015 #e2ff00
4 EE-1 2018-04-30 12:06:36 38.9216 -77.0282 414 23.3 27.8 1014.9 #e9ff00
4 EE-1 2018-04-30 12:21:07 38.9216 -77.0282 414 23.8 27.2 1014.6 #e9ff00
4 EE-1 2018-04-30 12:35:38 38.9216 -77.0282 417.2 26.4 26.3 1014.4 #f4ff00
4 EE-1 2018-04-30 12:50:10 38.9216 -77.0282 414 23.9 27.6 1014.1 #e9ff00
4 EE-1 2018-04-30 13:04:40 38.9216 -77.0282 416 26.5 26.7 1013.9 #f0ff00
4 EE-1 2018-04-30 13:19:11 38.9216 -77.0282 413 24.3 27.6 1013.7 #e5ff00
4 EE-1 2018-04-30 13:33:42 38.9216 -77.0282 417 24.1 27.8 1013.5 #f4ff00
4 EE-1 2018-04-30 13:48:13 38.9216 -77.0282 418.7 27.9 26.4 1013.2 #faff00
4 EE-1 2018-04-30 14:02:44 38.9216 -77.0282 412 25.6 26.5 1013 #e1ff00
4 EE-1 2018-04-30 14:17:15 38.9216 -77.0282 417 28.8 25.1 1012.7 #f4ff00
4 EE-1 2018-04-30 14:31:46 38.9216 -77.0282 414 26.6 25.9 1012.5 #e9ff00
4 EE-1 2018-04-30 14:46:16 38.9216 -77.0282 415.8 27.2 25.8 1012.1 #efff00
4 EE-1 2018-04-30 15:00:47 38.9216 -77.0282 415.5 25.6 26.7 1011.9 #eeff00
4 EE-1 2018-04-30 15:15:18 38.9216 -77.0282 415.5 28.3 25.7 1011.6 #eeff00
4 EE-1 2018-04-30 15:29:50 38.9216 -77.0282 417.2 29.5 24 1011.3 #f4ff00
4 EE-1 2018-04-30 15:44:21 38.9216 -77.0282 413.5 27.4 25.2 1011.2 #e7ff00
4 EE-1 2018-04-30 15:58:52 38.9216 -77.0282 413 27.2 25.5 1011 #e5ff00
4 EE-1 2018-04-30 16:13:23 38.9216 -77.0282 418.2 31.4 24 1010.8 #f8ff00
4 EE-1 2018-04-30 16:27:54 38.9216 -77.0282 418 30.7 24.3 1010.9 #f7ff00
4 EE-1 2018-04-30 16:42:25 38.9216 -77.0282 416.8 29.2 24.3 1010.7 #f3ff00
4 EE-1 2018-04-30 16:56:55 38.9216 -77.0282 417 29.3 24.4 1010.5 #f4ff00
4 EE-1 2018-04-30 17:11:26 38.9216 -77.0282 416.2 28.9 24.4 1010.6 #f1ff00
4 EE-1 2018-04-30 17:25:57 38.9216 -77.0282 416 27.7 24.6 1010.6 #f0ff00
4 EE-1 2018-04-30 17:40:28 38.9216 -77.0282 417.5 29.5 24.4 1010.4 #f5ff00
4 EE-1 2018-04-30 17:54:58 38.9216 -77.0282 417.2 29.6 24.8 1010.3 #f4ff00
4 EE-1 2018-04-30 18:09:29 38.9216 -77.0282 417.3 28.7 24.8 1010.2 #f5ff00
4 EE-1 2018-04-30 18:24:00 38.9216 -77.0282 416.2 26.9 26.4 1010.2 #f1ff00
4 EE-1 2018-04-30 18:38:31 38.9216 -77.0282 420.7 27.3 26.5 1010.2 #fffc00
4 EE-1 2018-04-30 18:53:02 38.9216 -77.0282 420 27.4 26.6 1010.2 #ffff00
4 EE-1 2018-04-30 19:07:33 38.9216 -77.0282 419.8 25.5 27.9 1010.2 #feff00
4 EE-1 2018-04-30 19:22:04 38.9216 -77.0282 421.7 24.7 28.8 1010.3 #fff800
4 EE-1 2018-04-30 19:36:35 38.9216 -77.0282 420 23.8 29.2 1010.5 #ffff00
4 EE-1 2018-04-30 19:51:05 38.9216 -77.0282 419.7 22.7 30 1010.7 #fdff00
4 EE-1 2018-04-30 20:05:36 38.9216 -77.0282 423 22.2 30.6 1010.7 #fff300
4 EE-1 2018-04-30 20:20:07 38.9216 -77.0282 426 21.4 31.5 1010.8 #ffe700
4 EE-1 2018-04-30 20:34:38 38.9216 -77.0282 429 21 32.1 1011 #ffdb00
4 EE-1 2018-04-30 20:49:09 38.9216 -77.0282 432.7 20.7 32.8 1011 #ffcd00
4 EE-1 2018-04-30 21:03:40 38.9216 -77.0282 435.7 20.3 33.4 1011.2 #ffc100
4 EE-1 2018-04-30 21:18:11 38.9216 -77.0282 437 20 34.2 1011.3 #ffbc00
4 EE-1 2018-04-30 21:32:41 38.9216 -77.0282 435.8 19.6 34.8 1011.5 #ffc000
4 EE-1 2018-04-30 21:47:12 38.9216 -77.0282 442.3 19.5 35.6 1011.5 #ffa700
4 EE-1 2018-04-30 22:01:43 38.9216 -77.0282 442.8 19.2 35.9 1011.5 #ffa500
4 EE-1 2018-04-30 22:16:14 38.9216 -77.0282 438.3 19.1 36.2 1011.5 #ffb700
4 EE-1 2018-04-30 22:30:45 38.9216 -77.0282 438.7 18.8 36.5 1011.5 #ffb500
4 EE-1 2018-04-30 22:45:16 38.9216 -77.0282 437.2 18.6 36.9 1011.6 #ffbb00
4 EE-1 2018-04-30 22:59:47 38.9216 -77.0282 437 18.4 37.3 1011.6 #ffbc00
4 EE-1 2018-04-30 23:14:18 38.9216 -77.0282 436.8 18.4 37.4 1011.8 #ffbc00
4 EE-1 2018-04-30 23:28:49 38.9216 -77.0282 438.5 18.2 37.6 1011.9 #ffb600
4 EE-1 2018-04-30 23:43:19 38.9216 -77.0282 438.2 17.9 37.9 1012 #ffb700
4 EE-1 2018-04-30 23:57:51 38.9216 -77.0282 432.7 17.6 38.1 1012 #ffcd00
4 EE-1 2018-05-06 00:00:49 38.9216 -77.0282 454 19.2 64.1 1011.8 #ff7900
4 EE-1 2018-05-06 00:15:20 38.9216 -77.0282 453 19.6 63.2 1011.1 #ff7d00
4 EE-1 2018-05-06 00:29:50 38.9216 -77.0282 454.5 19.5 64.4 1011.2 #ff7700
4 EE-1 2018-05-06 00:44:21 38.9216 -77.0282 451 19.7 63.7 1010.9 #ff8500
4 EE-1 2018-05-06 00:58:52 38.9216 -77.0282 454.5 19.6 64.9 1010.8 #ff7700
4 EE-1 2018-05-06 01:13:23 38.9216 -77.0282 454 19.8 64.9 1010.4 #ff7900
4 EE-1 2018-05-06 01:27:54 38.9216 -77.0282 460.8 19.6 67.5 1010.6 #ff5e00
4 EE-1 2018-05-06 01:42:24 38.9216 -77.0282 458.7 19.6 65.4 1010 #ff6700
4 EE-1 2018-05-06 01:56:55 38.9216 -77.0282 459.2 18.4 72.3 1010.5 #ff6500
4 EE-1 2018-05-06 02:11:26 38.9216 -77.0282 459.3 18.7 71.3 1010.3 #ff6400
4 EE-1 2018-05-06 02:25:57 38.9216 -77.0282 457 19.1 68.3 1009.7 #ff6d00
4 EE-1 2018-05-06 02:40:28 38.9216 -77.0282 460 19.1 67.8 1009.6 #ff6200
4 EE-1 2018-05-06 02:54:59 38.9216 -77.0282 456.8 19.1 68.1 1009.4 #ff6e00
4 EE-1 2018-05-06 03:09:29 38.9216 -77.0282 461 18.9 68.2 1009.4 #ff5e00
4 EE-1 2018-05-06 03:24:00 38.9216 -77.0282 464.8 19 68.6 1009.5 #ff4f00
4 EE-1 2018-05-06 03:38:31 38.9216 -77.0282 459 19 68.4 1009.4 #ff6600
4 EE-1 2018-05-06 03:53:02 38.9216 -77.0282 460.3 18.9 68.2 1009.1 #ff6000
4 EE-1 2018-05-06 04:07:33 38.9216 -77.0282 460 18.6 70.8 1009 #ff6200
4 EE-1 2018-05-06 04:22:03 38.9216 -77.0282 457.2 18.5 70.4 1008.9 #ff6d00
4 EE-1 2018-05-06 04:36:34 38.9216 -77.0282 457 18.5 70.7 1008.6 #ff6d00
4 EE-1 2018-05-06 04:51:05 38.9216 -77.0282 457.8 18.5 70.7 1008.7 #ff6a00
4 EE-1 2018-05-06 05:05:36 38.9216 -77.0282 457.7 18.4 71.6 1008.3 #ff6b00
4 EE-1 2018-05-06 05:20:07 38.9216 -77.0282 456.8 18.5 71.1 1008.6 #ff6e00
4 EE-1 2018-05-06 05:34:37 38.9216 -77.0282 455.8 18.2 71.9 1007.9 #ff7200
4 EE-1 2018-05-06 05:49:08 38.9216 -77.0282 459 17.6 73.7 1007.4 #ff6600
4 EE-1 2018-05-06 06:03:39 38.9216 -77.0282 460.2 17.6 73.2 1007.9 #ff6100
4 EE-1 2018-05-06 06:18:10 38.9216 -77.0282 458.3 17.6 74.1 1007.7 #ff6800
4 EE-1 2018-05-06 06:32:40 38.9216 -77.0282 458 17.7 73.7 1007.8 #ff6900
4 EE-1 2018-05-06 06:47:11 38.9216 -77.0282 459 17.8 74 1007.7 #ff6600
4 EE-1 2018-05-06 07:01:42 38.9216 -77.0282 459.3 18.2 73.4 1008.1 #ff6400
4 EE-1 2018-05-06 07:16:13 38.9216 -77.0282 461 18.5 73.8 1008.1 #ff5e00
4 EE-1 2018-05-06 07:30:44 38.9216 -77.0282 460 18.5 73.5 1007.8 #ff6200
4 EE-1 2018-05-06 07:45:14 38.9216 -77.0282 460.3 18.9 73 1007.9 #ff6000
4 EE-1 2018-05-06 07:59:45 38.9216 -77.0282 457.2 19.3 71.6 1007.9 #ff6d00
4 EE-1 2018-05-06 08:14:16 38.9216 -77.0282 454.3 19.8 70.3 1007.7 #ff7800
4 EE-1 2018-05-06 08:28:47 38.9216 -77.0282 455 19.7 70.7 1007.4 #ff7500
4 EE-1 2018-05-06 08:43:17 38.9216 -77.0282 455 20.2 69.6 1006.8 #ff7500
4 EE-1 2018-05-06 08:57:48 38.9216 -77.0282 452.3 20.4 68.9 1006.8 #ff8000
4 EE-1 2018-05-06 09:12:19 38.9216 -77.0282 452 21.2 67.7 1006.8 #ff8100
4 EE-1 2018-05-06 09:26:50 38.9216 -77.0282 451.7 22.6 64.6 1006.4 #ff8200
4 EE-1 2018-05-06 09:41:20 38.9216 -77.0282 447.2 22.9 63 1006.4 #ff9400
4 EE-1 2018-05-06 09:55:51 38.9216 -77.0282 447.2 23.8 61 1006.2 #ff9400
4 EE-1 2018-05-06 10:10:22 38.9216 -77.0282 444 24.3 60.2 1006.1 #ffa000
4 EE-1 2018-05-06 10:24:53 38.9216 -77.0282 446.3 25.5 57.7 1005.8 #ff9700
4 EE-1 2018-05-06 10:39:24 38.9216 -77.0282 445 27.4 53.9 1005.4 #ff9c00
4 EE-1 2018-05-06 10:53:55 38.9216 -77.0282 445.7 26.4 55.5 1006 #ff9a00
4 EE-1 2018-05-06 11:08:26 38.9216 -77.0282 444 26.8 55 1005.9 #ffa000
4 EE-1 2018-05-06 11:22:56 38.9216 -77.0282 447.7 29.9 49.4 1005.7 #ff9200
4 EE-1 2018-05-06 11:37:27 38.9216 -77.0282 446 30.9 48.4 1005.5 #ff9900
4 EE-1 2018-05-06 11:51:58 38.9216 -77.0282 448 32.2 46.3 1005.6 #ff9100
4 EE-1 2018-05-06 12:06:29 38.9216 -77.0282 443.3 31.4 46.5 1005.7 #ffa300
4 EE-1 2018-05-06 12:21:00 38.9216 -77.0282 447 34.2 42.8 1005.5 #ff9500
4 EE-1 2018-05-06 12:35:31 38.9216 -77.0282 445.5 34.1 42 1005.4 #ff9a00
4 EE-1 2018-05-06 12:50:01 38.9216 -77.0282 439.3 31.8 44.6 1005.1 #ffb300
4 EE-1 2018-05-06 13:04:32 38.9216 -77.0282 439 30.1 47.4 1004.8 #ffb400
4 EE-1 2018-05-06 13:19:03 38.9216 -77.0282 437.3 26.8 53.2 1004.8 #ffbb00
4 EE-1 2018-05-06 13:33:33 38.9216 -77.0282 439.3 29.1 49.8 1004.3 #ffb300
4 EE-1 2018-05-06 13:48:04 38.9216 -77.0282 438.5 31.6 46.6 1004.2 #ffb600
4 EE-1 2018-05-06 14:02:35 38.9216 -77.0282 435.5 34.9 41.5 1004 #ffc200
4 EE-1 2018-05-06 14:17:05 38.9216 -77.0282 430.8 34.2 41.8 1004.2 #ffd400
4 EE-1 2018-05-06 14:31:36 38.9216 -77.0282 433.5 32.3 44.1 1004.3 #ffca00
4 EE-1 2018-05-06 14:46:07 38.9216 -77.0282 430.5 30.2 46.9 1004.1 #ffd500
4 EE-1 2018-05-06 15:00:38 38.9216 -77.0282 432 29.7 47.8 1004.1 #ffcf00
4 EE-1 2018-05-06 15:15:09 38.9216 -77.0282 434.7 28.8 49.2 1004.2 #ffc500
4 EE-1 2018-05-06 15:29:39 38.9216 -77.0282 431.2 27.6 51.7 1004.2 #ffd300
4 EE-1 2018-05-06 15:44:10 38.9216 -77.0282 430 28.6 50.7 1004 #ffd700
4 EE-1 2018-05-06 15:58:41 38.9216 -77.0282 430 31.2 47.8 1003.6 #ffd700
4 EE-1 2018-05-06 16:13:11 38.9216 -77.0282 432.3 34.9 43.1 1003.3 #ffce00
4 EE-1 2018-05-06 16:27:42 38.9216 -77.0282 429.5 32.8 43.9 1003.5 #ffd900
4 EE-1 2018-05-06 16:42:13 38.9216 -77.0282 432.3 30.2 47.2 1003.7 #ffce00
4 EE-1 2018-05-06 16:56:45 38.9216 -77.0282 434.3 28.3 49.6 1003.9 #ffc600
4 EE-1 2018-05-06 17:11:16 38.9216 -77.0282 435.2 27 52.1 1004.1 #ffc300
4 EE-1 2018-05-06 17:25:46 38.9216 -77.0282 435.2 26.4 53.5 1004.2 #ffc300
4 EE-1 2018-05-06 17:40:17 38.9216 -77.0282 434.8 25.7 55.7 1004.3 #ffc400
4 EE-1 2018-05-06 17:54:48 38.9216 -77.0282 434.8 25.7 55.7 1004.3 #ffc400
4 EE-1 2018-05-06 18:09:19 38.9216 -77.0282 434.2 25.4 57.8 1004.5 #ffc700
4 EE-1 2018-05-06 18:23:50 38.9216 -77.0282 438.3 24.9 58.5 1004.7 #ffb700
4 EE-1 2018-05-06 18:38:20 38.9216 -77.0282 437.7 24.2 59.8 1004.7 #ffb900
4 EE-1 2018-05-06 18:52:51 38.9216 -77.0282 439.3 23.7 60.6 1004.6 #ffb300
4 EE-1 2018-05-06 19:07:22 38.9216 -77.0282 435.5 23.2 62.2 1004.7 #ffc200
4 EE-1 2018-05-06 19:21:53 38.9216 -77.0282 437.7 22.7 62.8 1004.9 #ffb900
4 EE-1 2018-05-06 19:36:23 38.9216 -77.0282 438 22.4 63.9 1005.2 #ffb800
4 EE-1 2018-05-06 19:50:54 38.9216 -77.0282 437.5 22 64.5 1005.4 #ffba00
4 EE-1 2018-05-06 20:05:25 38.9216 -77.0282 440 21.7 65.9 1005.5 #ffb000
4 EE-1 2018-05-06 20:19:56 38.9216 -77.0282 437 21.4 65 1005.7 #ffbc00
4 EE-1 2018-05-06 20:34:26 38.9216 -77.0282 443.5 21.3 65.6 1005.9 #ffa200
4 EE-1 2018-05-06 20:48:57 38.9216 -77.0282 441 21.2 65.8 1006.2 #ffac00
4 EE-1 2018-05-06 21:03:28 38.9216 -77.0282 441.5 20.9 66.5 1006.5 #ffaa00
4 EE-1 2018-05-06 21:17:58 38.9216 -77.0282 444 20.9 66.5 1006.7 #ffa000
4 EE-1 2018-05-06 21:32:29 38.9216 -77.0282 443.3 20.7 67.5 1006.8 #ffa300
4 EE-1 2018-05-06 21:47:00 38.9216 -77.0282 442 20.4 68.5 1006.8 #ffa800
4 EE-1 2018-05-06 22:01:31 38.9216 -77.0282 442.3 20.4 68.2 1007 #ffa700
4 EE-1 2018-05-06 22:16:02 38.9216 -77.0282 444.2 20.1 69.7 1007 #ffa000
4 EE-1 2018-05-06 22:30:33 38.9216 -77.0282 444.7 20.1 68.6 1006.9 #ff9e00
4 EE-1 2018-05-06 22:45:04 38.9216 -77.0282 445.7 19.9 68.9 1006.9 #ff9a00
4 EE-1 2018-05-06 22:59:34 38.9216 -77.0282 446.3 19.8 70.1 1007 #ff9700
4 EE-1 2018-05-06 23:14:05 38.9216 -77.0282 446 19.6 70 1007.1 #ff9900
4 EE-1 2018-05-06 23:28:36 38.9216 -77.0282 447.3 19 72.1 1007.1 #ff9300
4 EE-1 2018-05-06 23:43:06 38.9216 -77.0282 444.7 18.6 72.9 1007.4 #ff9e00
4 EE-1 2018-05-06 23:57:37 38.9216 -77.0282 443 18.2 73.6 1007.4 #ffa400
4 EE-1 2018-05-12 00:00:47 38.9216 -77.0282 458.2 25.9 52.2 1010.5 #ff6900
4 EE-1 2018-05-12 00:15:18 38.9216 -77.0282 459.7 25.4 53 1010.5 #ff6300
4 EE-1 2018-05-12 00:29:49 38.9216 -77.0282 460 25.2 53.9 1010.4 #ff6200
4 EE-1 2018-05-12 00:44:20 38.9216 -77.0282 460 25.1 54.3 1010.2 #ff6200
4 EE-1 2018-05-12 00:58:50 38.9216 -77.0282 465 25 55 1010 #ff4e00
4 EE-1 2018-05-12 01:13:21 38.9216 -77.0282 464 25 56.3 1010.1 #ff5200
4 EE-1 2018-05-12 01:27:52 38.9216 -77.0282 461.5 25 57.3 1009.9 #ff5c00
4 EE-1 2018-05-12 01:42:23 38.9216 -77.0282 461.7 24.8 59 1009.4 #ff5b00
4 EE-1 2018-05-12 01:56:53 38.9216 -77.0282 452.5 24.7 60.4 1009.1 #ff7f00
4 EE-1 2018-05-12 02:11:24 38.9216 -77.0282 448.3 24.3 63.1 1009 #ff8f00
4 EE-1 2018-05-12 02:25:55 38.9216 -77.0282 453.2 23.9 65 1009.2 #ff7c00
4 EE-1 2018-05-12 02:40:26 38.9216 -77.0282 455.3 24 65 1009 #ff7400
4 EE-1 2018-05-12 02:54:57 38.9216 -77.0282 456.7 24 66.2 1008.8 #ff6f00
4 EE-1 2018-05-12 03:09:28 38.9216 -77.0282 458 23.4 68.3 1008.6 #ff6900
4 EE-1 2018-05-12 03:23:59 38.9216 -77.0282 454.8 23.5 68.3 1008.7 #ff7600
4 EE-1 2018-05-12 03:38:29 38.9216 -77.0282 460 23.8 67.3 1009.1 #ff6200
4 EE-1 2018-05-12 03:53:00 38.9216 -77.0282 457.5 23.6 67.2 1009 #ff6b00
4 EE-1 2018-05-12 04:07:31 38.9216 -77.0282 461 23.8 65 1009.2 #ff5e00
4 EE-1 2018-05-12 04:22:02 38.9216 -77.0282 465 23.6 64.1 1009.6 #ff4e00
4 EE-1 2018-05-12 04:36:33 38.9216 -77.0282 464.8 23.4 63.8 1009.8 #ff4f00
4 EE-1 2018-05-12 04:51:03 38.9216 -77.0282 470.5 23.1 64.8 1009.7 #ff3800
4 EE-1 2018-05-12 05:05:35 38.9216 -77.0282 489 22.8 66.3 1009.5 #ff0000
4 EE-1 2018-05-12 05:20:06 38.9216 -77.0282 490.8 22.3 68.4 1009.7 #ff0000
4 EE-1 2018-05-12 05:34:37 38.9216 -77.0282 491.3 22 68.9 1009.9 #ff0000
4 EE-1 2018-05-12 05:49:08 38.9216 -77.0282 489 21.8 69.4 1010 #ff0000
4 EE-1 2018-05-12 06:03:39 38.9216 -77.0282 488 21.5 71.2 1010 #ff0000
4 EE-1 2018-05-12 06:18:10 38.9216 -77.0282 493.8 21.5 72.4 1010.1 #ff0000
4 EE-1 2018-05-12 06:32:41 38.9216 -77.0282 490.2 21.4 74.2 1010.3 #ff0000
4 EE-1 2018-05-12 06:47:11 38.9216 -77.0282 491 22 73.9 1010.4 #ff0000
4 EE-1 2018-05-12 07:01:42 38.9216 -77.0282 486 22.8 72.7 1010.6 #ff0000
4 EE-1 2018-05-12 07:16:13 38.9216 -77.0282 482.3 23.8 70.5 1010.8 #ff0a00
4 EE-1 2018-05-12 07:30:44 38.9216 -77.0282 477.7 24.8 68 1011 #ff1c00
4 EE-1 2018-05-12 07:45:15 38.9216 -77.0282 474.5 25.5 66.3 1011.1 #ff2900
4 EE-1 2018-05-12 07:59:46 38.9216 -77.0282 473.7 26.6 63.6 1011.4 #ff2c00
4 EE-1 2018-05-12 08:14:17 38.9216 -77.0282 470 27.4 61.5 1011.5 #ff3a00
4 EE-1 2018-05-12 08:28:48 38.9216 -77.0282 466.7 27.8 60.2 1011.5 #ff4700
4 EE-1 2018-05-12 08:43:18 38.9216 -77.0282 467 28.1 59.1 1011.6 #ff4600
4 EE-1 2018-05-12 08:57:49 38.9216 -77.0282 462 27.9 58.8 1011.7 #ff5a00
4 EE-1 2018-05-12 09:12:20 38.9216 -77.0282 463.7 27.9 58.9 1011.8 #ff5300
4 EE-1 2018-05-12 09:26:51 38.9216 -77.0282 464.5 28.7 57.1 1011.8 #ff5000
4 EE-1 2018-05-12 09:41:22 38.9216 -77.0282 468 31.7 53.1 1011.6 #ff4200
4 EE-1 2018-05-12 09:55:53 38.9216 -77.0282 464.7 34.7 48 1011.5 #ff4f00
4 EE-1 2018-05-12 10:10:24 38.9216 -77.0282 462 36.8 43.4 1011.4 #ff5a00
4 EE-1 2018-05-12 10:24:55 38.9216 -77.0282 463 38.3 42.2 1011.3 #ff5600
4 EE-1 2018-05-12 10:39:26 38.9216 -77.0282 461 37.8 41.3 1011.3 #ff5e00
4 EE-1 2018-05-12 10:53:57 38.9216 -77.0282 460 38.6 39.2 1011 #ff6200
4 EE-1 2018-05-12 11:08:27 38.9216 -77.0282 459 36.6 41.6 1011 #ff6600
4 EE-1 2018-05-12 11:22:58 38.9216 -77.0282 462 34.6 44.8 1010.8 #ff5a00
4 EE-1 2018-05-12 11:37:29 38.9216 -77.0282 460.3 35.5 43.8 1010.6 #ff6000
4 EE-1 2018-05-12 11:52:00 38.9216 -77.0282 459 33.8 46.4 1010.5 #ff6600
4 EE-1 2018-05-12 12:06:31 38.9216 -77.0282 455 34.6 46.2 1010.2 #ff7500
4 EE-1 2018-05-12 12:21:01 38.9216 -77.0282 457.7 36.2 44 1010 #ff6b00
4 EE-1 2018-05-12 12:35:32 38.9216 -77.0282 452.5 35 45.7 1009.8 #ff7f00
4 EE-1 2018-05-12 12:50:03 38.9216 -77.0282 457.2 37 43.1 1009.6 #ff6d00
4 EE-1 2018-05-12 13:04:33 38.9216 -77.0282 456.7 37.9 42 1009.3 #ff6f00
4 EE-1 2018-05-12 13:19:04 38.9216 -77.0282 453.7 39 40.7 1009.2 #ff7a00
4 EE-1 2018-05-12 13:33:35 38.9216 -77.0282 452.8 39.3 40.5 1009 #ff7e00
4 EE-1 2018-05-12 13:48:06 38.9216 -77.0282 445.8 38.4 41.5 1008.7 #ff9900
4 EE-1 2018-05-12 14:02:37 38.9216 -77.0282 450.7 39.5 39.8 1008.5 #ff8600
4 EE-1 2018-05-12 14:17:07 38.9216 -77.0282 444.3 39 40.3 1008.2 #ff9f00
4 EE-1 2018-05-12 14:31:38 38.9216 -77.0282 434 39.1 40.3 1008 #ffc800
4 EE-1 2018-05-12 14:46:09 38.9216 -77.0282 433.7 38.7 40.6 1007.6 #ffc900
4 EE-1 2018-05-12 15:00:40 38.9216 -77.0282 432.2 37.2 43.1 1007.5 #ffcf00
4 EE-1 2018-05-12 15:15:11 38.9216 -77.0282 433.5 38.6 41.6 1007.2 #ffca00
4 EE-1 2018-05-12 15:29:41 38.9216 -77.0282 426.2 36.5 43.9 1007.1 #ffe600
4 EE-1 2018-05-12 15:44:12 38.9216 -77.0282 427.8 38.4 41.9 1006.8 #ffe000
4 EE-1 2018-05-12 15:58:43 38.9216 -77.0282 429.8 38.8 41.1 1006.6 #ffd800
4 EE-1 2018-05-12 16:13:13 38.9216 -77.0282 424.5 36.1 45 1006.5 #ffed00
4 EE-1 2018-05-12 16:27:44 38.9216 -77.0282 427 36.1 45.5 1006.1 #ffe300
4 EE-1 2018-05-12 16:42:15 38.9216 -77.0282 427 38.4 41.9 1006 #ffe300
4 EE-1 2018-05-12 16:56:46 38.9216 -77.0282 433.8 37.8 43 1005.7 #ffc800
4 EE-1 2018-05-12 17:11:17 38.9216 -77.0282 426.3 38.5 41.4 1005.9 #ffe600
4 EE-1 2018-05-12 17:25:48 38.9216 -77.0282 426 37.8 42.3 1005.8 #ffe700
4 EE-1 2018-05-12 17:40:18 38.9216 -77.0282 427.3 37.3 42.8 1005.8 #ffe200
4 EE-1 2018-05-12 17:54:49 38.9216 -77.0282 425.5 37.6 43.1 1005.8 #ffe900
4 EE-1 2018-05-12 18:09:20 38.9216 -77.0282 424.7 36.1 46 1005.6 #ffec00
4 EE-1 2018-05-12 18:23:51 38.9216 -77.0282 429.8 34.7 48.6 1005.7 #ffd800
4 EE-1 2018-05-12 18:38:22 38.9216 -77.0282 429.2 34.7 48.8 1005.7 #ffdb00
4 EE-1 2018-05-12 18:52:53 38.9216 -77.0282 429.8 34.4 49.6 1005.6 #ffd800
4 EE-1 2018-05-12 19:07:24 38.9216 -77.0282 427.7 33.5 51.3 1005.4 #ffe000
4 EE-1 2018-05-12 19:21:55 38.9216 -77.0282 427.5 33.3 51.5 1005.2 #ffe100
4 EE-1 2018-05-12 19:36:26 38.9216 -77.0282 427.3 32.9 52.3 1005.4 #ffe200
4 EE-1 2018-05-12 19:50:57 38.9216 -77.0282 429.7 32.6 53 1005.2 #ffd900
4 EE-1 2018-05-12 20:05:28 38.9216 -77.0282 424 32.1 53.8 1004.9 #ffef00
4 EE-1 2018-05-12 20:19:59 38.9216 -77.0282 428.8 30.7 55 1005.6 #ffdc00
4 EE-1 2018-05-12 20:34:30 38.9216 -77.0282 439.8 29.7 60.5 1006.4 #ffb100
4 EE-1 2018-05-12 20:49:01 38.9216 -77.0282 444.7 28.5 62.1 1007.6 #ff9e00
4 EE-1 2018-05-12 21:03:31 38.9216 -77.0282 449 27.9 64.5 1009.2 #ff8d00
4 EE-1 2018-05-12 21:18:02 38.9216 -77.0282 450 27.2 66.2 1008.7 #ff8900
4 EE-1 2018-05-12 21:32:33 38.9216 -77.0282 450.8 26.9 65.1 1008.6 #ff8600
4 EE-1 2018-05-12 21:47:04 38.9216 -77.0282 450 26.7 65.1 1009.5 #ff8900
4 EE-1 2018-05-12 22:01:40 38.9216 -77.0282 452 26.1 66.7 1010.1 #ff8100
4 EE-1 2018-05-12 22:16:11 38.9216 -77.0282 450.2 26 66.8 1010.4 #ff8800
4 EE-1 2018-05-12 22:30:42 38.9216 -77.0282 454.7 25.8 67 1009.9 #ff7600
4 EE-1 2018-05-12 22:45:13 38.9216 -77.0282 453 25.4 71 1010 #ff7d00
4 EE-1 2018-05-12 22:59:43 38.9216 -77.0282 451.8 24.9 72.8 1009.7 #ff8200
4 EE-1 2018-05-12 23:14:14 38.9216 -77.0282 448 24.5 73.7 1009.7 #ff9100
4 EE-1 2018-05-12 23:28:45 38.9216 -77.0282 450.2 24.3 73.9 1010.1 #ff8800
4 EE-1 2018-05-12 23:43:16 38.9216 -77.0282 450 24 74.2 1010.1 #ff8900
4 EE-1 2018-05-12 23:57:46 38.9216 -77.0282 451.5 23.9 74.5 1010.3 #ff8300
4 EE-1 2018-05-14 00:00:51 38.9216 -77.0282 442.7 19.4 85.8 1010.6 #ffa600
4 EE-1 2018-05-14 00:15:22 38.9216 -77.0282 442 19.2 87.2 1010.6 #ffa800
4 EE-1 2018-05-14 00:29:53 38.9216 -77.0282 441 19.2 87.3 1010.7 #ffac00
4 EE-1 2018-05-14 00:44:24 38.9216 -77.0282 445.7 19.3 86.9 1010.6 #ff9a00
4 EE-1 2018-05-14 00:58:55 38.9216 -77.0282 442 19.3 86.5 1010 #ffa800
4 EE-1 2018-05-14 01:13:26 38.9216 -77.0282 445 19.5 85.6 1010 #ff9c00
4 EE-1 2018-05-14 01:27:56 38.9216 -77.0282 442 19.5 85.6 1009.9 #ffa800
4 EE-1 2018-05-14 01:42:27 38.9216 -77.0282 434.2 19.4 86.1 1009.7 #ffc700
4 EE-1 2018-05-14 01:56:58 38.9216 -77.0282 440.5 19.2 86.8 1009.4 #ffae00
4 EE-1 2018-05-14 02:11:29 38.9216 -77.0282 437 19.2 86.7 1009 #ffbc00
4 EE-1 2018-05-14 02:26:00 38.9216 -77.0282 436 19.3 85.9 1008.9 #ffc000
4 EE-1 2018-05-14 02:40:31 38.9216 -77.0282 437.8 19.5 85.3 1009 #ffb900
4 EE-1 2018-05-14 02:55:02 38.9216 -77.0282 436.3 19.5 86.5 1009 #ffbe00
4 EE-1 2018-05-14 03:09:33 38.9216 -77.0282 437 19.4 86.6 1008.7 #ffbc00
4 EE-1 2018-05-14 03:24:04 38.9216 -77.0282 435.7 19.2 87.1 1008.7 #ffc100
4 EE-1 2018-05-14 03:38:34 38.9216 -77.0282 439.2 19 87.4 1008.5 #ffb300
4 EE-1 2018-05-14 03:53:05 38.9216 -77.0282 437.8 19.1 87.9 1008.6 #ffb900
4 EE-1 2018-05-14 04:07:36 38.9216 -77.0282 440.7 19.1 87.9 1008.5 #ffad00
4 EE-1 2018-05-14 04:22:07 38.9216 -77.0282 439 19.1 88.1 1008.7 #ffb400
4 EE-1 2018-05-14 04:36:38 38.9216 -77.0282 440 19.1 87.8 1008.6 #ffb000
4 EE-1 2018-05-14 04:51:09 38.9216 -77.0282 443.7 19.1 87.4 1008.7 #ffa200
4 EE-1 2018-05-14 05:05:40 38.9216 -77.0282 444.3 19.1 87.5 1008.8 #ff9f00
4 EE-1 2018-05-14 05:20:11 38.9216 -77.0282 436.2 19.3 87.9 1008.8 #ffbf00
4 EE-1 2018-05-14 05:34:42 38.9216 -77.0282 443.3 19.3 87 1008.9 #ffa300
4 EE-1 2018-05-14 05:49:14 38.9216 -77.0282 443 19.3 87 1009 #ffa400
4 EE-1 2018-05-14 06:03:44 38.9216 -77.0282 445.5 19.4 87.1 1009 #ff9a00
4 EE-1 2018-05-14 06:18:15 38.9216 -77.0282 448.8 19.4 87.1 1009.2 #ff8d00
4 EE-1 2018-05-14 06:32:46 38.9216 -77.0282 450 19.4 87.3 1009.4 #ff8900
4 EE-1 2018-05-22 00:00:47 38.9216 -77.0282 440.5 22.7 71.3 1014 #ffae00
4 EE-1 2018-05-22 00:15:18 38.9216 -77.0282 441.8 22.9 70.2 1014 #ffa900
4 EE-1 2018-05-22 00:29:49 38.9216 -77.0282 443.7 23 69.7 1014 #ffa200
4 EE-1 2018-05-22 00:44:20 38.9216 -77.0282 440 23.2 69.2 1013.9 #ffb000
4 EE-1 2018-05-22 00:58:51 38.9216 -77.0282 438.8 23.1 69.5 1014 #ffb500
4 EE-1 2018-05-22 01:13:22 38.9216 -77.0282 441.7 23.4 68.3 1013.9 #ffa900
4 EE-1 2018-05-22 01:27:53 38.9216 -77.0282 446.8 23 69.5 1013.9 #ff9500
4 EE-1 2018-05-22 01:42:24 38.9216 -77.0282 448.3 23.3 68.3 1013.6 #ff8f00
4 EE-1 2018-05-22 01:56:54 38.9216 -77.0282 441.2 23.1 68.8 1013.4 #ffab00
4 EE-1 2018-05-22 02:11:25 38.9216 -77.0282 438 22.7 70.2 1013.3 #ffb800
4 EE-1 2018-05-22 02:25:56 38.9216 -77.0282 444 22.9 68.3 1013 #ffa000
4 EE-1 2018-05-22 02:40:27 38.9216 -77.0282 444.2 22.6 69.5 1013.1 #ffa000
4 EE-1 2018-05-22 02:54:58 38.9216 -77.0282 441.8 22.9 68.7 1013 #ffa900
4 EE-1 2018-05-22 03:09:29 38.9216 -77.0282 441.5 23 68 1012.9 #ffaa00
4 EE-1 2018-05-22 03:24:00 38.9216 -77.0282 442 22.7 69.2 1012.9 #ffa800
4 EE-1 2018-05-22 03:38:31 38.9216 -77.0282 441 22.4 70.1 1012.9 #ffac00
4 EE-1 2018-05-22 03:53:02 38.9216 -77.0282 442.8 22.7 69.2 1012.8 #ffa500
4 EE-1 2018-05-22 04:07:33 38.9216 -77.0282 441.8 22.3 70.7 1012.7 #ffa900
4 EE-1 2018-05-22 04:22:04 38.9216 -77.0282 444 22.8 69.3 1012.7 #ffa000
4 EE-1 2018-05-22 04:36:35 38.9216 -77.0282 444 22.6 69.7 1012.5 #ffa000
4 EE-1 2018-05-22 04:51:05 38.9216 -77.0282 446.5 22.4 71 1012.5 #ff9700
4 EE-1 2018-05-22 05:05:36 38.9216 -77.0282 443.5 22.1 72 1012.5 #ffa200
4 EE-1 2018-05-22 05:20:07 38.9216 -77.0282 446.2 22.2 71.3 1012.6 #ff9800
4 EE-1 2018-05-22 05:34:38 38.9216 -77.0282 452.3 22.3 71.1 1012.5 #ff8000
4 EE-1 2018-05-22 05:49:09 38.9216 -77.0282 449.8 22.5 69.9 1012.5 #ff8900
4 EE-1 2018-05-22 06:03:40 38.9216 -77.0282 450 22.6 69.4 1012.6 #ff8900
4 EE-1 2018-05-22 06:18:11 38.9216 -77.0282 451.7 22.7 68.8 1012.7 #ff8200
4 EE-1 2018-05-22 06:32:42 38.9216 -77.0282 447.3 22.8 68.5 1012.8 #ff9300
4 EE-1 2018-05-22 06:47:13 38.9216 -77.0282 448.8 22.4 69.7 1012.9 #ff8d00
4 EE-1 2018-05-22 07:01:43 38.9216 -77.0282 453.2 22.3 69.8 1012.7 #ff7c00
4 EE-1 2018-05-22 07:16:14 38.9216 -77.0282 458.8 22.4 70.5 1012.8 #ff6600
4 EE-1 2018-05-22 07:30:45 38.9216 -77.0282 461.8 22 72.2 1013 #ff5a00
4 EE-1 2018-05-22 07:45:16 38.9216 -77.0282 461 22.8 70.8 1012.8 #ff5e00
4 EE-1 2018-05-22 07:59:47 38.9216 -77.0282 461 22.9 70.3 1012.9 #ff5e00
4 EE-1 2018-05-22 08:14:18 38.9216 -77.0282 468.8 22.3 72.6 1013 #ff3f00
4 EE-1 2018-05-22 08:28:49 38.9216 -77.0282 473 21.9 74.9 1012.8 #ff2f00
4 EE-1 2018-05-22 08:43:20 38.9216 -77.0282 470.3 21.5 76.9 1012.9 #ff3900
4 EE-1 2018-05-22 08:57:50 38.9216 -77.0282 474 21.7 76.8 1012.8 #ff2b00
4 EE-1 2018-05-22 09:12:21 38.9216 -77.0282 475 22.8 74.1 1012.6 #ff2700
4 EE-1 2018-05-22 09:26:52 38.9216 -77.0282 476 23.1 72.8 1012.6 #ff2300
4 EE-1 2018-05-22 09:41:23 38.9216 -77.0282 469.5 23.2 73 1012.6 #ff3c00
4 EE-1 2018-05-22 09:55:54 38.9216 -77.0282 474.2 23.5 72.6 1012.5 #ff2a00
4 EE-1 2018-05-22 10:10:25 38.9216 -77.0282 474.8 23.2 73.9 1012.5 #ff2700
4 EE-1 2018-05-22 10:24:56 38.9216 -77.0282 471 22.9 76.6 1012.4 #ff3600
4 EE-1 2018-05-22 10:39:27 38.9216 -77.0282 468 22.5 79.4 1012.2 #ff4200
4 EE-1 2018-05-22 10:53:58 38.9216 -77.0282 466.5 22.3 80.7 1012.1 #ff4800
4 EE-1 2018-05-22 11:08:28 38.9216 -77.0282 462 22.4 80.7 1012.3 #ff5a00
4 EE-1 2018-05-22 11:22:59 38.9216 -77.0282 458.3 22 84.6 1012.1 #ff6800
4 EE-1 2018-05-22 11:37:30 38.9216 -77.0282 458.3 23.1 82.7 1011.6 #ff6800
4 EE-1 2018-05-22 11:52:01 38.9216 -77.0282 461 24.5 78.6 1011.6 #ff5e00
4 EE-1 2018-05-22 12:06:32 38.9216 -77.0282 459 25.4 75.1 1011.6 #ff6600
4 EE-1 2018-05-22 12:21:03 38.9216 -77.0282 453.5 25.7 73.1 1011.7 #ff7b00
4 EE-1 2018-05-22 12:35:34 38.9216 -77.0282 450.2 24.9 76.2 1011.7 #ff8800
4 EE-1 2018-05-22 12:50:05 38.9216 -77.0282 457 27.9 68.3 1011.4 #ff6d00
4 EE-1 2018-05-22 13:04:36 38.9216 -77.0282 450.5 27.5 68.6 1011.4 #ff8700
4 EE-1 2018-05-22 13:19:07 38.9216 -77.0282 447.2 27.4 68.8 1011.2 #ff9400
4 EE-1 2018-05-22 13:33:38 38.9216 -77.0282 448 29.4 64 1011 #ff9100
4 EE-1 2018-05-22 13:48:09 38.9216 -77.0282 450.7 31.1 60.3 1010.6 #ff8600
4 EE-1 2018-05-22 14:02:40 38.9216 -77.0282 452.7 32.7 56.3 1010.4 #ff7e00
4 EE-1 2018-05-22 14:17:10 38.9216 -77.0282 447.7 33.9 53.2 1010.1 #ff9200
4 EE-1 2018-05-22 14:31:41 38.9216 -77.0282 448.5 35.5 51.5 1009.7 #ff8f00
4 EE-1 2018-05-22 14:46:12 38.9216 -77.0282 445 36.5 50.4 1009.2 #ff9c00
4 EE-1 2018-05-22 15:00:43 38.9216 -77.0282 449.2 37.6 48.1 1009 #ff8c00
4 EE-1 2018-05-22 15:15:14 38.9216 -77.0282 437 36 48.6 1008.7 #ffbc00
4 EE-1 2018-05-22 15:29:45 38.9216 -77.0282 444.8 37.1 48.1 1008.6 #ff9d00
4 EE-1 2018-05-22 15:44:16 38.9216 -77.0282 433.2 36.9 47.2 1008.5 #ffcb00
4 EE-1 2018-05-22 15:58:47 38.9216 -77.0282 442.3 38.9 44.2 1008.2 #ffa700
4 EE-1 2018-05-22 16:13:17 38.9216 -77.0282 434.2 37.6 44.9 1008.2 #ffc700
4 EE-1 2018-05-22 16:27:48 38.9216 -77.0282 438.3 33.3 53.1 1008.9 #ffb700
4 EE-1 2018-05-22 16:42:19 38.9216 -77.0282 439.3 27.5 65.1 1008.8 #ffb300
4 EE-1 2018-05-22 16:56:50 38.9216 -77.0282 436 24.9 71.2 1008.5 #ffc000
4 EE-1 2018-05-22 17:11:21 38.9216 -77.0282 445.7 24.3 75.3 1009 #ff9a00
4 EE-1 2018-05-22 17:25:52 38.9216 -77.0282 445 23.8 82.1 1008.6 #ff9c00
4 EE-1 2018-05-22 17:40:23 38.9216 -77.0282 451.7 23.4 86.2 1009.2 #ff8200
4 EE-1 2018-05-22 17:54:54 38.9216 -77.0282 456.2 24.1 81.3 1008.4 #ff7100
4 EE-1 2018-05-22 18:09:25 38.9216 -77.0282 462.2 24.5 78 1008.6 #ff5900
4 EE-1 2018-05-22 18:23:56 38.9216 -77.0282 465.5 24.4 79 1008.6 #ff4c00
4 EE-1 2018-05-22 18:38:27 38.9216 -77.0282 470.8 24.7 78.5 1008.4 #ff3700
4 EE-1 2018-05-22 18:52:58 38.9216 -77.0282 476.8 25.2 78.3 1008.4 #ff2000
4 EE-1 2018-05-22 19:07:29 38.9216 -77.0282 483.2 26.2 77.2 1008.4 #ff0700
4 EE-1 2018-05-22 19:22:00 38.9216 -77.0282 485.5 26.6 76.9 1008 #ff0000
4 EE-1 2018-05-22 19:36:31 38.9216 -77.0282 482.3 26.3 77.3 1008.1 #ff0a00
4 EE-1 2018-05-22 19:51:02 38.9216 -77.0282 474.3 25.8 80.2 1008 #ff2900
4 EE-1 2018-05-22 20:05:33 38.9216 -77.0282 459.8 25 82.7 1008.1 #ff6200
4 EE-1 2018-05-22 20:20:04 38.9216 -77.0282 457.5 24.1 86.1 1008.3 #ff6b00
4 EE-1 2018-05-22 20:34:35 38.9216 -77.0282 451.2 24 85 1008.3 #ff8400
4 EE-1 2018-05-22 20:49:06 38.9216 -77.0282 452.8 23 89.1 1008.5 #ff7e00
4 EE-1 2018-05-22 21:03:37 38.9216 -77.0282 453.8 22.9 88.9 1008.6 #ff7a00
4 EE-1 2018-05-22 21:18:08 38.9216 -77.0282 454.8 22.9 88.6 1008.6 #ff7600
4 EE-1 2018-05-22 21:32:39 38.9216 -77.0282 453 22.7 89 1008.8 #ff7d00
4 EE-1 2018-05-22 21:47:10 38.9216 -77.0282 453.2 23.2 87.3 1009 #ff7c00
4 EE-1 2018-05-22 22:01:40 38.9216 -77.0282 451 22.9 88.2 1009.2 #ff8500
4 EE-1 2018-05-22 22:16:11 38.9216 -77.0282 450 22.4 90.9 1009.3 #ff8900
4 EE-1 2018-05-22 22:30:42 38.9216 -77.0282 446 22.5 91.6 1009.1 #ff9900
4 EE-1 2018-05-22 22:45:13 38.9216 -77.0282 448.2 23 89.7 1008.6 #ff9000
4 EE-1 2018-05-22 22:59:44 38.9216 -77.0282 448.7 22.2 94 1008.5 #ff8e00
4 EE-1 2018-05-22 23:14:15 38.9216 -77.0282 448 22.5 92.4 1008.5 #ff9100
4 EE-1 2018-05-22 23:28:46 38.9216 -77.0282 443.5 21.8 95.4 1008.7 #ffa200
4 EE-1 2018-05-22 23:43:16 38.9216 -77.0282 443.7 21.7 95.1 1008.7 #ffa200
4 EE-1 2018-05-22 23:57:47 38.9216 -77.0282 442.8 21.6 95.4 1008.2 #ffa500
4 EE-1 2018-05-27 00:00:48 38.9216 -77.0282 452 26.6 80.2 1005.2 #ff8100
4 EE-1 2018-05-27 00:15:19 38.9216 -77.0282 451.3 25.9 83.1 1005.2 #ff8400
4 EE-1 2018-05-27 00:29:50 38.9216 -77.0282 455.8 26.1 82 1004.9 #ff7200
4 EE-1 2018-05-27 00:44:20 38.9216 -77.0282 456.8 26.1 82.4 1005 #ff6e00
4 EE-1 2018-05-27 00:58:51 38.9216 -77.0282 454.7 25.9 82.5 1005 #ff7600
4 EE-1 2018-05-27 01:13:22 38.9216 -77.0282 454 25.6 84.8 1005.1 #ff7900
4 EE-1 2018-05-27 01:27:53 38.9216 -77.0282 457.2 25.5 86 1005.1 #ff6d00
4 EE-1 2018-05-27 01:42:24 38.9216 -77.0282 455 26.1 82.6 1005 #ff7500
4 EE-1 2018-05-27 01:56:55 38.9216 -77.0282 455.3 26 83.8 1004.8 #ff7400
4 EE-1 2018-05-27 02:11:26 38.9216 -77.0282 455 26 83.5 1004.8 #ff7500
4 EE-1 2018-05-27 02:25:57 38.9216 -77.0282 454.2 26 83.4 1004.7 #ff7800
4 EE-1 2018-05-27 02:40:28 38.9216 -77.0282 455.3 25.5 86.2 1004.7 #ff7400
4 EE-1 2018-05-27 02:54:59 38.9216 -77.0282 454.2 25.1 87.9 1004.8 #ff7800
4 EE-1 2018-05-27 03:09:30 38.9216 -77.0282 456 25 88.8 1004.8 #ff7100
4 EE-1 2018-05-27 03:24:01 38.9216 -77.0282 455.3 25.2 88.1 1004.9 #ff7400
4 EE-1 2018-05-27 03:38:32 38.9216 -77.0282 457 25.1 89.1 1004.8 #ff6d00
4 EE-1 2018-05-27 03:53:03 38.9216 -77.0282 458.2 25.5 87.2 1004.8 #ff6900
4 EE-1 2018-05-27 04:07:34 38.9216 -77.0282 460.8 25.3 88.4 1004.9 #ff5e00
4 EE-1 2018-05-27 04:22:05 38.9216 -77.0282 458.8 25 89.8 1005 #ff6600
4 EE-1 2018-05-27 04:36:35 38.9216 -77.0282 461.8 24.8 90.8 1005 #ff5a00
4 EE-1 2018-05-27 04:51:06 38.9216 -77.0282 463.2 24.9 90.4 1005.1 #ff5500
4 EE-1 2018-05-27 05:05:37 38.9216 -77.0282 463 25.4 88.2 1005 #ff5600
4 EE-1 2018-05-27 05:20:08 38.9216 -77.0282 464.2 25.5 87.7 1005.2 #ff5100
4 EE-1 2018-05-27 05:34:39 38.9216 -77.0282 455.2 25.5 85.7 1005.2 #ff7500
4 EE-1 2018-05-27 05:49:10 38.9216 -77.0282 448 25.4 85.7 1005.4 #ff9100
4 EE-1 2018-05-27 06:03:41 38.9216 -77.0282 448 25.4 85.6 1005.5 #ff9100
4 EE-1 2018-05-27 06:18:12 38.9216 -77.0282 447 25.4 85.3 1005.6 #ff9500
4 EE-1 2018-05-27 06:32:43 38.9216 -77.0282 447.2 25.5 85.3 1005.8 #ff9400
4 EE-1 2018-05-27 06:47:14 38.9216 -77.0282 449 25.6 85 1006 #ff8d00
4 EE-1 2018-05-27 07:01:45 38.9216 -77.0282 451.2 25.6 85.1 1006.1 #ff8400
4 EE-1 2018-05-27 07:16:15 38.9216 -77.0282 452 26.3 82.6 1006.3 #ff8100
4 EE-1 2018-05-27 07:30:46 38.9216 -77.0282 454 26.3 82.4 1006.2 #ff7900
4 EE-1 2018-05-27 07:45:17 38.9216 -77.0282 453 26.9 80.5 1006.1 #ff7d00
4 EE-1 2018-05-27 07:59:48 38.9216 -77.0282 450.5 26.8 80 1006.3 #ff8700
4 EE-1 2018-05-27 08:14:19 38.9216 -77.0282 456.3 30.6 70.5 1006.3 #ff7000
4 EE-1 2018-05-27 08:28:50 38.9216 -77.0282 451.5 33 63.4 1006.4 #ff8300
4 EE-1 2018-05-27 08:43:21 38.9216 -77.0282 447.7 31.5 64.8 1006.3 #ff9200
4 EE-1 2018-05-27 08:57:52 38.9216 -77.0282 446 32.4 63 1006.4 #ff9900
4 EE-1 2018-05-27 09:12:22 38.9216 -77.0282 440.3 32.5 60.5 1006.6 #ffaf00
4 EE-1 2018-05-27 09:26:53 38.9216 -77.0282 441 31.5 62.9 1006.8 #ffac00
4 EE-1 2018-05-27 09:41:24 38.9216 -77.0282 440.2 30.8 64.4 1007 #ffaf00
4 EE-1 2018-05-27 09:55:55 38.9216 -77.0282 446.5 35 56.3 1006.9 #ff9700
4 EE-1 2018-05-27 10:10:26 38.9216 -77.0282 440 36 51.8 1006.8 #ffb000
4 EE-1 2018-05-27 10:24:57 38.9216 -77.0282 438 37.2 51.7 1006.7 #ffb800
4 EE-1 2018-05-27 10:39:27 38.9216 -77.0282 436.2 39.6 45.9 1006.8 #ffbf00
4 EE-1 2018-05-27 10:53:58 38.9216 -77.0282 434.2 42.6 41.4 1006.7 #ffc700
4 EE-1 2018-05-27 11:08:29 38.9216 -77.0282 436 44.6 36.5 1006.7 #ffc000
4 EE-1 2018-05-27 11:23:00 38.9216 -77.0282 434.3 42.5 39.8 1006.8 #ffc600
4 EE-1 2018-05-27 11:37:30 38.9216 -77.0282 434 42.5 38.8 1006.8 #ffc800
4 EE-1 2018-05-27 11:52:01 38.9216 -77.0282 435.3 43.5 38.8 1006.8 #ffc200
4 EE-1 2018-05-27 12:06:32 38.9216 -77.0282 435 45.5 35.6 1006.6 #ffc400
4 EE-1 2018-05-27 12:21:03 38.9216 -77.0282 436 42.4 38.8 1006.5 #ffc000
4 EE-1 2018-05-27 12:35:35 38.9216 -77.0282 440.3 38.2 45.8 1006.5 #ffaf00
4 EE-1 2018-05-27 12:50:06 38.9216 -77.0282 437.8 40.8 41.8 1006.3 #ffb900
4 EE-1 2018-05-27 13:04:37 38.9216 -77.0282 438 43 37.7 1006.3 #ffb800
4 EE-1 2018-05-27 13:19:08 38.9216 -77.0282 436.7 38.8 43.4 1006.2 #ffbd00
4 EE-1 2018-05-27 13:33:39 38.9216 -77.0282 436.2 37.8 46.1 1006 #ffbf00
4 EE-1 2018-05-27 13:48:10 38.9216 -77.0282 437.2 38.7 44.7 1005.8 #ffbb00
4 EE-1 2018-05-27 14:02:40 38.9216 -77.0282 436 38.4 45.5 1005.7 #ffc000
4 EE-1 2018-05-27 14:17:11 38.9216 -77.0282 437 35.6 50.7 1005.6 #ffbc00
4 EE-1 2018-05-27 14:31:42 38.9216 -77.0282 442.5 34.3 53.8 1005.4 #ffa600
4 EE-1 2018-05-27 14:46:13 38.9216 -77.0282 439.5 33.5 55.6 1005.4 #ffb200
4 EE-1 2018-05-27 15:00:44 38.9216 -77.0282 439 33.4 55.9 1005.3 #ffb400
4 EE-1 2018-05-27 15:15:15 38.9216 -77.0282 436.5 33.9 54.6 1005.2 #ffbe00
4 EE-1 2018-05-27 15:29:46 38.9216 -77.0282 436.2 33.2 55.7 1005.2 #ffbf00
4 EE-1 2018-05-27 15:44:17 38.9216 -77.0282 432.7 32.6 57.2 1005 #ffcd00
4 EE-1 2018-05-27 15:58:48 38.9216 -77.0282 432.2 31.2 60.6 1005.3 #ffcf00
4 EE-1 2018-05-27 16:13:18 38.9216 -77.0282 432 32.2 59.2 1005.4 #ffcf00
4 EE-1 2018-05-27 16:27:49 38.9216 -77.0282 435.5 32.5 59.1 1005.4 #ffc200
4 EE-1 2018-05-27 16:42:20 38.9216 -77.0282 436 31.9 61 1005.4 #ffc000
4 EE-1 2018-05-27 16:56:51 38.9216 -77.0282 440.7 31 64.2 1005.8 #ffad00
4 EE-1 2018-05-27 17:11:21 38.9216 -77.0282 442 29.4 68.7 1006.2 #ffa800
4 EE-1 2018-05-27 17:25:52 38.9216 -77.0282 443 29.3 69.7 1006.1 #ffa400
4 EE-1 2018-05-27 17:40:23 38.9216 -77.0282 444 29.6 70 1006.3 #ffa000
4 EE-1 2018-05-27 17:54:54 38.9216 -77.0282 438.2 30.4 65.4 1006.4 #ffb700
4 EE-1 2018-05-27 18:09:25 38.9216 -77.0282 433.8 30.1 64.1 1006.5 #ffc800
4 EE-1 2018-05-27 18:23:56 38.9216 -77.0282 433 29.4 64.5 1006.4 #ffcc00
4 EE-1 2018-05-27 18:38:26 38.9216 -77.0282 429.8 28.7 66.2 1006.6 #ffd800
4 EE-1 2018-05-27 18:52:58 38.9216 -77.0282 433.5 28 68.1 1006.9 #ffca00
4 EE-1 2018-05-27 19:07:29 38.9216 -77.0282 438.7 27.9 69 1007.2 #ffb500
4 EE-1 2018-05-27 19:21:59 38.9216 -77.0282 442 27.6 70.8 1007.2 #ffa800
4 EE-1 2018-05-27 19:36:30 38.9216 -77.0282 445.8 28.2 67.6 1007.6 #ff9900
4 EE-1 2018-05-27 19:51:01 38.9216 -77.0282 444 27.7 70 1007.8 #ffa000
4 EE-1 2018-05-27 20:05:32 38.9216 -77.0282 445.7 26.8 73.6 1007.9 #ff9a00
4 EE-1 2018-05-27 20:20:03 38.9216 -77.0282 446 26.1 75.2 1008 #ff9900
4 EE-1 2018-05-27 20:34:34 38.9216 -77.0282 445.2 25.8 78.5 1007.9 #ff9c00
4 EE-1 2018-05-27 20:49:05 38.9216 -77.0282 444.5 25.4 80.5 1008 #ff9e00
4 EE-1 2018-05-27 21:03:35 38.9216 -77.0282 445.7 24.9 83.2 1008.1 #ff9a00
4 EE-1 2018-05-27 21:18:06 38.9216 -77.0282 442.8 25 83.4 1008.4 #ffa500
4 EE-1 2018-05-27 21:32:37 38.9216 -77.0282 446 25 83.9 1008.7 #ff9900
4 EE-1 2018-05-27 21:47:08 38.9216 -77.0282 444 25.2 82.5 1008.9 #ffa000
4 EE-1 2018-05-27 22:01:39 38.9216 -77.0282 447.5 25.2 82.3 1009 #ff9300
4 EE-1 2018-05-27 22:16:10 38.9216 -77.0282 445 25.5 82.2 1009.3 #ff9c00
4 EE-1 2018-05-27 22:30:41 38.9216 -77.0282 443.3 25.5 82.7 1009.4 #ffa300
4 EE-1 2018-05-27 22:45:12 38.9216 -77.0282 448 25.2 82.5 1009.7 #ff9100
4 EE-1 2018-05-27 22:59:43 38.9216 -77.0282 445.5 24.6 82.4 1009.9 #ff9a00
4 EE-1 2018-05-27 23:14:14 38.9216 -77.0282 446.7 24.3 82 1010 #ff9600
4 EE-1 2018-05-27 23:28:45 38.9216 -77.0282 448.5 23.8 83.9 1010 #ff8f00
4 EE-1 2018-05-27 23:43:15 38.9216 -77.0282 452.5 23.6 84.1 1010.3 #ff7f00
4 EE-1 2018-05-27 23:57:47 38.9216 -77.0282 449.3 23.4 85.2 1010.3 #ff8b00
4 EE-1 2018-05-29 00:00:49 38.9216 -77.0282 440.2 23.8 81.1 1010 #ffaf00
4 EE-1 2018-05-29 00:15:20 38.9216 -77.0282 438.5 23.8 81.1 1010 #ffb600
4 EE-1 2018-05-29 00:29:51 38.9216 -77.0282 440.7 24 80.5 1010.1 #ffad00
4 EE-1 2018-05-29 00:44:21 38.9216 -77.0282 437.8 24.1 79.1 1010.2 #ffb900
4 EE-1 2018-05-29 00:58:52 38.9216 -77.0282 441 24.1 78.8 1010.1 #ffac00
4 EE-1 2018-05-29 01:13:23 38.9216 -77.0282 445.2 24.1 78.5 1010.1 #ff9c00
4 EE-1 2018-05-29 01:27:54 38.9216 -77.0282 452 23.8 81.1 1010 #ff8100
4 EE-1 2018-05-29 01:42:25 38.9216 -77.0282 451 23.6 80.4 1010 #ff8500
4 EE-1 2018-05-29 01:56:55 38.9216 -77.0282 448.7 23.7 80.4 1009.8 #ff8e00
4 EE-1 2018-05-29 02:11:27 38.9216 -77.0282 444.8 23.7 81.7 1009.6 #ff9d00
4 EE-1 2018-05-29 02:25:58 38.9216 -77.0282 447 23.5 81.3 1009.4 #ff9500
4 EE-1 2018-05-29 02:40:29 38.9216 -77.0282 450 23.7 80.7 1009.6 #ff8900
4 EE-1 2018-05-29 02:55:00 38.9216 -77.0282 451 23.8 80.1 1009.6 #ff8500
4 EE-1 2018-05-29 03:09:31 38.9216 -77.0282 448 23.9 79.8 1009.6 #ff9100
4 EE-1 2018-05-29 03:24:02 38.9216 -77.0282 451.2 24 79.4 1009.6 #ff8400
4 EE-1 2018-05-29 03:38:33 38.9216 -77.0282 449 24.1 79.5 1009.6 #ff8d00
4 EE-1 2018-05-29 03:53:04 38.9216 -77.0282 452 24 80.5 1009.5 #ff8100
4 EE-1 2018-05-29 04:07:35 38.9216 -77.0282 450 24 80.8 1009.4 #ff8900
4 EE-1 2018-05-29 04:22:06 38.9216 -77.0282 454 24 81.2 1009.2 #ff7900
4 EE-1 2018-05-29 04:36:37 38.9216 -77.0282 454 24 80.3 1009.1 #ff7900
4 EE-1 2018-05-29 04:51:08 38.9216 -77.0282 452.7 24.3 79.5 1009.3 #ff7e00
4 EE-1 2018-05-29 05:05:39 38.9216 -77.0282 456 24.3 79.4 1009.3 #ff7100
4 EE-1 2018-05-29 05:20:10 38.9216 -77.0282 457.5 24.4 80 1009.4 #ff6b00
4 EE-1 2018-05-29 05:34:41 38.9216 -77.0282 473.7 24.3 80.3 1009.2 #ff2c00
4 EE-1 2018-05-29 05:49:12 38.9216 -77.0282 472 24.3 80.2 1009.3 #ff3300
4 EE-1 2018-05-29 06:03:43 38.9216 -77.0282 461 24.2 80.2 1009.3 #ff5e00
4 EE-1 2018-05-29 06:18:14 38.9216 -77.0282 461.7 24.4 79.5 1009.4 #ff5b00
4 EE-1 2018-05-29 06:32:44 38.9216 -77.0282 464.5 24.7 79.5 1009.5 #ff5000
4 EE-1 2018-05-29 06:47:15 38.9216 -77.0282 467 24.9 78.6 1009.5 #ff4600
4 EE-1 2018-05-29 07:01:46 38.9216 -77.0282 467 25.1 78.2 1009.5 #ff4600
4 EE-1 2018-05-29 07:16:17 38.9216 -77.0282 471.7 25.2 78.6 1009.5 #ff3400
4 EE-1 2018-05-29 07:30:48 38.9216 -77.0282 471.3 25.7 77.8 1009.5 #ff3500
4 EE-1 2018-05-29 07:45:19 38.9216 -77.0282 474 26.7 75.8 1009.4 #ff2b00
4 EE-1 2018-05-29 07:59:51 38.9216 -77.0282 474 27.1 74.4 1009.6 #ff2b00
4 EE-1 2018-05-29 08:14:22 38.9216 -77.0282 477 27 74.5 1009.8 #ff1f00
4 EE-1 2018-05-29 08:28:53 38.9216 -77.0282 481.2 27.1 73.8 1009.9 #ff0f00
4 EE-1 2018-05-29 08:43:24 38.9216 -77.0282 481.7 27.9 72.7 1009.9 #ff0d00
4 EE-1 2018-05-29 08:57:54 38.9216 -77.0282 472.7 28.1 71.8 1010 #ff3000
4 EE-1 2018-05-29 09:12:25 38.9216 -77.0282 460 26.4 76.5 1010 #ff6200
4 EE-1 2018-05-29 09:26:56 38.9216 -77.0282 460 27.8 72.6 1010 #ff6200
4 EE-1 2018-05-29 09:41:27 38.9216 -77.0282 464 28.9 70.4 1009.9 #ff5200
4 EE-1 2018-05-29 09:55:58 38.9216 -77.0282 460.8 31.6 64.9 1010 #ff5e00
4 EE-1 2018-05-29 10:10:29 38.9216 -77.0282 463 32.6 62.5 1010 #ff5600
4 EE-1 2018-05-29 10:25:00 38.9216 -77.0282 458.2 32.1 61.8 1010.1 #ff6900
4 EE-1 2018-05-29 10:39:31 38.9216 -77.0282 453 33.1 59.3 1010 #ff7d00
4 EE-1 2018-05-29 10:54:02 38.9216 -77.0282 450.8 35.3 52.8 1010 #ff8600
4 EE-1 2018-05-29 11:08:33 38.9216 -77.0282 450.7 34.9 53.8 1010.1 #ff8600
4 EE-1 2018-05-29 11:23:03 38.9216 -77.0282 448.3 34.9 54 1009.9 #ff8f00
4 EE-1 2018-05-29 11:37:35 38.9216 -77.0282 457.3 36.4 50.5 1009.9 #ff6c00
4 EE-1 2018-05-29 11:52:05 38.9216 -77.0282 449 36.8 49.3 1009.9 #ff8d00
4 EE-1 2018-05-29 12:06:36 38.9216 -77.0282 445 37.2 48.4 1009.8 #ff9c00
4 EE-1 2018-05-29 12:21:07 38.9216 -77.0282 460.3 37.1 48.3 1009.9 #ff6000
4 EE-1 2018-05-29 12:35:38 38.9216 -77.0282 457.3 36.7 49.2 1010 #ff6c00
4 EE-1 2018-05-29 12:50:09 38.9216 -77.0282 454 34.6 52.8 1009.7 #ff7900
4 EE-1 2018-05-29 13:04:40 38.9216 -77.0282 457.5 32.3 58.2 1009.6 #ff6b00
4 EE-1 2018-05-29 13:19:11 38.9216 -77.0282 455.2 29.9 65.2 1009.5 #ff7500
4 EE-1 2018-05-29 13:33:42 38.9216 -77.0282 452 29.9 65.7 1009.4 #ff8100
4 EE-1 2018-05-29 13:48:13 38.9216 -77.0282 447 30.8 63.1 1009.4 #ff9500
4 EE-1 2018-05-29 14:02:44 38.9216 -77.0282 449.3 31.5 61.5 1009.2 #ff8b00
4 EE-1 2018-05-29 14:17:14 38.9216 -77.0282 454.3 32.5 58.9 1009 #ff7800
4 EE-1 2018-05-29 14:31:45 38.9216 -77.0282 451 32.4 59.6 1009 #ff8500
4 EE-1 2018-05-29 14:46:16 38.9216 -77.0282 448 33.8 55.7 1008.9 #ff9100
4 EE-1 2018-05-29 15:00:47 38.9216 -77.0282 451.5 34.2 54.9 1008.8 #ff8300
4 EE-1 2018-05-29 15:15:18 38.9216 -77.0282 451.3 37.6 48.1 1008.7 #ff8400
4 EE-1 2018-05-29 15:29:49 38.9216 -77.0282 454 39.4 44.9 1008.5 #ff7900
4 EE-1 2018-05-29 15:44:20 38.9216 -77.0282 447.5 39.3 45.4 1008.4 #ff9300
4 EE-1 2018-05-29 15:58:51 38.9216 -77.0282 457 39.6 43.2 1008.3 #ff6d00
4 EE-1 2018-05-29 16:13:22 38.9216 -77.0282 451 36.3 48.5 1008.2 #ff8500
4 EE-1 2018-05-29 16:27:52 38.9216 -77.0282 455.8 37.2 47.2 1008.1 #ff7200
4 EE-1 2018-05-29 16:42:23 38.9216 -77.0282 447.8 36.7 48 1008.1 #ff9100
4 EE-1 2018-05-29 16:56:54 38.9216 -77.0282 448.3 36.9 47.7 1008.1 #ff8f00
4 EE-1 2018-05-29 17:11:25 38.9216 -77.0282 441.8 35.5 49.5 1008 #ffa900
4 EE-1 2018-05-29 17:25:56 38.9216 -77.0282 436.5 35.6 49.1 1008 #ffbe00
4 EE-1 2018-05-29 17:40:27 38.9216 -77.0282 443 37.9 45.5 1008 #ffa400
4 EE-1 2018-05-29 17:54:58 38.9216 -77.0282 447.5 38.8 43.7 1007.8 #ff9300
4 EE-1 2018-05-29 18:09:29 38.9216 -77.0282 432 36 46.3 1007.7 #ffcf00
4 EE-1 2018-05-29 18:24:00 38.9216 -77.0282 428.2 35.8 46.8 1007.8 #ffde00
4 EE-1 2018-05-29 18:38:30 38.9216 -77.0282 429 34.1 51.3 1008 #ffdb00
4 EE-1 2018-05-29 18:53:01 38.9216 -77.0282 431.5 33.2 53.6 1008.1 #ffd100
4 EE-1 2018-05-29 19:07:32 38.9216 -77.0282 430 32.6 54.9 1008.2 #ffd700
4 EE-1 2018-05-29 19:22:03 38.9216 -77.0282 430 32.1 57.6 1008.1 #ffd700
4 EE-1 2018-05-29 19:36:34 38.9216 -77.0282 424 31.5 59.8 1008.2 #ffef00
4 EE-1 2018-05-29 19:51:05 38.9216 -77.0282 427 31.1 63 1008.2 #ffe300
4 EE-1 2018-05-29 20:05:36 38.9216 -77.0282 424.7 30.7 66.2 1008.4 #ffec00
4 EE-1 2018-05-29 20:20:07 38.9216 -77.0282 426 30.1 68.7 1008.4 #ffe700
4 EE-1 2018-05-29 20:34:38 38.9216 -77.0282 430.8 29.6 69.8 1008.5 #ffd400
4 EE-1 2018-05-29 20:49:08 38.9216 -77.0282 435 29.2 71.6 1008.5 #ffc400
4 EE-1 2018-05-29 21:03:39 38.9216 -77.0282 434.8 28.9 73.7 1008.6 #ffc400
4 EE-1 2018-05-29 21:18:10 38.9216 -77.0282 437.8 28.5 74.2 1008.8 #ffb900
4 EE-1 2018-05-29 21:32:41 38.9216 -77.0282 439.8 28.4 73.5 1008.8 #ffb100
4 EE-1 2018-05-29 21:47:12 38.9216 -77.0282 441.8 28.1 73.3 1009.1 #ffa900
4 EE-1 2018-05-29 22:01:43 38.9216 -77.0282 442.2 27.8 75.7 1009.2 #ffa800
4 EE-1 2018-05-29 22:16:14 38.9216 -77.0282 441.3 27.7 74.8 1009.3 #ffab00
4 EE-1 2018-05-29 22:30:45 38.9216 -77.0282 442.2 27.2 76.3 1009.3 #ffa800
4 EE-1 2018-05-29 22:45:16 38.9216 -77.0282 446.2 27.2 76.2 1009.4 #ff9800
4 EE-1 2018-05-29 22:59:47 38.9216 -77.0282 444.2 27.1 78.1 1009.4 #ffa000
4 EE-1 2018-05-29 23:14:18 38.9216 -77.0282 440 26.4 81.2 1009.6 #ffb000
4 EE-1 2018-05-29 23:28:48 38.9216 -77.0282 444.3 25.9 83 1009.4 #ff9f00
4 EE-1 2018-05-29 23:43:19 38.9216 -77.0282 445.8 26.2 80.7 1009.5 #ff9900
4 EE-1 2018-05-29 23:57:50 38.9216 -77.0282 446.8 25.9 81.3 1009.3 #ff9500
4 EE-1 2018-06-01 00:00:48 38.9216 -77.0282 443 24.6 89.5 1005 #ffa400
4 EE-1 2018-06-01 00:15:19 38.9216 -77.0282 444 24.3 90.7 1004.8 #ffa000
4 EE-1 2018-06-01 00:29:50 38.9216 -77.0282 442.7 24.6 87.8 1004.5 #ffa600
4 EE-1 2018-06-01 00:44:20 38.9216 -77.0282 443 24.4 88.6 1004.2 #ffa400
4 EE-1 2018-06-01 00:58:51 38.9216 -77.0282 443 24.5 87.8 1004.1 #ffa400
4 EE-1 2018-06-01 01:13:22 38.9216 -77.0282 445.2 24.5 87.2 1003.8 #ff9c00
4 EE-1 2018-06-01 01:27:53 38.9216 -77.0282 443 23.9 90 1003.9 #ffa400
4 EE-1 2018-06-01 01:42:24 38.9216 -77.0282 448.3 23.7 92.2 1003.9 #ff8f00
4 EE-1 2018-06-01 01:56:55 38.9216 -77.0282 443 23.5 92.5 1003.9 #ffa400
4 EE-1 2018-06-01 02:11:26 38.9216 -77.0282 443 23.8 91.6 1003.7 #ffa400
4 EE-1 2018-06-01 02:25:57 38.9216 -77.0282 447.8 23.6 93 1003.5 #ff9100
4 EE-1 2018-06-01 02:40:27 38.9216 -77.0282 446 23.2 94.8 1003.5 #ff9900
4 EE-1 2018-06-01 02:54:58 38.9216 -77.0282 447 23.4 93.5 1003.3 #ff9500
4 EE-1 2018-06-01 03:09:29 38.9216 -77.0282 450.5 23.5 92.9 1003.3 #ff8700
4 EE-1 2018-06-01 03:24:00 38.9216 -77.0282 446.3 23.2 94.4 1003.1 #ff9700
4 EE-1 2018-06-01 03:38:31 38.9216 -77.0282 453.2 23.6 92.3 1003.1 #ff7c00
4 EE-1 2018-06-01 03:53:02 38.9216 -77.0282 452 23.9 90.5 1003 #ff8100
4 EE-1 2018-06-01 04:07:33 38.9216 -77.0282 450 23.8 90.5 1003 #ff8900
4 EE-1 2018-06-01 04:22:04 38.9216 -77.0282 450 23.5 91.9 1003.1 #ff8900
4 EE-1 2018-06-01 04:36:35 38.9216 -77.0282 446.7 23.2 92.7 1003 #ff9600
4 EE-1 2018-06-01 04:51:06 38.9216 -77.0282 447 23.4 91.9 1003.1 #ff9500
4 EE-1 2018-06-01 05:05:36 38.9216 -77.0282 448 23.3 92.5 1003.2 #ff9100
4 EE-1 2018-06-01 05:20:07 38.9216 -77.0282 449.5 24 89 1003.2 #ff8b00
4 EE-1 2018-06-01 05:34:38 38.9216 -77.0282 442 23.6 91.1 1003.3 #ffa800
4 EE-1 2018-06-01 05:49:09 38.9216 -77.0282 450.3 24 89.7 1003.4 #ff8800
4 EE-1 2018-06-01 06:03:40 38.9216 -77.0282 447.2 24.3 88.1 1003.5 #ff9400
4 EE-1 2018-06-01 06:18:11 38.9216 -77.0282 453 24.5 87.5 1003.5 #ff7d00
4 EE-1 2018-06-01 06:32:42 38.9216 -77.0282 450.2 24.6 87.3 1003.7 #ff8800
4 EE-1 2018-06-01 06:47:14 38.9216 -77.0282 451.5 25.2 84.7 1003.6 #ff8300
4 EE-1 2018-06-01 07:01:44 38.9216 -77.0282 453.5 24.9 85.5 1003.9 #ff7b00
4 EE-1 2018-06-01 07:16:16 38.9216 -77.0282 447 25.6 83.3 1004 #ff9500
4 EE-1 2018-06-01 07:30:47 38.9216 -77.0282 444.2 25.5 84.2 1004 #ffa000
4 EE-1 2018-06-01 07:45:19 38.9216 -77.0282 453.7 26.6 80.9 1004.1 #ff7a00
4 EE-1 2018-06-01 07:59:50 38.9216 -77.0282 453.3 27.8 78.4 1004.1 #ff7c00
4 EE-1 2018-06-01 08:14:21 38.9216 -77.0282 452 28.9 75.7 1004 #ff8100
4 EE-1 2018-06-01 08:28:52 38.9216 -77.0282 453.2 29.7 73.3 1004.1 #ff7c00
4 EE-1 2018-06-01 08:43:23 38.9216 -77.0282 456 32.8 66.4 1004.2 #ff7100
4 EE-1 2018-06-01 08:57:54 38.9216 -77.0282 455.3 36.3 60.1 1004 #ff7400
4 EE-1 2018-06-01 09:12:24 38.9216 -77.0282 454 35.7 56.7 1004 #ff7900
4 EE-1 2018-06-01 09:26:55 38.9216 -77.0282 451.5 34.8 57.3 1004 #ff8300
4 EE-1 2018-06-01 09:41:26 38.9216 -77.0282 449.8 36.7 54.1 1004.1 #ff8900
4 EE-1 2018-06-01 09:55:57 38.9216 -77.0282 440.3 34.8 51.5 1004.1 #ffaf00
4 EE-1 2018-06-01 10:10:28 38.9216 -77.0282 442.7 36.6 50.8 1004.2 #ffa600
4 EE-1 2018-06-01 10:24:59 38.9216 -77.0282 440.3 35.5 51.6 1004.1 #ffaf00
4 EE-1 2018-06-01 10:39:30 38.9216 -77.0282 432.7 35.1 50.3 1004.1 #ffcd00
4 EE-1 2018-06-01 10:54:01 38.9216 -77.0282 431 36.4 47 1004 #ffd300
4 EE-1 2018-06-01 11:08:32 38.9216 -77.0282 435.8 38.4 42.8 1003.8 #ffc000
4 EE-1 2018-06-01 11:23:03 38.9216 -77.0282 435.2 40.5 40.1 1003.8 #ffc300
4 EE-1 2018-06-01 11:37:34 38.9216 -77.0282 433 41.9 36.9 1003.7 #ffcc00
4 EE-1 2018-06-01 11:52:04 38.9216 -77.0282 428.3 38.9 39.9 1003.4 #ffde00
4 EE-1 2018-06-01 12:06:35 38.9216 -77.0282 432.3 39.9 40.5 1003.3 #ffce00
4 EE-1 2018-06-01 12:21:06 38.9216 -77.0282 428.2 39.8 38.6 1003.2 #ffde00
4 EE-1 2018-06-01 12:35:37 38.9216 -77.0282 427.3 41.2 36.5 1003.1 #ffe200
4 EE-1 2018-06-01 12:50:08 38.9216 -77.0282 437.8 44.2 33.3 1003 #ffb900
4 EE-1 2018-06-01 13:04:39 38.9216 -77.0282 428 40.7 37.3 1002.9 #ffdf00
4 EE-1 2018-06-01 13:19:10 38.9216 -77.0282 429 41.8 36.4 1002.6 #ffdb00
4 EE-1 2018-06-01 13:33:41 38.9216 -77.0282 432 43.1 35.2 1002.5 #ffcf00
4 EE-1 2018-06-01 13:48:12 38.9216 -77.0282 431 44.9 33.5 1002.2 #ffd300
4 EE-1 2018-06-01 14:02:43 38.9216 -77.0282 427.2 44.5 33.5 1002.2 #ffe200
4 EE-1 2018-06-01 14:17:14 38.9216 -77.0282 424 40.2 38.3 1002.1 #ffef00
4 EE-1 2018-06-01 14:31:45 38.9216 -77.0282 427.2 41.8 36.8 1001.9 #ffe200
4 EE-1 2018-06-01 14:46:15 38.9216 -77.0282 430 44.1 35.2 1001.8 #ffd700
4 EE-1 2018-06-01 15:00:46 38.9216 -77.0282 428.7 42.3 35.6 1001.6 #ffdc00
4 EE-1 2018-06-01 15:15:17 38.9216 -77.0282 426.8 42.7 35.1 1001.4 #ffe400
4 EE-1 2018-06-01 15:29:48 38.9216 -77.0282 425.8 43.5 33.9 1001.2 #ffe800
4 EE-1 2018-06-01 15:44:19 38.9216 -77.0282 425.5 42.2 35.6 1000.9 #ffe900
4 EE-1 2018-06-01 15:58:50 38.9216 -77.0282 423 43.9 34.1 1000.9 #fff300
4 EE-1 2018-06-01 16:13:21 38.9216 -77.0282 424 44.7 33.9 1000.7 #ffef00
4 EE-1 2018-06-01 16:27:52 38.9216 -77.0282 427.7 45.9 31.7 1000.5 #ffe000
4 EE-1 2018-06-01 16:42:23 38.9216 -77.0282 427.8 44.3 33.7 1000.3 #ffe000
4 EE-1 2018-06-01 16:56:54 38.9216 -77.0282 426 43.9 34.2 1000.2 #ffe700
4 EE-1 2018-06-01 17:11:25 38.9216 -77.0282 423.2 39.9 39 1000 #fff200
4 EE-1 2018-06-01 17:25:57 38.9216 -77.0282 428.3 42.8 35.8 1000 #ffde00
4 EE-1 2018-06-01 17:40:27 38.9216 -77.0282 425.2 40.5 38.7 999.9 #ffea00
4 EE-1 2018-06-01 17:54:58 38.9216 -77.0282 427.3 42 36.5 999.7 #ffe200
4 EE-1 2018-06-01 18:09:29 38.9216 -77.0282 429.3 44.3 34.3 999.6 #ffda00
4 EE-1 2018-06-01 18:24:00 38.9216 -77.0282 429 44 34.3 999.5 #ffdb00
4 EE-1 2018-06-01 18:38:31 38.9216 -77.0282 428.8 42.9 35.4 999.5 #ffdc00
4 EE-1 2018-06-01 18:53:01 38.9216 -77.0282 432.7 40.6 38.8 999.7 #ffcd00
4 EE-1 2018-06-01 19:07:32 38.9216 -77.0282 432 37.5 44.8 999.6 #ffcf00
4 EE-1 2018-06-01 19:22:03 38.9216 -77.0282 434.5 34.4 52 999.7 #ffc600
4 EE-1 2018-06-01 19:36:34 38.9216 -77.0282 435.7 33.5 54.3 999.8 #ffc100
4 EE-1 2018-06-01 19:51:05 38.9216 -77.0282 438 33.4 55 999.9 #ffb800
4 EE-1 2018-06-01 20:05:35 38.9216 -77.0282 433 32.5 57.7 1000.1 #ffcc00
4 EE-1 2018-06-01 20:20:06 38.9216 -77.0282 435 32.4 57.5 1000.4 #ffc400
4 EE-1 2018-06-01 20:34:37 38.9216 -77.0282 439.7 31.8 58.8 1000.4 #ffb100
4 EE-1 2018-06-01 20:49:08 38.9216 -77.0282 435.2 31.6 59.4 1000.3 #ffc300
4 EE-1 2018-06-01 21:03:39 38.9216 -77.0282 441.5 31.8 59 1000.4 #ffaa00
4 EE-1 2018-06-01 21:18:10 38.9216 -77.0282 437.3 31.2 60.9 1000.5 #ffbb00
4 EE-1 2018-06-01 21:32:41 38.9216 -77.0282 442 31.5 59.8 1000.5 #ffa800
4 EE-1 2018-06-01 21:47:12 38.9216 -77.0282 439.5 31.2 61.2 1000.8 #ffb200
4 EE-1 2018-06-01 22:01:42 38.9216 -77.0282 443 31.1 61.5 1000.8 #ffa400
4 EE-1 2018-06-01 22:16:13 38.9216 -77.0282 447.8 31.3 60.8 1000.8 #ff9100
4 EE-1 2018-06-01 22:30:44 38.9216 -77.0282 447 30.3 64.4 1001 #ff9500
4 EE-1 2018-06-01 22:45:15 38.9216 -77.0282 445.3 29.6 63.9 1001.2 #ff9b00
4 EE-1 2018-06-01 22:59:46 38.9216 -77.0282 442.5 30.3 61.8 1001.3 #ffa600
4 EE-1 2018-06-01 23:14:17 38.9216 -77.0282 444 29.5 65.1 1001.4 #ffa000
4 EE-1 2018-06-01 23:28:47 38.9216 -77.0282 437 29.7 61.5 1001.5 #ffbc00
4 EE-1 2018-06-01 23:43:18 38.9216 -77.0282 433.3 29.4 61.7 1001.5 #ffca00
4 EE-1 2018-06-01 23:57:49 38.9216 -77.0282 430.7 28.7 64.1 1001.4 #ffd500
4 EE-1 2018-06-03 00:00:50 38.9216 -77.0282 459.2 25.9 79.7 1001.8 #ff6500
4 EE-1 2018-06-03 00:15:20 38.9216 -77.0282 464 25.9 80.2 1001.8 #ff5200
4 EE-1 2018-06-03 00:29:51 38.9216 -77.0282 467 26 79.9 1001.9 #ff4600
4 EE-1 2018-06-03 00:44:22 38.9216 -77.0282 465.7 26 80.2 1001.9 #ff4b00
4 EE-1 2018-06-03 00:58:53 38.9216 -77.0282 465.7 25.9 80.6 1002 #ff4b00
4 EE-1 2018-06-03 01:13:24 38.9216 -77.0282 465.7 25.7 81.2 1001.9 #ff4b00
4 EE-1 2018-06-03 01:27:54 38.9216 -77.0282 464.3 25.6 82.4 1001.8 #ff5100
4 EE-1 2018-06-03 01:42:25 38.9216 -77.0282 467.5 25.3 83.2 1001.8 #ff4400
4 EE-1 2018-06-03 01:56:56 38.9216 -77.0282 463.2 25.3 83.8 1001.6 #ff5500
4 EE-1 2018-06-03 02:11:27 38.9216 -77.0282 461.5 25.4 83.4 1001.7 #ff5c00
4 EE-1 2018-06-03 02:25:57 38.9216 -77.0282 460.2 25.3 83.6 1001.7 #ff6100
4 EE-1 2018-06-03 02:40:28 38.9216 -77.0282 459.2 25.1 84.7 1001.7 #ff6500
4 EE-1 2018-06-03 02:54:59 38.9216 -77.0282 458.3 25.3 83.7 1001.6 #ff6800
4 EE-1 2018-06-03 03:09:30 38.9216 -77.0282 458.7 25.3 84.3 1001.6 #ff6700
4 EE-1 2018-06-03 03:24:00 38.9216 -77.0282 457.2 25.5 83.3 1001.6 #ff6d00
4 EE-1 2018-06-03 03:38:31 38.9216 -77.0282 456.5 25.5 83.8 1001.5 #ff6f00
4 EE-1 2018-06-03 03:53:02 38.9216 -77.0282 457.2 25.6 83.6 1001.6 #ff6d00
4 EE-1 2018-06-03 04:07:33 38.9216 -77.0282 455.8 25.3 84.4 1001.6 #ff7200
4 EE-1 2018-06-03 04:22:04 38.9216 -77.0282 452 25.2 84.2 1001.7 #ff8100
4 EE-1 2018-06-03 04:36:35 38.9216 -77.0282 452.3 25.2 84.1 1001.5 #ff8000
4 EE-1 2018-06-03 04:51:06 38.9216 -77.0282 452 25.2 84.1 1001.5 #ff8100
4 EE-1 2018-06-03 05:05:37 38.9216 -77.0282 456 24.9 84.8 1001.5 #ff7100
4 EE-1 2018-06-03 05:20:08 38.9216 -77.0282 462.5 24.8 85.5 1001.5 #ff5800
4 EE-1 2018-06-03 05:34:39 38.9216 -77.0282 459 25 85 1001.5 #ff6600
4 EE-1 2018-06-03 05:49:09 38.9216 -77.0282 455 25.2 84.3 1001.7 #ff7500
4 EE-1 2018-06-03 06:03:40 38.9216 -77.0282 453.8 25.2 83.8 1001.8 #ff7a00
4 EE-1 2018-06-03 06:18:11 38.9216 -77.0282 450 25.2 82.9 1002 #ff8900
4 EE-1 2018-06-03 06:32:42 38.9216 -77.0282 452.2 25.2 83 1002 #ff8000
4 EE-1 2018-06-03 06:47:13 38.9216 -77.0282 453 25.5 81.7 1002.2 #ff7d00
4 EE-1 2018-06-03 07:01:44 38.9216 -77.0282 446.8 25.3 81.5 1002.4 #ff9500
4 EE-1 2018-06-03 07:16:15 38.9216 -77.0282 447.8 25.1 82 1002.6 #ff9100
4 EE-1 2018-06-03 07:30:46 38.9216 -77.0282 446.3 25.1 82.5 1002.8 #ff9700
4 EE-1 2018-06-03 07:45:17 38.9216 -77.0282 453 24.3 85.3 1002.9 #ff7d00
4 EE-1 2018-06-03 07:59:48 38.9216 -77.0282 451.8 24 85.4 1002.9 #ff8200
4 EE-1 2018-06-03 08:14:19 38.9216 -77.0282 451 23.4 87.3 1003 #ff8500
4 EE-1 2018-06-03 08:28:50 38.9216 -77.0282 452.2 23 87.4 1003.1 #ff8000
4 EE-1 2018-06-03 08:43:21 38.9216 -77.0282 449.7 22.3 89.9 1003.4 #ff8a00
4 EE-1 2018-06-03 08:57:52 38.9216 -77.0282 443 22.2 88.1 1003.4 #ffa400
4 EE-1 2018-06-03 09:12:23 38.9216 -77.0282 442.5 21.7 88.4 1003.5 #ffa600
4 EE-1 2018-06-03 09:26:54 38.9216 -77.0282 436.5 21.2 88.7 1003.6 #ffbe00
4 EE-1 2018-06-03 09:41:25 38.9216 -77.0282 437.7 21 89.4 1003.8 #ffb900
4 EE-1 2018-06-03 09:55:56 38.9216 -77.0282 431.8 20.5 87.1 1004.2 #ffd000
4 EE-1 2018-06-03 10:10:27 38.9216 -77.0282 429 20 88 1004.4 #ffdb00
4 EE-1 2018-06-03 10:24:57 38.9216 -77.0282 430 20 87 1004.3 #ffd700
4 EE-1 2018-06-03 10:39:28 38.9216 -77.0282 429.2 20 86.1 1004.6 #ffdb00
4 EE-1 2018-06-03 10:53:59 38.9216 -77.0282 428.7 19.8 86 1004.5 #ffdc00
4 EE-1 2018-06-03 11:08:30 38.9216 -77.0282 426.8 19.5 85.3 1004.5 #ffe400
4 EE-1 2018-06-03 11:23:01 38.9216 -77.0282 430.5 19.1 87.8 1004.6 #ffd500
4 EE-1 2018-06-03 11:37:32 38.9216 -77.0282 427.5 18.7 88.8 1004.5 #ffe100
4 EE-1 2018-06-03 11:52:03 38.9216 -77.0282 427 18.7 88.2 1004.8 #ffe300
4 EE-1 2018-06-03 12:06:33 38.9216 -77.0282 427.8 18.6 88.5 1005.2 #ffe000
4 EE-1 2018-06-03 12:21:04 38.9216 -77.0282 426 18.4 88.4 1005.2 #ffe700
4 EE-1 2018-06-03 12:35:35 38.9216 -77.0282 429.2 18.6 87.9 1005.2 #ffdb00
4 EE-1 2018-06-03 12:50:06 38.9216 -77.0282 425 18.7 87 1005.5 #ffeb00
4 EE-1 2018-06-03 13:04:36 38.9216 -77.0282 428 18.6 87.3 1005.5 #ffdf00
4 EE-1 2018-06-03 13:19:07 38.9216 -77.0282 424 18.3 88.8 1005.5 #ffef00
4 EE-1 2018-06-03 13:33:38 38.9216 -77.0282 423 18.2 89 1005.4 #fff300
4 EE-1 2018-06-03 13:48:09 38.9216 -77.0282 425 18.4 88.4 1005.4 #ffeb00
4 EE-1 2018-06-03 14:02:39 38.9216 -77.0282 422.8 18.4 87.6 1005.2 #fff300
4 EE-1 2018-06-03 14:17:10 38.9216 -77.0282 426.3 18.2 88.4 1005.2 #ffe600
4 EE-1 2018-06-03 14:31:41 38.9216 -77.0282 423.8 18.5 87.6 1005.2 #ffef00
4 EE-1 2018-06-03 14:46:12 38.9216 -77.0282 424.7 18.3 88 1005.2 #ffec00
4 EE-1 2018-06-03 15:00:43 38.9216 -77.0282 423 18.1 88.1 1005.2 #fff300
4 EE-1 2018-06-03 15:15:13 38.9216 -77.0282 425.7 17.6 89.4 1005.1 #ffe800
4 EE-1 2018-06-03 15:29:44 38.9216 -77.0282 423 17.5 88.7 1005.3 #fff300
4 EE-1 2018-06-03 15:44:15 38.9216 -77.0282 421.5 17.5 88.6 1005.3 #fff900
4 EE-1 2018-06-03 15:58:45 38.9216 -77.0282 423.3 17.4 88.5 1005.3 #fff100
4 EE-1 2018-06-03 16:13:16 38.9216 -77.0282 422.3 17.6 88 1005.3 #fff500
4 EE-1 2018-06-03 16:27:47 38.9216 -77.0282 422.5 17.7 88.2 1005.3 #fff500
4 EE-1 2018-06-03 16:42:18 38.9216 -77.0282 420.3 17.7 87.8 1005.1 #fffd00
4 EE-1 2018-06-03 16:56:49 38.9216 -77.0282 423 17.7 87.8 1005.1 #fff300
4 EE-1 2018-06-03 17:11:19 38.9216 -77.0282 421 17.5 87.9 1005.2 #fffb00
4 EE-1 2018-06-03 17:25:50 38.9216 -77.0282 423.5 17.3 87.7 1005.1 #fff100
4 EE-1 2018-06-03 17:40:21 38.9216 -77.0282 422.2 17.2 88.1 1005.1 #fff600
4 EE-1 2018-06-03 17:54:52 38.9216 -77.0282 422.3 17.1 87.7 1004.9 #fff500
4 EE-1 2018-06-03 18:09:23 38.9216 -77.0282 423 16.8 89.1 1004.8 #fff300
4 EE-1 2018-06-03 18:23:53 38.9216 -77.0282 423 17.1 88.3 1004.7 #fff300
4 EE-1 2018-06-03 18:38:24 38.9216 -77.0282 428.5 17.2 87.8 1004.8 #ffdd00
4 EE-1 2018-06-03 18:52:55 38.9216 -77.0282 423.7 17.1 87.7 1004.8 #fff000
4 EE-1 2018-06-03 19:07:26 38.9216 -77.0282 429.7 17 88 1005.1 #ffd900
4 EE-1 2018-06-03 19:21:56 38.9216 -77.0282 426.5 16.9 89 1005.2 #ffe500
4 EE-1 2018-06-03 19:36:27 38.9216 -77.0282 428 16.8 89.1 1005.2 #ffdf00
4 EE-1 2018-06-03 19:50:58 38.9216 -77.0282 426.5 16.8 88.3 1005.3 #ffe500
4 EE-1 2018-06-03 20:05:29 38.9216 -77.0282 428 16.5 88.7 1005.3 #ffdf00
4 EE-1 2018-06-03 20:20:00 38.9216 -77.0282 430.5 16.5 88.7 1005.3 #ffd500
4 EE-1 2018-06-03 20:34:30 38.9216 -77.0282 433.3 16.6 88.7 1004.6 #ffca00
4 EE-1 2018-06-03 20:49:01 38.9216 -77.0282 433.3 16.4 89 1004.7 #ffca00
4 EE-1 2018-06-03 21:03:32 38.9216 -77.0282 432 16.7 88.2 1005 #ffcf00
4 EE-1 2018-06-03 21:18:03 38.9216 -77.0282 433.8 16.6 88 1005.3 #ffc800
4 EE-1 2018-06-03 21:32:34 38.9216 -77.0282 434 16.8 87.2 1005.3 #ffc800
4 EE-1 2018-06-03 21:47:05 38.9216 -77.0282 438.5 16.7 87.5 1005.1 #ffb600
4 EE-1 2018-06-03 22:01:35 38.9216 -77.0282 431.8 16.5 87.5 1005.1 #ffd000
4 EE-1 2018-06-03 22:16:06 38.9216 -77.0282 432.7 16.6 86.9 1005.1 #ffcd00
4 EE-1 2018-06-03 22:30:37 38.9216 -77.0282 434 16.5 86.9 1005 #ffc800
4 EE-1 2018-06-03 22:45:08 38.9216 -77.0282 433 16.6 86.7 1005.1 #ffcc00
4 EE-1 2018-06-03 22:59:39 38.9216 -77.0282 432 16.3 86.6 1004.9 #ffcf00
4 EE-1 2018-06-03 23:14:10 38.9216 -77.0282 432 16.3 86.4 1004.9 #ffcf00
4 EE-1 2018-06-03 23:28:41 38.9216 -77.0282 432 16.5 85.6 1004.6 #ffcf00
4 EE-1 2018-06-03 23:43:12 38.9216 -77.0282 432 16.5 85.2 1004.8 #ffcf00
4 EE-1 2018-06-03 23:57:43 38.9216 -77.0282 430 16.6 84.8 1004.6 #ffd700
4 EE-1 2018-06-04 00:00:50 38.9216 -77.0282 432 16.6 84.9 1004.5 #ffcf00
4 EE-1 2018-06-04 00:15:21 38.9216 -77.0282 432.7 16.7 84.6 1004.9 #ffcd00
4 EE-1 2018-06-04 00:29:52 38.9216 -77.0282 432 16.8 84.2 1005.1 #ffcf00
4 EE-1 2018-06-04 00:44:23 38.9216 -77.0282 435 16.6 85.1 1004.8 #ffc400
4 EE-1 2018-06-04 00:58:54 38.9216 -77.0282 435.5 16.5 85.8 1004.9 #ffc200
4 EE-1 2018-06-04 01:13:25 38.9216 -77.0282 436.3 16.5 85.6 1004.8 #ffbe00
4 EE-1 2018-06-04 01:27:56 38.9216 -77.0282 434 16.6 85.3 1004.9 #ffc800
4 EE-1 2018-06-04 01:42:26 38.9216 -77.0282 435.5 16.5 85.5 1004.7 #ffc200
4 EE-1 2018-06-04 01:56:57 38.9216 -77.0282 432 16.5 85.2 1004.5 #ffcf00
4 EE-1 2018-06-04 02:11:28 38.9216 -77.0282 433.2 16.6 85.1 1004.3 #ffcb00
4 EE-1 2018-06-04 02:25:59 38.9216 -77.0282 431.5 16.5 84.8 1004 #ffd100
4 EE-1 2018-06-04 02:40:30 38.9216 -77.0282 435.3 16.3 84.7 1004 #ffc200
4 EE-1 2018-06-04 02:55:01 38.9216 -77.0282 434 16 85.2 1004 #ffc800
4 EE-1 2018-06-04 03:09:32 38.9216 -77.0282 436 16.4 84.7 1004.1 #ffc000
4 EE-1 2018-06-04 03:24:03 38.9216 -77.0282 434 16.4 84.6 1003.9 #ffc800
4 EE-1 2018-06-04 03:38:34 38.9216 -77.0282 432 16.2 84.9 1003.8 #ffcf00
4 EE-1 2018-06-04 03:53:05 38.9216 -77.0282 433.8 16.5 84.3 1004 #ffc800
4 EE-1 2018-06-04 04:07:36 38.9216 -77.0282 430.5 16.7 83.3 1004.2 #ffd500
4 EE-1 2018-06-04 04:22:06 38.9216 -77.0282 430.7 16.5 83.5 1004.2 #ffd500
4 EE-1 2018-06-04 04:36:37 38.9216 -77.0282 433.5 16.4 83.5 1004.1 #ffca00
4 EE-1 2018-06-04 04:51:08 38.9216 -77.0282 435 16 84.6 1004.2 #ffc400
4 EE-1 2018-06-04 05:05:39 38.9216 -77.0282 437 15.8 84.8 1004.1 #ffbc00
4 EE-1 2018-06-04 05:20:10 38.9216 -77.0282 435.8 15.7 85.3 1004.1 #ffc000
4 EE-1 2018-06-04 05:34:46 38.9216 -77.0282 434 15.7 85.4 1004.1 #ffc800
4 EE-1 2018-06-04 05:49:17 38.9216 -77.0282 438.2 15.7 85.2 1004.2 #ffb700
4 EE-1 2018-06-04 06:03:48 38.9216 -77.0282 438 15.8 85.4 1004.2 #ffb800
4 EE-1 2018-06-04 06:18:19 38.9216 -77.0282 442.7 16.3 84.4 1004.1 #ffa600
4 EE-1 2018-06-04 06:32:49 38.9216 -77.0282 447.5 17 82.9 1004.2 #ff9300
4 EE-1 2018-06-04 06:47:20 38.9216 -77.0282 442 17.5 81.8 1004.2 #ffa800
4 EE-1 2018-06-04 07:01:51 38.9216 -77.0282 443.3 18 80.9 1004.1 #ffa300
4 EE-1 2018-06-04 07:16:22 38.9216 -77.0282 447 18.6 79.7 1004 #ff9500
4 EE-1 2018-06-04 07:30:53 38.9216 -77.0282 448.8 19.1 78.7 1004.2 #ff8d00
4 EE-1 2018-06-04 07:45:24 38.9216 -77.0282 441.8 19.3 78.4 1004.2 #ffa900
4 EE-1 2018-06-04 07:59:55 38.9216 -77.0282 443.2 19.3 78.4 1004.2 #ffa400
4 EE-1 2018-06-04 08:14:26 38.9216 -77.0282 446 19.1 78.2 1004.4 #ff9900
4 EE-1 2018-06-04 08:28:57 38.9216 -77.0282 443 18.9 78.9 1004.4 #ffa400
4 EE-1 2018-06-04 08:43:28 38.9216 -77.0282 443.5 19.3 78.3 1004.5 #ffa200
4 EE-1 2018-06-04 08:57:59 38.9216 -77.0282 442 18.6 80 1004.6 #ffa800
4 EE-1 2018-06-04 09:12:30 38.9216 -77.0282 440 19.5 78.5 1004.5 #ffb000
4 EE-1 2018-06-04 09:27:01 38.9216 -77.0282 442 19.5 77.9 1004.2 #ffa800
4 EE-1 2018-06-04 09:41:32 38.9216 -77.0282 439 19.7 77 1004.1 #ffb400
4 EE-1 2018-06-04 09:56:03 38.9216 -77.0282 440 20.8 75.6 1004.1 #ffb000
4 EE-1 2018-06-04 10:10:34 38.9216 -77.0282 439.2 21.9 72.7 1003.9 #ffb300
4 EE-1 2018-06-04 10:25:05 38.9216 -77.0282 437.5 22.9 69.9 1003.9 #ffba00
4 EE-1 2018-06-04 10:39:36 38.9216 -77.0282 436.2 25.2 66.2 1003.7 #ffbf00
4 EE-1 2018-06-04 10:54:07 38.9216 -77.0282 433 28.2 59.9 1003.7 #ffcc00
4 EE-1 2018-06-04 11:08:38 38.9216 -77.0282 430 26.9 57.1 1003.6 #ffd700
4 EE-1 2018-06-04 11:23:08 38.9216 -77.0282 426 24 64.1 1003.6 #ffe700
4 EE-1 2018-06-04 11:37:39 38.9216 -77.0282 425 23.2 66.5 1003.5 #ffeb00
4 EE-1 2018-06-04 11:52:10 38.9216 -77.0282 422.8 24.8 63.4 1003.4 #fff300
4 EE-1 2018-06-04 12:06:41 38.9216 -77.0282 427.2 28.3 55.1 1003.3 #ffe200
4 EE-1 2018-06-04 12:21:12 38.9216 -77.0282 424 30.5 53.1 1003 #ffef00
4 EE-1 2018-06-04 12:35:43 38.9216 -77.0282 420.7 32.2 48 1003 #fffc00
4 EE-1 2018-06-04 12:50:14 38.9216 -77.0282 421.2 32.6 46.8 1002.6 #fffa00
4 EE-1 2018-06-04 13:04:45 38.9216 -77.0282 417 32.6 46.5 1002.5 #f4ff00
4 EE-1 2018-06-04 13:19:16 38.9216 -77.0282 420.5 33.9 42.7 1002.4 #fffd00
4 EE-1 2018-06-04 13:33:47 38.9216 -77.0282 418 30.3 47.7 1002.2 #f7ff00
4 EE-1 2018-06-04 13:48:17 38.9216 -77.0282 415.8 30.3 47.4 1002.2 #efff00
4 EE-1 2018-06-04 14:02:48 38.9216 -77.0282 422 35 42.6 1002 #fff700
4 EE-1 2018-06-04 14:17:20 38.9216 -77.0282 422.3 34 40.8 1001.7 #fff500
4 EE-1 2018-06-04 14:31:51 38.9216 -77.0282 418 34.3 41.6 1001.6 #f7ff00
4 EE-1 2018-06-04 14:46:22 38.9216 -77.0282 415.3 34 41.1 1001.3 #edff00
4 EE-1 2018-06-04 15:00:52 38.9216 -77.0282 417 33.8 41.8 1001.2 #f4ff00
4 EE-1 2018-06-04 15:15:23 38.9216 -77.0282 418.7 32.8 41.3 1001 #faff00
4 EE-1 2018-06-04 15:29:54 38.9216 -77.0282 417.5 33.1 41.8 1000.8 #f5ff00
4 EE-1 2018-06-04 15:44:25 38.9216 -77.0282 414 35.1 38.9 1000.7 #e9ff00
4 EE-1 2018-06-04 15:58:56 38.9216 -77.0282 416.8 32.4 41.2 1000.7 #f3ff00
4 EE-1 2018-06-04 16:13:26 38.9216 -77.0282 419.8 36.6 35.6 1000.5 #feff00
4 EE-1 2018-06-04 16:27:57 38.9216 -77.0282 421.3 38 32.2 1000.6 #fff900
4 EE-1 2018-06-04 16:42:28 38.9216 -77.0282 419.5 39.3 30.5 1000.6 #fdff00
4 EE-1 2018-06-04 16:56:59 38.9216 -77.0282 417 36.6 32.3 1000.5 #f4ff00
4 EE-1 2018-06-04 17:11:30 38.9216 -77.0282 416.7 34.6 34.4 1000.6 #f2ff00
4 EE-1 2018-06-04 17:26:01 38.9216 -77.0282 417.8 33.6 34.7 1000.5 #f7ff00
4 EE-1 2018-06-04 17:40:31 38.9216 -77.0282 417 33.8 34.4 1000.6 #f4ff00
4 EE-1 2018-06-04 17:55:02 38.9216 -77.0282 418 36.3 32 1000.6 #f7ff00
4 EE-1 2018-06-04 18:09:33 38.9216 -77.0282 420.8 37.8 31.8 1000.7 #fffb00
4 EE-1 2018-06-04 18:24:04 38.9216 -77.0282 418 37.7 30.1 1000.5 #f7ff00
4 EE-1 2018-06-04 18:38:35 38.9216 -77.0282 419.5 36.7 31.2 1000.6 #fdff00
4 EE-1 2018-06-04 18:53:05 38.9216 -77.0282 417.2 35.1 32.2 1000.8 #f4ff00
4 EE-1 2018-06-04 19:07:36 38.9216 -77.0282 419 33.2 34.5 1000.9 #fbff00
4 EE-1 2018-06-04 19:22:07 38.9216 -77.0282 421 30.6 38.5 1001.1 #fffb00
4 EE-1 2018-06-04 19:36:38 38.9216 -77.0282 419.5 29.5 40.5 1001.1 #fdff00
4 EE-1 2018-06-04 19:51:10 38.9216 -77.0282 424 28.7 42 1001.1 #ffef00
4 EE-1 2018-06-04 20:05:41 38.9216 -77.0282 424 27.8 43.5 1001.3 #ffef00
4 EE-1 2018-06-04 20:20:12 38.9216 -77.0282 424.3 27.2 44.9 1001.4 #ffee00
4 EE-1 2018-06-04 20:34:43 38.9216 -77.0282 426.5 26.2 47.4 1001.5 #ffe500
4 EE-1 2018-06-04 20:49:14 38.9216 -77.0282 425.8 25.7 49.1 1001.7 #ffe800
4 EE-1 2018-06-04 21:03:45 38.9216 -77.0282 428 25.1 50.8 1001.8 #ffdf00
4 EE-1 2018-06-04 21:18:16 38.9216 -77.0282 426 24.7 52.2 1002.1 #ffe700
4 EE-1 2018-06-04 21:32:47 38.9216 -77.0282 428.8 24.2 53.5 1002.2 #ffdc00
4 EE-1 2018-06-04 21:47:18 38.9216 -77.0282 423 23.7 54.8 1002.5 #fff300
4 EE-1 2018-06-04 22:01:49 38.9216 -77.0282 430 23.5 56.2 1002.7 #ffd700
4 EE-1 2018-06-04 22:16:20 38.9216 -77.0282 434.5 23.3 56.6 1002.8 #ffc600
4 EE-1 2018-06-04 22:30:51 38.9216 -77.0282 431.3 22.9 56.9 1002.9 #ffd200
4 EE-1 2018-06-04 22:45:22 38.9216 -77.0282 431.3 22.7 57.2 1002.8 #ffd200
4 EE-1 2018-06-04 22:59:53 38.9216 -77.0282 433 22.7 57.5 1002.8 #ffcc00
4 EE-1 2018-06-04 23:14:24 38.9216 -77.0282 432 22.7 57.2 1002.7 #ffcf00
4 EE-1 2018-06-04 23:28:55 38.9216 -77.0282 432.2 22.2 58 1002.6 #ffcf00
4 EE-1 2018-06-04 23:43:25 38.9216 -77.0282 431 22.2 58.1 1002.8 #ffd300
4 EE-1 2018-06-04 23:57:56 38.9216 -77.0282 434 22.2 57.7 1002.7 #ffc800
4 EE-1 2018-06-07 00:00:52 38.9216 -77.0282 435 22.5 55.2 1009 #ffc400
4 EE-1 2018-06-07 00:15:23 38.9216 -77.0282 437.8 22.4 55.5 1008.9 #ffb900
4 EE-1 2018-06-07 00:29:54 38.9216 -77.0282 438.2 22.1 55.5 1008.9 #ffb700
4 EE-1 2018-06-07 00:44:25 38.9216 -77.0282 436.3 21.9 56.3 1008.9 #ffbe00
4 EE-1 2018-06-07 00:58:55 38.9216 -77.0282 434.5 21.7 56.2 1008.7 #ffc600
4 EE-1 2018-06-07 01:13:26 38.9216 -77.0282 432.7 21.6 56.4 1008.9 #ffcd00
4 EE-1 2018-06-07 01:27:57 38.9216 -77.0282 435.3 21.4 56.6 1008.9 #ffc200
4 EE-1 2018-06-07 01:42:28 38.9216 -77.0282 439 21.2 56.8 1009.1 #ffb400
4 EE-1 2018-06-07 01:56:59 38.9216 -77.0282 439.3 20.7 57.7 1009.1 #ffb300
4 EE-1 2018-06-07 02:11:29 38.9216 -77.0282 441 20.4 58.1 1009.1 #ffac00
4 EE-1 2018-06-07 02:26:00 38.9216 -77.0282 443 20.1 59.2 1009.3 #ffa400
4 EE-1 2018-06-07 02:40:31 38.9216 -77.0282 441 20 59.9 1009.3 #ffac00
4 EE-1 2018-06-07 02:55:02 38.9216 -77.0282 442 19.6 59.8 1009.4 #ffa800
4 EE-1 2018-06-07 03:09:32 38.9216 -77.0282 443.2 19.3 61 1009.5 #ffa400
4 EE-1 2018-06-07 03:24:03 38.9216 -77.0282 445.3 19 61.4 1009.4 #ff9b00
4 EE-1 2018-06-07 03:38:34 38.9216 -77.0282 445.8 18.7 63.4 1009.6 #ff9900
4 EE-1 2018-06-07 03:53:05 38.9216 -77.0282 450 19.2 63.9 1009.8 #ff8900
4 EE-1 2018-06-07 04:07:36 38.9216 -77.0282 461 19.7 62.8 1010.1 #ff5e00
4 EE-1 2018-06-07 04:22:07 38.9216 -77.0282 465 19.9 63.2 1010 #ff4e00
4 EE-1 2018-06-07 04:36:37 38.9216 -77.0282 467.7 19.9 62.6 1010 #ff4300
4 EE-1 2018-06-07 04:51:08 38.9216 -77.0282 467 20 63.2 1010.1 #ff4600
4 EE-1 2018-06-07 05:05:39 38.9216 -77.0282 466 20.1 62.9 1010.2 #ff4a00
4 EE-1 2018-06-07 05:20:10 38.9216 -77.0282 462 20.1 63.5 1010.3 #ff5a00
4 EE-1 2018-06-07 05:34:41 38.9216 -77.0282 460 20.3 63.2 1010.5 #ff6200
4 EE-1 2018-06-07 05:49:12 38.9216 -77.0282 462 20.1 64 1010.7 #ff5a00
4 EE-1 2018-06-07 06:03:43 38.9216 -77.0282 469 19.6 67.2 1011 #ff3e00
4 EE-1 2018-06-07 06:18:14 38.9216 -77.0282 475.2 19.8 67.5 1010.9 #ff2600
4 EE-1 2018-06-07 06:32:45 38.9216 -77.0282 473.3 20.1 65.9 1011.1 #ff2d00
4 EE-1 2018-06-07 06:47:16 38.9216 -77.0282 477.7 20.4 67 1011.3 #ff1c00
4 EE-1 2018-06-07 07:01:47 38.9216 -77.0282 476.2 21 65.4 1011.3 #ff2200
4 EE-1 2018-06-07 07:16:18 38.9216 -77.0282 468.8 21.8 63.1 1011.3 #ff3f00
4 EE-1 2018-06-07 07:30:48 38.9216 -77.0282 468.2 22.5 61.4 1011.5 #ff4200
4 EE-1 2018-06-07 07:45:19 38.9216 -77.0282 472.2 23 60.5 1011.7 #ff3200
4 EE-1 2018-06-07 07:59:51 38.9216 -77.0282 470 23.6 59.3 1011.9 #ff3a00
4 EE-1 2018-06-07 08:14:22 38.9216 -77.0282 466.8 24.5 57.7 1012.1 #ff4700
4 EE-1 2018-06-07 08:28:52 38.9216 -77.0282 463.7 25.2 55.2 1012.1 #ff5300
4 EE-1 2018-06-07 08:43:23 38.9216 -77.0282 455 26.7 51.7 1012.3 #ff7500
4 EE-1 2018-06-07 08:57:54 38.9216 -77.0282 451.5 27.7 50.4 1012.3 #ff8300
4 EE-1 2018-06-07 09:12:25 38.9216 -77.0282 452.5 29.4 46.6 1012.3 #ff7f00
4 EE-1 2018-06-07 09:26:56 38.9216 -77.0282 454.2 30.6 43.7 1012.3 #ff7800
4 EE-1 2018-06-07 09:41:26 38.9216 -77.0282 440.2 30.1 45.2 1012.4 #ffaf00
4 EE-1 2018-06-07 09:55:58 38.9216 -77.0282 442.5 31.1 43.7 1012.5 #ffa600
4 EE-1 2018-06-07 10:10:29 38.9216 -77.0282 433 31.2 42.6 1012.5 #ffcc00
4 EE-1 2018-06-07 10:25:00 38.9216 -77.0282 433.5 30.2 43.7 1012.6 #ffca00
4 EE-1 2018-06-07 10:39:31 38.9216 -77.0282 430.2 29.4 45.2 1012.7 #ffd700
4 EE-1 2018-06-07 10:54:02 38.9216 -77.0282 427.7 30.9 43.4 1012.5 #ffe000
4 EE-1 2018-06-07 11:08:33 38.9216 -77.0282 427.7 32.6 40.8 1012.6 #ffe000
4 EE-1 2018-06-07 11:23:04 38.9216 -77.0282 438 33.9 38.2 1012.5 #ffb800
4 EE-1 2018-06-07 11:37:35 38.9216 -77.0282 434.2 34.6 36.9 1012.5 #ffc700
4 EE-1 2018-06-07 11:52:05 38.9216 -77.0282 428 31.1 42.5 1012.6 #ffdf00
4 EE-1 2018-06-07 12:06:36 38.9216 -77.0282 423.8 30.9 42.6 1012.6 #ffef00
4 EE-1 2018-06-07 12:21:07 38.9216 -77.0282 421.2 34 38.4 1012.4 #fffa00
4 EE-1 2018-06-07 12:35:38 38.9216 -77.0282 419.8 28.9 46 1012.3 #feff00
4 EE-1 2018-06-07 12:50:09 38.9216 -77.0282 421.8 30.6 43.4 1012.1 #fff700
4 EE-1 2018-06-07 13:04:39 38.9216 -77.0282 422.3 32 41.9 1011.9 #fff500
4 EE-1 2018-06-07 13:19:10 38.9216 -77.0282 422.7 32 41.5 1011.8 #fff400
4 EE-1 2018-06-07 13:33:41 38.9216 -77.0282 415.8 31.4 42.4 1011.7 #efff00
4 EE-1 2018-06-07 13:48:12 38.9216 -77.0282 418 30.7 43.3 1011.8 #f7ff00
4 EE-1 2018-06-07 14:02:42 38.9216 -77.0282 421.3 29.6 45.9 1011.8 #fff900
4 EE-1 2018-06-07 14:17:13 38.9216 -77.0282 415.8 31.2 42.6 1011.6 #efff00
4 EE-1 2018-06-07 14:31:44 38.9216 -77.0282 419 31.5 42 1011.5 #fbff00
4 EE-1 2018-06-07 14:46:15 38.9216 -77.0282 416 32.6 40.2 1011.5 #f0ff00
4 EE-1 2018-06-07 15:00:46 38.9216 -77.0282 421 33.2 39.1 1011.4 #fffb00
4 EE-1 2018-06-07 15:15:17 38.9216 -77.0282 422.5 33.5 38 1011.3 #fff500
4 EE-1 2018-06-07 15:29:47 38.9216 -77.0282 417.5 32.3 38.8 1011.2 #f5ff00
4 EE-1 2018-06-07 15:44:18 38.9216 -77.0282 418 34.9 36.2 1010.9 #f7ff00
4 EE-1 2018-06-07 15:58:49 38.9216 -77.0282 417 34.9 35.6 1010.8 #f4ff00
4 EE-1 2018-06-07 16:13:20 38.9216 -77.0282 417.3 32.2 39.7 1010.7 #f5ff00
4 EE-1 2018-06-07 16:27:51 38.9216 -77.0282 411.8 32.8 39.1 1010.7 #e1ff00
4 EE-1 2018-06-07 16:42:21 38.9216 -77.0282 418 30.9 42.1 1010.7 #f7ff00
4 EE-1 2018-06-07 16:56:52 38.9216 -77.0282 418 30 44.2 1010.7 #f7ff00
4 EE-1 2018-06-07 17:11:23 38.9216 -77.0282 421 31.8 41 1010.6 #fffb00
4 EE-1 2018-06-07 17:25:54 38.9216 -77.0282 420.7 30.8 43 1010.5 #fffc00
4 EE-1 2018-06-07 17:40:25 38.9216 -77.0282 419 31.9 41.5 1010.5 #fbff00
4 EE-1 2018-06-07 17:54:56 38.9216 -77.0282 420 32.3 40.7 1010.6 #ffff00
4 EE-1 2018-06-07 18:09:27 38.9216 -77.0282 421.8 32.5 41.3 1010.6 #fff700
4 EE-1 2018-06-07 18:23:58 38.9216 -77.0282 421 34.3 38.3 1010.6 #fffb00
4 EE-1 2018-06-07 18:38:28 38.9216 -77.0282 417 31.8 42.1 1010.8 #f4ff00
4 EE-1 2018-06-07 18:52:59 38.9216 -77.0282 419 30.4 44.1 1011.1 #fbff00
4 EE-1 2018-06-07 19:07:30 38.9216 -77.0282 418 30.5 44.1 1011 #f7ff00
4 EE-1 2018-06-07 19:22:02 38.9216 -77.0282 419.8 30 45.3 1010.9 #feff00
4 EE-1 2018-06-07 19:36:33 38.9216 -77.0282 422.7 29 47.8 1011 #fff400
4 EE-1 2018-06-07 19:51:03 38.9216 -77.0282 418.7 28.6 49 1010.9 #faff00
4 EE-1 2018-06-07 20:05:34 38.9216 -77.0282 421 27.7 51.6 1011.1 #fffb00
4 EE-1 2018-06-07 20:20:05 38.9216 -77.0282 422 27 54 1011.2 #fff700
4 EE-1 2018-06-07 20:34:36 38.9216 -77.0282 423.5 26.5 57.5 1011.2 #fff100
4 EE-1 2018-06-07 20:49:07 38.9216 -77.0282 418 26.3 58.6 1011.3 #f7ff00
4 EE-1 2018-06-07 21:03:38 38.9216 -77.0282 421.7 26.1 58.8 1011.5 #fff800
4 EE-1 2018-06-07 21:18:09 38.9216 -77.0282 423 25.7 62.6 1011.9 #fff300
4 EE-1 2018-06-07 21:32:39 38.9216 -77.0282 422.5 25.2 65 1012.2 #fff500
4 EE-1 2018-06-07 21:47:10 38.9216 -77.0282 422.2 25 65.6 1012.3 #fff600
4 EE-1 2018-06-07 22:01:41 38.9216 -77.0282 430.2 24.6 66.5 1012.4 #ffd700
4 EE-1 2018-06-07 22:16:12 38.9216 -77.0282 428.8 24.6 67.6 1012.6 #ffdc00
4 EE-1 2018-06-07 22:30:42 38.9216 -77.0282 428.2 23.8 69.9 1012.9 #ffde00
4 EE-1 2018-06-07 22:45:13 38.9216 -77.0282 431 23.5 71.2 1013 #ffd300
4 EE-1 2018-06-07 22:59:44 38.9216 -77.0282 432.3 23.6 71.3 1013.1 #ffce00
4 EE-1 2018-06-07 23:14:15 38.9216 -77.0282 429.8 23.8 70.3 1013.2 #ffd800
4 EE-1 2018-06-07 23:28:46 38.9216 -77.0282 435 22.9 73.3 1013.3 #ffc400
4 EE-1 2018-06-07 23:43:16 38.9216 -77.0282 434.7 23.1 73 1013.4 #ffc500
4 EE-1 2018-06-07 23:57:47 38.9216 -77.0282 433.8 22.6 74.7 1013.5 #ffc800
4 EE-1 2018-06-09 00:00:50 38.9216 -77.0282 432 26.9 68.8 1012.9 #ffcf00
4 EE-1 2018-06-09 00:15:22 38.9216 -77.0282 439.8 26 74.2 1012.9 #ffb100
4 EE-1 2018-06-09 00:29:52 38.9216 -77.0282 443 26.4 72.6 1012.9 #ffa400
4 EE-1 2018-06-09 00:44:23 38.9216 -77.0282 444.5 26.3 72.8 1012.9 #ff9e00
4 EE-1 2018-06-09 00:58:54 38.9216 -77.0282 437 26.1 74.4 1012.7 #ffbc00
4 EE-1 2018-06-09 01:13:25 38.9216 -77.0282 437 26.2 74.4 1012.8 #ffbc00
4 EE-1 2018-06-09 01:27:56 38.9216 -77.0282 441.5 26.2 73.9 1012.8 #ffaa00
4 EE-1 2018-06-09 01:42:26 38.9216 -77.0282 439.7 26 76.1 1012.8 #ffb100
4 EE-1 2018-06-09 01:56:57 38.9216 -77.0282 439.2 25.4 78.6 1012.7 #ffb300
4 EE-1 2018-06-09 02:11:28 38.9216 -77.0282 444.7 25.9 75 1012.6 #ff9e00
4 EE-1 2018-06-09 02:25:58 38.9216 -77.0282 445.5 26 75.4 1012.4 #ff9a00
4 EE-1 2018-06-09 02:40:30 38.9216 -77.0282 448 25.4 78.1 1012.4 #ff9100
4 EE-1 2018-06-09 02:55:00 38.9216 -77.0282 444.7 24.8 81.1 1012.3 #ff9e00
4 EE-1 2018-06-09 03:09:31 38.9216 -77.0282 445 25 79.5 1012.3 #ff9c00
4 EE-1 2018-06-09 03:24:02 38.9216 -77.0282 446.8 24.3 84.6 1012.3 #ff9500
4 EE-1 2018-06-09 03:38:33 38.9216 -77.0282 451 25 79.3 1012.3 #ff8500
4 EE-1 2018-06-09 03:53:03 38.9216 -77.0282 454 24.2 85 1012.2 #ff7900
4 EE-1 2018-06-09 04:07:34 38.9216 -77.0282 462 24.1 86.4 1012.2 #ff5a00
4 EE-1 2018-06-09 04:22:05 38.9216 -77.0282 457.5 24 87 1012.1 #ff6b00
4 EE-1 2018-06-09 04:36:36 38.9216 -77.0282 457 24.2 84.9 1012.1 #ff6d00
4 EE-1 2018-06-09 04:51:07 38.9216 -77.0282 461.2 24.2 85.5 1012.1 #ff5d00
4 EE-1 2018-06-09 05:05:38 38.9216 -77.0282 459.3 24.7 82.7 1012.2 #ff6400
4 EE-1 2018-06-09 05:20:09 38.9216 -77.0282 461 24.3 86.4 1012.1 #ff5e00
4 EE-1 2018-06-09 05:34:40 38.9216 -77.0282 462.2 24.3 85.4 1012.2 #ff5900
4 EE-1 2018-06-09 05:49:11 38.9216 -77.0282 463.7 24.6 82.5 1012.4 #ff5300
4 EE-1 2018-06-09 06:03:41 38.9216 -77.0282 467.5 24.8 82.3 1012.6 #ff4400
4 EE-1 2018-06-09 06:18:12 38.9216 -77.0282 468.5 25.3 80.5 1012.6 #ff4000
4 EE-1 2018-06-09 06:32:43 38.9216 -77.0282 474 25.7 78.3 1012.6 #ff2b00
4 EE-1 2018-06-09 06:47:14 38.9216 -77.0282 473 26.1 77.4 1012.6 #ff2f00
4 EE-1 2018-06-09 07:01:45 38.9216 -77.0282 474 26.7 76.1 1012.6 #ff2b00
4 EE-1 2018-06-09 07:16:16 38.9216 -77.0282 471 27.5 74.3 1012.7 #ff3600
4 EE-1 2018-06-09 07:30:47 38.9216 -77.0282 473 28 71.1 1012.8 #ff2f00
4 EE-1 2018-06-09 07:45:18 38.9216 -77.0282 465.3 29.1 70 1012.9 #ff4d00
4 EE-1 2018-06-09 07:59:49 38.9216 -77.0282 463.7 30.3 67.5 1012.9 #ff5300
4 EE-1 2018-06-09 08:14:19 38.9216 -77.0282 478 30.9 63.8 1012.9 #ff1b00
4 EE-1 2018-06-09 08:28:50 38.9216 -77.0282 472.7 30.6 63.4 1012.6 #ff3000
4 EE-1 2018-06-09 08:43:21 38.9216 -77.0282 478 30.5 64.1 1012.7 #ff1b00
4 EE-1 2018-06-09 08:57:52 38.9216 -77.0282 474 31.9 62.4 1012.6 #ff2b00
4 EE-1 2018-06-09 09:12:22 38.9216 -77.0282 462.3 33.7 58.4 1012.6 #ff5800
4 EE-1 2018-06-09 09:26:53 38.9216 -77.0282 455.7 35.9 53.4 1012.5 #ff7300
4 EE-1 2018-06-09 09:41:24 38.9216 -77.0282 446 38 48.9 1012.5 #ff9900
4 EE-1 2018-06-09 09:55:55 38.9216 -77.0282 439 37.4 48 1012.3 #ffb400
4 EE-1 2018-06-09 10:10:26 38.9216 -77.0282 450 39.4 45.6 1012.3 #ff8900
4 EE-1 2018-06-09 10:24:56 38.9216 -77.0282 449 40.3 43 1012.2 #ff8d00
4 EE-1 2018-06-09 10:39:27 38.9216 -77.0282 443.5 40 42.1 1012.1 #ffa200
4 EE-1 2018-06-09 10:53:58 38.9216 -77.0282 435 39.1 43 1012.2 #ffc400
4 EE-1 2018-06-09 11:08:29 38.9216 -77.0282 442 40.6 41.6 1012.2 #ffa800
4 EE-1 2018-06-09 11:22:59 38.9216 -77.0282 444.8 42.8 38.1 1012.3 #ff9d00
4 EE-1 2018-06-09 11:37:30 38.9216 -77.0282 438 42.2 38.3 1012.3 #ffb800
4 EE-1 2018-06-09 11:52:01 38.9216 -77.0282 435.7 44.5 35.1 1012.2 #ffc100
4 EE-1 2018-06-09 12:06:31 38.9216 -77.0282 434.8 43.6 35.2 1012.1 #ffc400
4 EE-1 2018-06-09 12:21:02 38.9216 -77.0282 441 39.6 40.7 1012 #ffac00
4 EE-1 2018-06-09 12:35:33 38.9216 -77.0282 442 37 44.7 1011.9 #ffa800
4 EE-1 2018-06-09 12:50:04 38.9216 -77.0282 431 38.1 44.3 1011.6 #ffd300
4 EE-1 2018-06-09 13:04:35 38.9216 -77.0282 431.7 38.8 43.7 1011.4 #ffd100
4 EE-1 2018-06-09 13:19:06 38.9216 -77.0282 431.8 37.1 46.4 1011.2 #ffd000
4 EE-1 2018-06-09 13:33:36 38.9216 -77.0282 437 35.9 48.6 1011 #ffbc00
4 EE-1 2018-06-09 13:48:07 38.9216 -77.0282 429 35.9 48.8 1010.9 #ffdb00
4 EE-1 2018-06-09 14:02:38 38.9216 -77.0282 428.8 36.2 48.8 1010.6 #ffdc00
4 EE-1 2018-06-09 14:17:08 38.9216 -77.0282 428 34.2 49.7 1010.3 #ffdf00
4 EE-1 2018-06-09 14:31:39 38.9216 -77.0282 426.5 36.5 46.6 1010.4 #ffe500
4 EE-1 2018-06-09 14:46:10 38.9216 -77.0282 424 36.7 45.7 1010.2 #ffef00
4 EE-1 2018-06-09 15:00:41 38.9216 -77.0282 422.2 35.4 45 1010.1 #fff600
4 EE-1 2018-06-09 15:15:12 38.9216 -77.0282 419.2 35.8 44.5 1010 #fbff00
4 EE-1 2018-06-09 15:29:44 38.9216 -77.0282 423.7 38.3 41.2 1009.9 #fff000
4 EE-1 2018-06-09 15:44:14 38.9216 -77.0282 427 41.1 38.1 1009.5 #ffe300
4 EE-1 2018-06-09 15:58:45 38.9216 -77.0282 423 42.3 36 1009 #fff300
4 EE-1 2018-06-09 16:13:16 38.9216 -77.0282 425.2 41.2 37.8 1008.7 #ffea00
4 EE-1 2018-06-09 16:27:47 38.9216 -77.0282 427.2 42 36.2 1008.5 #ffe200
4 EE-1 2018-06-09 16:42:18 38.9216 -77.0282 425.3 40.3 37.9 1008.8 #ffea00
4 EE-1 2018-06-09 16:56:48 38.9216 -77.0282 480.2 45.3 32.9 1008.7 #ff1200
4 EE-1 2018-06-09 17:11:19 38.9216 -77.0282 428 39.9 39.5 1009.1 #ffdf00
4 EE-1 2018-06-09 17:25:50 38.9216 -77.0282 421 33.3 50.9 1009.5 #fffb00
4 EE-1 2018-06-09 17:40:21 38.9216 -77.0282 421.5 31.1 56.6 1009.3 #fff900
4 EE-1 2018-06-09 17:54:52 38.9216 -77.0282 425.8 31 57.2 1009.3 #ffe800
4 EE-1 2018-06-09 18:09:22 38.9216 -77.0282 421.3 31.7 57.3 1009.1 #fff900
4 EE-1 2018-06-09 18:23:53 38.9216 -77.0282 422.2 33.6 52.1 1009.4 #fff600
4 EE-1 2018-06-09 18:38:24 38.9216 -77.0282 420.8 33.1 54.3 1009.1 #fffb00
4 EE-1 2018-06-09 18:52:55 38.9216 -77.0282 420.8 30.8 59.2 1009.2 #fffb00
4 EE-1 2018-06-09 19:07:25 38.9216 -77.0282 423.2 29.7 61.2 1009.4 #fff200
4 EE-1 2018-06-09 19:21:56 38.9216 -77.0282 423.7 29.3 62.7 1009.6 #fff000
4 EE-1 2018-06-09 19:36:27 38.9216 -77.0282 424 28.9 64 1009.8 #ffef00
4 EE-1 2018-06-09 19:50:58 38.9216 -77.0282 428.5 28.8 65.6 1009.9 #ffdd00
4 EE-1 2018-06-09 20:05:29 38.9216 -77.0282 426 28.2 67.8 1010.1 #ffe700
4 EE-1 2018-06-09 20:19:59 38.9216 -77.0282 425 27.5 71.6 1010.3 #ffeb00
4 EE-1 2018-06-09 20:34:30 38.9216 -77.0282 427.7 27.5 73 1010.3 #ffe000
4 EE-1 2018-06-09 20:49:01 38.9216 -77.0282 424 27.5 71.8 1010.5 #ffef00
4 EE-1 2018-06-09 21:03:32 38.9216 -77.0282 430.3 27.6 70.6 1010.4 #ffd600
4 EE-1 2018-06-09 21:18:03 38.9216 -77.0282 431.5 27.2 70.7 1010.7 #ffd100
4 EE-1 2018-06-09 21:32:34 38.9216 -77.0282 430 26.4 76 1010.7 #ffd700
4 EE-1 2018-06-09 21:47:04 38.9216 -77.0282 433 25.8 78 1010.9 #ffcc00
4 EE-1 2018-06-09 22:01:35 38.9216 -77.0282 440 25.4 81.3 1010.7 #ffb000
4 EE-1 2018-06-09 22:16:06 38.9216 -77.0282 440.8 25 82.5 1010.5 #ffad00
4 EE-1 2018-06-09 22:30:37 38.9216 -77.0282 436.7 24.5 85.2 1010.5 #ffbd00
4 EE-1 2018-06-09 22:45:08 38.9216 -77.0282 441.5 24.5 84.1 1010.4 #ffaa00
4 EE-1 2018-06-09 22:59:39 38.9216 -77.0282 445.3 24.2 84.7 1010.5 #ff9b00
4 EE-1 2018-06-09 23:14:10 38.9216 -77.0282 445.3 24 85.5 1010.5 #ff9b00
4 EE-1 2018-06-09 23:28:40 38.9216 -77.0282 447 23.8 85.8 1010.4 #ff9500
4 EE-1 2018-06-09 23:43:11 38.9216 -77.0282 445.7 24.4 83.6 1010.2 #ff9a00
4 EE-1 2018-06-09 23:57:42 38.9216 -77.0282 443 24.6 81.3 1010.3 #ffa400
4 EE-1 2018-06-11 00:00:49 38.9216 -77.0282 431 21.4 79.3 1006.5 #ffd300
4 EE-1 2018-06-11 00:15:20 38.9216 -77.0282 428.8 21.4 79.5 1006.5 #ffdc00
4 EE-1 2018-06-11 00:29:51 38.9216 -77.0282 430.5 20.8 81.9 1006.2 #ffd500
4 EE-1 2018-06-11 00:44:21 38.9216 -77.0282 435 20.6 82.1 1006 #ffc400
4 EE-1 2018-06-11 00:58:52 38.9216 -77.0282 430 20.5 82.6 1005.8 #ffd700
4 EE-1 2018-06-11 01:13:23 38.9216 -77.0282 431.5 20.2 83.5 1005.6 #ffd100
4 EE-1 2018-06-11 01:27:54 38.9216 -77.0282 433 20.1 83.3 1005.7 #ffcc00
4 EE-1 2018-06-11 01:42:24 38.9216 -77.0282 431 20 83.8 1005.9 #ffd300
4 EE-1 2018-06-11 01:56:55 38.9216 -77.0282 434.2 19.6 84.5 1005.9 #ffc700
4 EE-1 2018-06-11 02:11:26 38.9216 -77.0282 435.7 19.5 84.7 1005.7 #ffc100
4 EE-1 2018-06-11 02:25:57 38.9216 -77.0282 432 19.5 84.1 1005.7 #ffcf00
4 EE-1 2018-06-11 02:40:27 38.9216 -77.0282 432.7 19.3 85.2 1005.6 #ffcd00
4 EE-1 2018-06-11 02:54:58 38.9216 -77.0282 434 19.1 85.1 1005.7 #ffc800
4 EE-1 2018-06-11 03:09:29 38.9216 -77.0282 429.3 19.2 84.7 1006.3 #ffda00
4 EE-1 2018-06-11 03:24:00 38.9216 -77.0282 434 18.7 86 1005.8 #ffc800
4 EE-1 2018-06-11 03:38:31 38.9216 -77.0282 434.8 18.7 85.7 1005.6 #ffc400
4 EE-1 2018-06-11 03:53:01 38.9216 -77.0282 439 18.6 85.7 1005.4 #ffb400
4 EE-1 2018-06-11 04:07:32 38.9216 -77.0282 437.3 18.2 87.1 1005.4 #ffbb00
4 EE-1 2018-06-11 04:22:03 38.9216 -77.0282 438.8 18.1 86.5 1005.3 #ffb500
4 EE-1 2018-06-11 04:36:34 38.9216 -77.0282 435 18.2 86 1005.6 #ffc400
4 EE-1 2018-06-11 04:51:04 38.9216 -77.0282 435 18.2 85.8 1006.3 #ffc400
4 EE-1 2018-06-11 05:05:35 38.9216 -77.0282 437.7 18.2 85.8 1006.6 #ffb900
4 EE-1 2018-06-11 05:20:06 38.9216 -77.0282 435.2 18.2 84.8 1007 #ffc300
4 EE-1 2018-06-11 05:34:37 38.9216 -77.0282 435.5 18.2 84.8 1007.1 #ffc200
4 EE-1 2018-06-11 05:49:08 38.9216 -77.0282 437.3 18 85.5 1007 #ffbb00
4 EE-1 2018-06-11 06:03:38 38.9216 -77.0282 436.8 17.8 86 1007 #ffbc00
4 EE-1 2018-06-11 06:18:09 38.9216 -77.0282 435.8 17.7 86 1006.9 #ffc000
4 EE-1 2018-06-11 06:32:40 38.9216 -77.0282 434.7 17.6 87 1007.2 #ffc500
4 EE-1 2018-06-11 06:47:11 38.9216 -77.0282 435 17.6 87.4 1007.4 #ffc400
4 EE-1 2018-06-11 07:01:41 38.9216 -77.0282 431.5 17.7 87 1007.7 #ffd100
4 EE-1 2018-06-11 07:16:12 38.9216 -77.0282 434 18 86.2 1007.9 #ffc800
4 EE-1 2018-06-11 07:30:43 38.9216 -77.0282 435 18.5 84.4 1007.9 #ffc400
4 EE-1 2018-06-11 07:45:14 38.9216 -77.0282 438.5 18.8 84.2 1008.4 #ffb600
4 EE-1 2018-06-11 07:59:44 38.9216 -77.0282 438.7 18.9 84.2 1008.7 #ffb500
4 EE-1 2018-06-11 08:14:15 38.9216 -77.0282 436 19.1 83.4 1008.8 #ffc000
4 EE-1 2018-06-11 08:28:46 38.9216 -77.0282 435 19.6 81.6 1008.9 #ffc400
4 EE-1 2018-06-11 08:43:17 38.9216 -77.0282 435.3 19.5 81.8 1009.1 #ffc200
4 EE-1 2018-06-11 08:57:47 38.9216 -77.0282 436.2 19 83.2 1009.5 #ffbf00
4 EE-1 2018-06-11 09:12:18 38.9216 -77.0282 435 19 82.8 1009.5 #ffc400
4 EE-1 2018-06-11 09:26:49 38.9216 -77.0282 435 18.9 83.7 1009.6 #ffc400
4 EE-1 2018-06-11 09:41:20 38.9216 -77.0282 433 19.1 83.2 1009.5 #ffcc00
4 EE-1 2018-06-11 09:55:50 38.9216 -77.0282 433.7 19.1 82.7 1009.7 #ffc900
4 EE-1 2018-06-11 10:10:21 38.9216 -77.0282 432.5 19 83.9 1010 #ffcd00
4 EE-1 2018-06-11 10:24:52 38.9216 -77.0282 438.8 19.5 83.1 1010 #ffb500
4 EE-1 2018-06-11 10:39:23 38.9216 -77.0282 440.3 19.8 82 1010.1 #ffaf00
4 EE-1 2018-06-11 10:53:53 38.9216 -77.0282 440.3 20 81 1010.2 #ffaf00
4 EE-1 2018-06-11 11:08:24 38.9216 -77.0282 438 19.8 81.5 1010.8 #ffb800
4 EE-1 2018-06-11 11:22:55 38.9216 -77.0282 436.8 19.9 81.5 1010.6 #ffbc00
4 EE-1 2018-06-11 11:37:26 38.9216 -77.0282 441 20.1 81 1010.9 #ffac00
4 EE-1 2018-06-11 11:51:56 38.9216 -77.0282 441.8 21.5 77.8 1010.4 #ffa900
4 EE-1 2018-06-11 12:06:27 38.9216 -77.0282 438.2 22 75.6 1010.5 #ffb700
4 EE-1 2018-06-11 12:20:58 38.9216 -77.0282 435.3 22.3 73.4 1010.3 #ffc200
4 EE-1 2018-06-11 12:35:29 38.9216 -77.0282 436 22.1 73.2 1010.4 #ffc000
4 EE-1 2018-06-11 12:49:59 38.9216 -77.0282 437.3 21.9 75.1 1010.8 #ffbb00
4 EE-1 2018-06-11 13:04:30 38.9216 -77.0282 434.5 21.7 75.4 1010.9 #ffc600
4 EE-1 2018-06-11 13:19:01 38.9216 -77.0282 435 21.6 75.7 1011 #ffc400
4 EE-1 2018-06-11 13:33:32 38.9216 -77.0282 434.3 22.7 74.6 1010.9 #ffc600
4 EE-1 2018-06-11 13:48:03 38.9216 -77.0282 434.2 23.6 69.8 1010.9 #ffc700
4 EE-1 2018-06-11 14:02:34 38.9216 -77.0282 429.7 23 69.8 1010.8 #ffd900
4 EE-1 2018-06-11 14:17:04 38.9216 -77.0282 427 23.4 70 1011.1 #ffe300
4 EE-1 2018-06-11 14:31:35 38.9216 -77.0282 431 22.7 71.9 1011.4 #ffd300
4 EE-1 2018-06-11 14:46:06 38.9216 -77.0282 433 22.9 71.2 1011.4 #ffcc00
4 EE-1 2018-06-11 15:00:37 38.9216 -77.0282 428.8 22.7 70.6 1011.3 #ffdc00
4 EE-1 2018-06-11 15:15:08 38.9216 -77.0282 426.2 22.6 70.6 1011.4 #ffe600
4 EE-1 2018-06-11 15:29:39 38.9216 -77.0282 426.5 22.1 71.2 1011.5 #ffe500
4 EE-1 2018-06-11 15:44:10 38.9216 -77.0282 423.3 22.5 70.6 1011.3 #fff100
4 EE-1 2018-06-11 15:58:41 38.9216 -77.0282 430.3 22.5 71 1011.5 #ffd600
4 EE-1 2018-06-11 16:13:12 38.9216 -77.0282 423.8 22.6 69.9 1011.4 #ffef00
4 EE-1 2018-06-11 16:27:42 38.9216 -77.0282 421.8 23.4 67.9 1011.4 #fff700
4 EE-1 2018-06-11 16:42:13 38.9216 -77.0282 419 22.8 68.3 1011.4 #fbff00
4 EE-1 2018-06-11 16:56:44 38.9216 -77.0282 417.8 22.2 69.4 1011.4 #f7ff00
4 EE-1 2018-06-11 17:11:15 38.9216 -77.0282 422.8 21.8 70.8 1011.5 #fff300
4 EE-1 2018-06-11 17:25:46 38.9216 -77.0282 420.2 21.6 71.7 1011.5 #fffe00
4 EE-1 2018-06-11 17:40:16 38.9216 -77.0282 420.3 21.8 70.7 1011.6 #fffd00
4 EE-1 2018-06-11 17:54:47 38.9216 -77.0282 415.8 22.5 68.5 1011.8 #efff00
4 EE-1 2018-06-11 18:09:18 38.9216 -77.0282 415 22.1 68.6 1011.7 #ecff00
4 EE-1 2018-06-11 18:23:49 38.9216 -77.0282 415.2 22.1 68.7 1011.7 #edff00
4 EE-1 2018-06-11 18:38:19 38.9216 -77.0282 415.3 22.1 68.3 1011.8 #edff00
4 EE-1 2018-06-11 18:52:50 38.9216 -77.0282 416 21.9 68.9 1012 #f0ff00
4 EE-1 2018-06-11 19:07:21 38.9216 -77.0282 417 21.4 70.2 1012.2 #f4ff00
4 EE-1 2018-06-11 19:21:52 38.9216 -77.0282 418 21.6 70 1012.5 #f7ff00
4 EE-1 2018-06-11 19:36:22 38.9216 -77.0282 418 21.6 69.8 1012.7 #f7ff00
4 EE-1 2018-06-11 19:50:53 38.9216 -77.0282 417.7 21.3 70.4 1012.9 #f6ff00
4 EE-1 2018-06-11 20:05:24 38.9216 -77.0282 418 21.1 70.8 1012.9 #f7ff00
4 EE-1 2018-06-11 20:19:56 38.9216 -77.0282 418.5 20.9 72 1013.1 #f9ff00
4 EE-1 2018-06-11 20:34:27 38.9216 -77.0282 420.8 20.7 72.4 1013.3 #fffb00
4 EE-1 2018-06-11 20:48:57 38.9216 -77.0282 420 20.9 71.8 1013.5 #ffff00
4 EE-1 2018-06-11 21:03:28 38.9216 -77.0282 419 20.9 71.5 1013.8 #fbff00
4 EE-1 2018-06-11 21:17:59 38.9216 -77.0282 419.5 20.8 71.8 1013.9 #fdff00
4 EE-1 2018-06-11 21:32:30 38.9216 -77.0282 418.5 20.6 71.9 1014 #f9ff00
4 EE-1 2018-06-11 21:47:00 38.9216 -77.0282 420 20.6 71.9 1014.2 #ffff00
4 EE-1 2018-06-11 22:01:31 38.9216 -77.0282 417.8 20.6 71.9 1014.3 #f7ff00
4 EE-1 2018-06-11 22:16:02 38.9216 -77.0282 420.8 20.5 72 1014.5 #fffb00
4 EE-1 2018-06-11 22:30:33 38.9216 -77.0282 420 20.5 72.1 1014.7 #ffff00
4 EE-1 2018-06-11 22:45:03 38.9216 -77.0282 423 20.1 72.4 1014.9 #fff300
4 EE-1 2018-06-11 22:59:34 38.9216 -77.0282 425 19.7 73.4 1015.1 #ffeb00
4 EE-1 2018-06-11 23:14:05 38.9216 -77.0282 428 19.3 73.8 1015.1 #ffdf00
4 EE-1 2018-06-11 23:28:36 38.9216 -77.0282 426.7 19.1 75 1015.3 #ffe400
4 EE-1 2018-06-11 23:43:06 38.9216 -77.0282 426.2 19 76.6 1015.5 #ffe600
4 EE-1 2018-06-11 23:57:37 38.9216 -77.0282 428.8 18.8 77.2 1015.4 #ffdc00
4 EE-1 2018-06-12 00:00:50 38.9216 -77.0282 431 18.7 76.6 1015.4 #ffd300
4 EE-1 2018-06-12 00:15:21 38.9216 -77.0282 434.8 18.6 78 1015.4 #ffc400
4 EE-1 2018-06-12 00:29:52 38.9216 -77.0282 439.7 18.5 79.6 1015.4 #ffb100
4 EE-1 2018-06-12 00:44:23 38.9216 -77.0282 441.7 18.3 80.3 1015.4 #ffa900
4 EE-1 2018-06-12 00:58:55 38.9216 -77.0282 438.2 18.2 80.7 1015.5 #ffb700
4 EE-1 2018-06-12 01:13:25 38.9216 -77.0282 439.3 18.1 80.8 1015.6 #ffb300
4 EE-1 2018-06-12 01:27:56 38.9216 -77.0282 441 17.9 81.5 1015.7 #ffac00
4 EE-1 2018-06-12 01:42:27 38.9216 -77.0282 449 17.7 82 1015.8 #ff8d00
4 EE-1 2018-06-12 01:56:58 38.9216 -77.0282 446 17.6 81.6 1016 #ff9900
4 EE-1 2018-06-12 02:11:29 38.9216 -77.0282 449 17.3 82.3 1015.9 #ff8d00
4 EE-1 2018-06-12 02:26:00 38.9216 -77.0282 450.5 17.1 82.4 1015.6 #ff8700
4 EE-1 2018-06-12 02:40:31 38.9216 -77.0282 447.2 16.9 83.1 1015.7 #ff9400
4 EE-1 2018-06-12 02:55:01 38.9216 -77.0282 450 16.8 83.1 1015.7 #ff8900
4 EE-1 2018-06-12 03:09:32 38.9216 -77.0282 454 16.6 84.2 1015.8 #ff7900
4 EE-1 2018-06-12 03:24:03 38.9216 -77.0282 454.3 16.5 84.9 1015.7 #ff7800
4 EE-1 2018-06-12 03:38:34 38.9216 -77.0282 453 16.3 84.7 1015.9 #ff7d00
4 EE-1 2018-06-12 03:53:05 38.9216 -77.0282 452 16.2 84.6 1016 #ff8100
4 EE-1 2018-06-12 04:07:35 38.9216 -77.0282 452.5 16.1 84.6 1015.8 #ff7f00
4 EE-1 2018-06-12 04:22:06 38.9216 -77.0282 450.8 16 84.1 1016 #ff8600
4 EE-1 2018-06-12 04:36:37 38.9216 -77.0282 457.7 15.9 84 1016.1 #ff6b00
4 EE-1 2018-06-12 04:51:08 38.9216 -77.0282 454.2 15.8 85 1016 #ff7800
4 EE-1 2018-06-12 05:05:39 38.9216 -77.0282 452 15.8 83.8 1016.2 #ff8100
4 EE-1 2018-06-12 05:20:10 38.9216 -77.0282 450.3 15.8 83.8 1016 #ff8800
4 EE-1 2018-06-12 05:34:40 38.9216 -77.0282 455.5 15.8 83.8 1016.1 #ff7300
4 EE-1 2018-06-12 05:49:12 38.9216 -77.0282 476.7 15.5 84.8 1016.3 #ff2000
4 EE-1 2018-06-12 06:03:42 38.9216 -77.0282 458.5 15.7 84.1 1016.3 #ff6700
4 EE-1 2018-06-12 06:18:13 38.9216 -77.0282 452 15.9 83.9 1016.3 #ff8100
4 EE-1 2018-06-12 06:32:44 38.9216 -77.0282 450.3 16.4 83.1 1016.3 #ff8800
4 EE-1 2018-06-12 06:47:15 38.9216 -77.0282 461 17.1 81.4 1016.4 #ff5e00
4 EE-1 2018-06-12 07:01:46 38.9216 -77.0282 472 18 79.8 1016.3 #ff3300
4 EE-1 2018-06-12 07:16:17 38.9216 -77.0282 469 18.9 77.6 1016.6 #ff3e00
4 EE-1 2018-06-12 07:30:48 38.9216 -77.0282 469.5 19.7 75.1 1016.7 #ff3c00
4 EE-1 2018-06-12 07:45:19 38.9216 -77.0282 474.7 20.9 73.8 1016.8 #ff2800
4 EE-1 2018-06-12 07:59:49 38.9216 -77.0282 463 22.7 69.9 1016.8 #ff5600
4 EE-1 2018-06-12 08:14:20 38.9216 -77.0282 452.2 23.1 66.4 1016.7 #ff8000
4 EE-1 2018-06-12 08:28:51 38.9216 -77.0282 441 24.8 60.8 1016.6 #ffac00
4 EE-1 2018-06-12 08:43:22 38.9216 -77.0282 437.3 25.9 58.9 1016.7 #ffbb00
4 EE-1 2018-06-12 08:57:53 38.9216 -77.0282 439.7 27.1 55.3 1016.7 #ffb100
4 EE-1 2018-06-12 09:12:24 38.9216 -77.0282 441.2 27.9 53.9 1016.8 #ffab00
4 EE-1 2018-06-12 09:26:55 38.9216 -77.0282 436.2 29 49.7 1016.7 #ffbf00
4 EE-1 2018-06-12 09:41:26 38.9216 -77.0282 435.3 29.7 47.5 1016.8 #ffc200
4 EE-1 2018-06-12 09:55:57 38.9216 -77.0282 431.2 28.4 49.1 1016.8 #ffd300
4 EE-1 2018-06-12 10:10:28 38.9216 -77.0282 433.2 31.9 44.3 1016.7 #ffcb00
4 EE-1 2018-06-12 10:24:58 38.9216 -77.0282 433.3 32.9 42.7 1016.8 #ffca00
4 EE-1 2018-06-12 10:39:29 38.9216 -77.0282 430.2 33.5 40.5 1016.8 #ffd700
4 EE-1 2018-06-12 10:54:00 38.9216 -77.0282 429.2 33.9 39 1016.6 #ffdb00
4 EE-1 2018-06-12 11:08:30 38.9216 -77.0282 427.8 34.3 38 1016.5 #ffe000
4 EE-1 2018-06-12 11:23:01 38.9216 -77.0282 421 33.6 37.4 1016.4 #fffb00
4 EE-1 2018-06-12 11:37:32 38.9216 -77.0282 425.5 35.2 36.1 1016.4 #ffe900
4 EE-1 2018-06-12 11:52:03 38.9216 -77.0282 421.3 34.1 34.9 1016.5 #fff900
4 EE-1 2018-06-12 12:06:34 38.9216 -77.0282 416.2 32.9 35.6 1016.1 #f1ff00
4 EE-1 2018-06-12 12:21:05 38.9216 -77.0282 417.5 33.6 34.8 1015.9 #f5ff00
4 EE-1 2018-06-12 12:35:36 38.9216 -77.0282 417 33.8 34.2 1015.9 #f4ff00
4 EE-1 2018-06-12 12:50:06 38.9216 -77.0282 418 34.9 34.2 1015.6 #f7ff00
4 EE-1 2018-06-12 13:04:37 38.9216 -77.0282 417 34.2 32.6 1015.7 #f4ff00
4 EE-1 2018-06-12 13:19:08 38.9216 -77.0282 411.2 34.3 32.4 1015.6 #deff00
4 EE-1 2018-06-12 13:33:39 38.9216 -77.0282 412 34.6 32.3 1015.6 #e1ff00
4 EE-1 2018-06-12 13:48:10 38.9216 -77.0282 418 35.9 31.9 1015.4 #f7ff00
4 EE-1 2018-06-12 14:02:40 38.9216 -77.0282 419.7 36.3 31.5 1015.4 #fdff00
4 EE-1 2018-06-12 14:17:11 38.9216 -77.0282 414.3 34.7 33.1 1014.9 #eaff00
4 EE-1 2018-06-12 14:31:42 38.9216 -77.0282 414 34.5 33.1 1014.9 #e9ff00
4 EE-1 2018-06-12 14:46:13 38.9216 -77.0282 413.2 36.2 30.5 1014.6 #e6ff00
4 EE-1 2018-06-12 15:00:44 38.9216 -77.0282 415.3 34.6 33.5 1014.4 #edff00
4 EE-1 2018-06-12 15:15:15 38.9216 -77.0282 414 34.4 33.1 1014.2 #e9ff00
4 EE-1 2018-06-12 15:29:46 38.9216 -77.0282 413.2 34.2 34 1014.2 #e6ff00
4 EE-1 2018-06-12 15:44:17 38.9216 -77.0282 416 35.8 33.6 1014 #f0ff00
4 EE-1 2018-06-12 15:58:47 38.9216 -77.0282 412.8 34.7 35.1 1013.9 #e4ff00
4 EE-1 2018-06-12 16:13:18 38.9216 -77.0282 413.2 32.6 39.1 1013.7 #e6ff00
4 EE-1 2018-06-12 16:27:49 38.9216 -77.0282 418.8 31.4 41.4 1013.7 #faff00
4 EE-1 2018-06-12 16:42:20 38.9216 -77.0282 414 31.2 42.3 1013.6 #e9ff00
4 EE-1 2018-06-12 16:56:51 38.9216 -77.0282 415 31.6 41.9 1013.5 #ecff00
4 EE-1 2018-06-12 17:11:21 38.9216 -77.0282 416.5 30.9 42.9 1013.2 #f2ff00
4 EE-1 2018-06-12 17:25:52 38.9216 -77.0282 414.2 29.5 46.7 1013.1 #e9ff00
4 EE-1 2018-06-12 17:40:23 38.9216 -77.0282 414 29.3 47.6 1012.8 #e9ff00
4 EE-1 2018-06-12 17:54:54 38.9216 -77.0282 415 29.1 48.9 1012.7 #ecff00
4 EE-1 2018-06-12 18:09:25 38.9216 -77.0282 414 28.7 50.2 1012.6 #e9ff00
4 EE-1 2018-06-12 18:23:56 38.9216 -77.0282 414.3 29.7 49.1 1012.4 #eaff00
4 EE-1 2018-06-12 18:38:26 38.9216 -77.0282 409.3 29.9 47.9 1012.4 #d8ff00
4 EE-1 2018-06-12 18:52:57 38.9216 -77.0282 416 29.3 49.3 1012.2 #f0ff00
4 EE-1 2018-06-12 19:07:28 38.9216 -77.0282 412 28.3 51.3 1012.1 #e1ff00
4 EE-1 2018-06-12 19:21:59 38.9216 -77.0282 412.8 26.7 54.9 1012.2 #e4ff00
4 EE-1 2018-06-12 19:36:30 38.9216 -77.0282 413 25.8 56.9 1012.1 #e5ff00
4 EE-1 2018-06-12 19:51:00 38.9216 -77.0282 414.5 25.6 57.8 1012.2 #eaff00
4 EE-1 2018-06-12 20:05:31 38.9216 -77.0282 414 24.9 59.7 1012.2 #e9ff00
4 EE-1 2018-06-12 20:20:02 38.9216 -77.0282 412.5 25 60.2 1012.4 #e3ff00
4 EE-1 2018-06-12 20:34:33 38.9216 -77.0282 417 24.8 61.1 1012.5 #f4ff00
4 EE-1 2018-06-12 20:49:04 38.9216 -77.0282 420.5 23.9 66.2 1012.4 #fffd00
4 EE-1 2018-06-12 21:03:34 38.9216 -77.0282 425.8 23.9 68 1012.5 #ffe800
4 EE-1 2018-06-12 21:18:05 38.9216 -77.0282 425 24.1 66.9 1012.6 #ffeb00
4 EE-1 2018-06-12 21:32:36 38.9216 -77.0282 423.8 23.6 67 1012.6 #ffef00
4 EE-1 2018-06-12 21:47:07 38.9216 -77.0282 425.7 23.4 68.1 1012.6 #ffe800
4 EE-1 2018-06-12 22:01:38 38.9216 -77.0282 422 22.3 75.3 1012.7 #fff700
4 EE-1 2018-06-12 22:16:09 38.9216 -77.0282 425 21.6 78.4 1012.6 #ffeb00
4 EE-1 2018-06-12 22:30:40 38.9216 -77.0282 426 22.5 74.7 1012.6 #ffe700
4 EE-1 2018-06-12 22:45:11 38.9216 -77.0282 426 22.5 74.1 1012.3 #ffe700
4 EE-1 2018-06-12 22:59:42 38.9216 -77.0282 430.5 22.5 75 1012.4 #ffd500
4 EE-1 2018-06-12 23:14:13 38.9216 -77.0282 428.5 22.3 76.1 1012.2 #ffdd00
4 EE-1 2018-06-12 23:28:44 38.9216 -77.0282 428 22.2 76.7 1012.3 #ffdf00
4 EE-1 2018-06-12 23:43:15 38.9216 -77.0282 425.8 22.4 76 1012.4 #ffe800
4 EE-1 2018-06-12 23:57:46 38.9216 -77.0282 427 22.5 76 1012.2 #ffe300
4 EE-1 2018-06-17 00:00:51 38.9216 -77.0282 434.7 28.5 49.3 1010.2 #ffc500
4 EE-1 2018-06-17 00:15:22 38.9216 -77.0282 438.5 28.3 49.9 1010.5 #ffb600
4 EE-1 2018-06-17 00:29:53 38.9216 -77.0282 439.7 28.1 49.2 1010.5 #ffb100
4 EE-1 2018-06-17 00:44:23 38.9216 -77.0282 444 27.4 52.6 1010.5 #ffa000
4 EE-1 2018-06-17 00:58:54 38.9216 -77.0282 437 27.5 53.8 1010.5 #ffbc00
4 EE-1 2018-06-17 01:13:25 38.9216 -77.0282 445 27.5 54.4 1010.4 #ff9c00
4 EE-1 2018-06-17 01:27:56 38.9216 -77.0282 442.2 27.7 55.2 1010.2 #ffa800
4 EE-1 2018-06-17 01:42:27 38.9216 -77.0282 442 27.2 57.8 1010.1 #ffa800
4 EE-1 2018-06-17 01:56:58 38.9216 -77.0282 445 27.5 57.4 1010 #ff9c00
4 EE-1 2018-06-17 02:11:29 38.9216 -77.0282 445.8 27 59.7 1010.1 #ff9900
4 EE-1 2018-06-17 02:26:00 38.9216 -77.0282 444.2 27.5 58.2 1010.1 #ffa000
4 EE-1 2018-06-17 02:40:31 38.9216 -77.0282 444.8 27.6 56.3 1009.9 #ff9d00
4 EE-1 2018-06-17 02:55:02 38.9216 -77.0282 448.5 27.4 57.2 1010 #ff8f00
4 EE-1 2018-06-17 03:09:33 38.9216 -77.0282 442.2 27.4 57.4 1010 #ffa800
4 EE-1 2018-06-17 03:24:03 38.9216 -77.0282 444.7 27.3 59.8 1010 #ff9e00
4 EE-1 2018-06-17 03:38:34 38.9216 -77.0282 447 27.2 59.3 1009.8 #ff9500
4 EE-1 2018-06-17 03:53:05 38.9216 -77.0282 443.8 27.2 59.4 1009.8 #ffa100
4 EE-1 2018-06-17 04:07:36 38.9216 -77.0282 444 26.9 60.1 1009.8 #ffa000
4 EE-1 2018-06-17 04:22:07 38.9216 -77.0282 446 27 59 1009.5 #ff9900
4 EE-1 2018-06-17 04:36:38 38.9216 -77.0282 449.5 27 59.4 1009.6 #ff8b00
4 EE-1 2018-06-17 04:51:09 38.9216 -77.0282 446 26.8 59.5 1009.7 #ff9900
4 EE-1 2018-06-17 05:05:40 38.9216 -77.0282 445.3 26.8 59.6 1009.7 #ff9b00
4 EE-1 2018-06-17 05:20:11 38.9216 -77.0282 446.7 26.7 60.3 1009.7 #ff9600
4 EE-1 2018-06-17 05:34:41 38.9216 -77.0282 448.7 26.6 60.9 1009.8 #ff8e00
4 EE-1 2018-06-17 05:49:12 38.9216 -77.0282 446.3 26.1 63.3 1009.9 #ff9700
4 EE-1 2018-06-17 06:03:43 38.9216 -77.0282 450.3 26.2 63.8 1010.2 #ff8800
4 EE-1 2018-06-17 06:18:14 38.9216 -77.0282 451.3 26.6 61.7 1010.2 #ff8400
4 EE-1 2018-06-17 06:32:45 38.9216 -77.0282 451.5 26.9 61 1010.6 #ff8300
4 EE-1 2018-06-17 06:47:16 38.9216 -77.0282 456.5 27.7 59.3 1010.5 #ff6f00
4 EE-1 2018-06-17 07:01:47 38.9216 -77.0282 475 28.6 58 1010.5 #ff2700
4 EE-1 2018-06-17 07:16:18 38.9216 -77.0282 466 30.2 55.8 1010.6 #ff4a00
4 EE-1 2018-06-17 07:30:48 38.9216 -77.0282 478 31.7